<?xml version="1.0" encoding="utf-8"?>
<gpx xmlns:xsi="http://www.w3.org/2001/XMLSchema-instance" xmlns:xsd="http://www.w3.org/2001/XMLSchema" version="1.1" creator="Shapelink.com" xmlns="http://www.topografix.com/GPX/1/1" xmlns:gpxtpx="http://www.garmin.com/xmlschemas/TrackPointExtension/v1">
  <metadata>
    <name>Løping 3.80 km, 2013-04-18</name>
    <desc></desc>
    <author><name>Mikael Blom</name></author> 
    <time>2013-04-18T19:33:50Z</time>
  </metadata>
  <trk>
    <name>Løping 3.80 km, 2013-04-18</name>
    <trkseg>
      <trkpt lat="59.9923106" lon="17.7375294">
        <ele>65.0264</ele>
        <time>2013-04-18T19:33:50Z</time>
      </trkpt>
      <trkpt lat="59.9922821" lon="17.737558">
        <ele>65.0264</ele>
        <time>2013-04-18T19:33:51Z</time>
      </trkpt>
      <trkpt lat="59.9922348" lon="17.7375994">
        <ele>63.5844</ele>
        <time>2013-04-18T19:33:52Z</time>
      </trkpt>
      <trkpt lat="59.9922013" lon="17.7376366">
        <ele>63.1036</ele>
        <time>2013-04-18T19:33:53Z</time>
      </trkpt>
      <trkpt lat="59.9921718" lon="17.737677">
        <ele>62.6229</ele>
        <time>2013-04-18T19:33:54Z</time>
      </trkpt>
      <trkpt lat="59.9921314" lon="17.7377014">
        <ele>60.2197</ele>
        <time>2013-04-18T19:33:55Z</time>
      </trkpt>
      <trkpt lat="59.9920997" lon="17.7377271">
        <ele>59.7391</ele>
        <time>2013-04-18T19:33:56Z</time>
      </trkpt>
      <trkpt lat="59.9920732" lon="17.7377392">
        <ele>59.2584</ele>
        <time>2013-04-18T19:33:57Z</time>
      </trkpt>
      <trkpt lat="59.9920288" lon="17.7377526">
        <ele>56.8551</ele>
        <time>2013-04-18T19:33:58Z</time>
      </trkpt>
      <trkpt lat="59.9919967" lon="17.7377521">
        <ele>55.8938</ele>
        <time>2013-04-18T19:33:59Z</time>
      </trkpt>
      <trkpt lat="59.9919723" lon="17.7377524">
        <ele>54.9324</ele>
        <time>2013-04-18T19:34:00Z</time>
      </trkpt>
      <trkpt lat="59.9919444" lon="17.7377552">
        <ele>53.4905</ele>
        <time>2013-04-18T19:34:01Z</time>
      </trkpt>
      <trkpt lat="59.9919283" lon="17.7377505">
        <ele>52.5292</ele>
        <time>2013-04-18T19:34:02Z</time>
      </trkpt>
      <trkpt lat="59.991859" lon="17.7377729">
        <ele>48.2034</ele>
        <time>2013-04-18T19:34:03Z</time>
      </trkpt>
      <trkpt lat="59.9918147" lon="17.7377692">
        <ele>46.2806</ele>
        <time>2013-04-18T19:34:04Z</time>
      </trkpt>
      <trkpt lat="59.9917838" lon="17.7377785">
        <ele>45.3192</ele>
        <time>2013-04-18T19:34:05Z</time>
      </trkpt>
      <trkpt lat="59.9917791" lon="17.7377797">
        <ele>47.2418</ele>
        <time>2013-04-18T19:34:06Z</time>
      </trkpt>
      <trkpt lat="59.9917722" lon="17.7377764">
        <ele>48.684</ele>
        <time>2013-04-18T19:34:07Z</time>
      </trkpt>
      <trkpt lat="59.9917532" lon="17.7377822">
        <ele>49.6453</ele>
        <time>2013-04-18T19:34:08Z</time>
      </trkpt>
      <trkpt lat="59.9917175" lon="17.7377822">
        <ele>49.1646</ele>
        <time>2013-04-18T19:34:09Z</time>
      </trkpt>
      <trkpt lat="59.9916981" lon="17.7377732">
        <ele>49.6453</ele>
        <time>2013-04-18T19:34:10Z</time>
      </trkpt>
      <trkpt lat="59.991681" lon="17.7377729">
        <ele>50.6066</ele>
        <time>2013-04-18T19:34:11Z</time>
      </trkpt>
      <trkpt lat="59.9916661" lon="17.7377773">
        <ele>52.0486</ele>
        <time>2013-04-18T19:34:12Z</time>
      </trkpt>
      <trkpt lat="59.9916645" lon="17.7377656">
        <ele>54.9324</ele>
        <time>2013-04-18T19:34:13Z</time>
      </trkpt>
      <trkpt lat="59.9916682" lon="17.7377448">
        <ele>57.3358</ele>
        <time>2013-04-18T19:34:14Z</time>
      </trkpt>
      <trkpt lat="59.9916544" lon="17.7377208">
        <ele>57.8165</ele>
        <time>2013-04-18T19:34:15Z</time>
      </trkpt>
      <trkpt lat="59.9916356" lon="17.7377121">
        <ele>57.8165</ele>
        <time>2013-04-18T19:34:16Z</time>
      </trkpt>
      <trkpt lat="59.9916153" lon="17.7377095">
        <ele>58.2971</ele>
        <time>2013-04-18T19:34:17Z</time>
      </trkpt>
      <trkpt lat="59.9915921" lon="17.7377075">
        <ele>57.8165</ele>
        <time>2013-04-18T19:34:18Z</time>
      </trkpt>
      <trkpt lat="59.9915635" lon="17.7377116">
        <ele>57.3358</ele>
        <time>2013-04-18T19:34:19Z</time>
      </trkpt>
      <trkpt lat="59.9915236" lon="17.7377283">
        <ele>54.9324</ele>
        <time>2013-04-18T19:34:20Z</time>
      </trkpt>
      <trkpt lat="59.9915051" lon="17.7377246">
        <ele>54.9324</ele>
        <time>2013-04-18T19:34:21Z</time>
      </trkpt>
      <trkpt lat="59.9914914" lon="17.7377143">
        <ele>55.4131</ele>
        <time>2013-04-18T19:34:22Z</time>
      </trkpt>
      <trkpt lat="59.9914714" lon="17.7377055">
        <ele>54.9324</ele>
        <time>2013-04-18T19:34:23Z</time>
      </trkpt>
      <trkpt lat="59.991465" lon="17.7377053">
        <ele>56.8551</ele>
        <time>2013-04-18T19:34:24Z</time>
      </trkpt>
      <trkpt lat="59.9914627" lon="17.7377054">
        <ele>60.2197</ele>
        <time>2013-04-18T19:34:25Z</time>
      </trkpt>
      <trkpt lat="59.9914512" lon="17.737708">
        <ele>61.6617</ele>
        <time>2013-04-18T19:34:26Z</time>
      </trkpt>
      <trkpt lat="59.9914427" lon="17.7376955">
        <ele>64.0651</ele>
        <time>2013-04-18T19:34:27Z</time>
      </trkpt>
      <trkpt lat="59.9914268" lon="17.7376947">
        <ele>65.9877</ele>
        <time>2013-04-18T19:34:28Z</time>
      </trkpt>
      <trkpt lat="59.9914068" lon="17.7377045">
        <ele>66.4683</ele>
        <time>2013-04-18T19:34:29Z</time>
      </trkpt>
      <trkpt lat="59.9913915" lon="17.7377038">
        <ele>67.4297</ele>
        <time>2013-04-18T19:34:30Z</time>
      </trkpt>
      <trkpt lat="59.9913921" lon="17.7377003">
        <ele>69.8329</ele>
        <time>2013-04-18T19:34:31Z</time>
      </trkpt>
      <trkpt lat="59.9913964" lon="17.7377048">
        <ele>73.6782</ele>
        <time>2013-04-18T19:34:32Z</time>
      </trkpt>
      <trkpt lat="59.9913849" lon="17.7377076">
        <ele>73.1976</ele>
        <time>2013-04-18T19:34:33Z</time>
      </trkpt>
      <trkpt lat="59.9913668" lon="17.7377227">
        <ele>72.2362</ele>
        <time>2013-04-18T19:34:34Z</time>
      </trkpt>
      <trkpt lat="59.9913381" lon="17.7377376">
        <ele>70.7942</ele>
        <time>2013-04-18T19:34:35Z</time>
      </trkpt>
      <trkpt lat="59.9913284" lon="17.7377322">
        <ele>73.6782</ele>
        <time>2013-04-18T19:34:36Z</time>
      </trkpt>
      <trkpt lat="59.9913072" lon="17.7377262">
        <ele>73.6782</ele>
        <time>2013-04-18T19:34:37Z</time>
      </trkpt>
      <trkpt lat="59.9912959" lon="17.7377252">
        <ele>76.5621</ele>
        <time>2013-04-18T19:34:38Z</time>
      </trkpt>
      <trkpt lat="59.9912804" lon="17.7377072">
        <ele>78.4847</ele>
        <time>2013-04-18T19:34:39Z</time>
      </trkpt>
      <trkpt lat="59.9912326" lon="17.7377209">
        <ele>76.5621</ele>
        <time>2013-04-18T19:34:40Z</time>
      </trkpt>
      <trkpt lat="59.9911907" lon="17.7377469">
        <ele>74.6395</ele>
        <time>2013-04-18T19:34:41Z</time>
      </trkpt>
      <trkpt lat="59.9911449" lon="17.7377843">
        <ele>72.7169</ele>
        <time>2013-04-18T19:34:42Z</time>
      </trkpt>
      <trkpt lat="59.9911236" lon="17.737809">
        <ele>73.6782</ele>
        <time>2013-04-18T19:34:43Z</time>
      </trkpt>
      <trkpt lat="59.9910952" lon="17.7378272">
        <ele>72.7169</ele>
        <time>2013-04-18T19:34:44Z</time>
      </trkpt>
      <trkpt lat="59.9910623" lon="17.7378353">
        <ele>71.2749</ele>
        <time>2013-04-18T19:34:45Z</time>
      </trkpt>
      <trkpt lat="59.9910575" lon="17.737834">
        <ele>73.1976</ele>
        <time>2013-04-18T19:34:46Z</time>
      </trkpt>
      <trkpt lat="59.9910523" lon="17.7378387">
        <ele>74.6395</ele>
        <time>2013-04-18T19:34:47Z</time>
      </trkpt>
      <trkpt lat="59.9910584" lon="17.737838">
        <ele>77.5234</ele>
        <time>2013-04-18T19:34:48Z</time>
      </trkpt>
      <trkpt lat="59.9910687" lon="17.7378438">
        <ele>81.3688</ele>
        <time>2013-04-18T19:34:49Z</time>
      </trkpt>
      <trkpt lat="59.9910617" lon="17.7378485">
        <ele>82.8108</ele>
        <time>2013-04-18T19:34:50Z</time>
      </trkpt>
      <trkpt lat="59.9910548" lon="17.7378526">
        <ele>83.2914</ele>
        <time>2013-04-18T19:34:51Z</time>
      </trkpt>
      <trkpt lat="59.9910511" lon="17.7378802">
        <ele>85.6946</ele>
        <time>2013-04-18T19:34:52Z</time>
      </trkpt>
      <trkpt lat="59.9910305" lon="17.7379117">
        <ele>85.6946</ele>
        <time>2013-04-18T19:34:53Z</time>
      </trkpt>
      <trkpt lat="59.9910037" lon="17.7379603">
        <ele>86.1753</ele>
        <time>2013-04-18T19:34:54Z</time>
      </trkpt>
      <trkpt lat="59.9909791" lon="17.7379967">
        <ele>87.1366</ele>
        <time>2013-04-18T19:34:55Z</time>
      </trkpt>
      <trkpt lat="59.9909416" lon="17.7380399">
        <ele>86.656</ele>
        <time>2013-04-18T19:34:56Z</time>
      </trkpt>
      <trkpt lat="59.9909151" lon="17.7380619">
        <ele>86.656</ele>
        <time>2013-04-18T19:34:57Z</time>
      </trkpt>
      <trkpt lat="59.9909088" lon="17.7380655">
        <ele>88.5787</ele>
        <time>2013-04-18T19:34:58Z</time>
      </trkpt>
      <trkpt lat="59.9908709" lon="17.7380836">
        <ele>87.6172</ele>
        <time>2013-04-18T19:34:59Z</time>
      </trkpt>
      <trkpt lat="59.9908382" lon="17.7380956">
        <ele>86.1753</ele>
        <time>2013-04-18T19:35:00Z</time>
      </trkpt>
      <trkpt lat="59.9908121" lon="17.7381006">
        <ele>84.7334</ele>
        <time>2013-04-18T19:35:01Z</time>
      </trkpt>
      <trkpt lat="59.9907919" lon="17.7380992">
        <ele>84.7334</ele>
        <time>2013-04-18T19:35:02Z</time>
      </trkpt>
      <trkpt lat="59.9907716" lon="17.7381107">
        <ele>85.6946</ele>
        <time>2013-04-18T19:35:03Z</time>
      </trkpt>
      <trkpt lat="59.9907363" lon="17.7381257">
        <ele>85.214</ele>
        <time>2013-04-18T19:35:04Z</time>
      </trkpt>
      <trkpt lat="59.9907069" lon="17.7381417">
        <ele>86.1753</ele>
        <time>2013-04-18T19:35:05Z</time>
      </trkpt>
      <trkpt lat="59.9906538" lon="17.7381689">
        <ele>83.2914</ele>
        <time>2013-04-18T19:35:06Z</time>
      </trkpt>
      <trkpt lat="59.990622" lon="17.7381865">
        <ele>83.2914</ele>
        <time>2013-04-18T19:35:07Z</time>
      </trkpt>
      <trkpt lat="59.9906" lon="17.7382038">
        <ele>83.772</ele>
        <time>2013-04-18T19:35:08Z</time>
      </trkpt>
      <trkpt lat="59.9905881" lon="17.7382069">
        <ele>85.214</ele>
        <time>2013-04-18T19:35:09Z</time>
      </trkpt>
      <trkpt lat="59.9905566" lon="17.7382147">
        <ele>84.7334</ele>
        <time>2013-04-18T19:35:10Z</time>
      </trkpt>
      <trkpt lat="59.990524" lon="17.7382363">
        <ele>84.2527</ele>
        <time>2013-04-18T19:35:11Z</time>
      </trkpt>
      <trkpt lat="59.9904986" lon="17.7382669">
        <ele>84.2527</ele>
        <time>2013-04-18T19:35:12Z</time>
      </trkpt>
      <trkpt lat="59.9904535" lon="17.7382872">
        <ele>83.2914</ele>
        <time>2013-04-18T19:35:13Z</time>
      </trkpt>
      <trkpt lat="59.9904174" lon="17.738312">
        <ele>82.8108</ele>
        <time>2013-04-18T19:35:14Z</time>
      </trkpt>
      <trkpt lat="59.9903885" lon="17.7383338">
        <ele>83.2914</ele>
        <time>2013-04-18T19:35:15Z</time>
      </trkpt>
      <trkpt lat="59.9903587" lon="17.7383255">
        <ele>82.8108</ele>
        <time>2013-04-18T19:35:16Z</time>
      </trkpt>
      <trkpt lat="59.9903414" lon="17.7383135">
        <ele>83.2914</ele>
        <time>2013-04-18T19:35:17Z</time>
      </trkpt>
      <trkpt lat="59.990315" lon="17.7383319">
        <ele>83.2914</ele>
        <time>2013-04-18T19:35:18Z</time>
      </trkpt>
      <trkpt lat="59.9902914" lon="17.7383368">
        <ele>84.2527</ele>
        <time>2013-04-18T19:35:19Z</time>
      </trkpt>
      <trkpt lat="59.9902868" lon="17.7383441">
        <ele>87.6172</ele>
        <time>2013-04-18T19:35:20Z</time>
      </trkpt>
      <trkpt lat="59.990279" lon="17.7383379">
        <ele>90.5013</ele>
        <time>2013-04-18T19:35:21Z</time>
      </trkpt>
      <trkpt lat="59.9902592" lon="17.7383523">
        <ele>92.9045</ele>
        <time>2013-04-18T19:35:22Z</time>
      </trkpt>
      <trkpt lat="59.9902298" lon="17.738384">
        <ele>92.9045</ele>
        <time>2013-04-18T19:35:23Z</time>
      </trkpt>
      <trkpt lat="59.9902075" lon="17.7383944">
        <ele>93.3851</ele>
        <time>2013-04-18T19:35:24Z</time>
      </trkpt>
      <trkpt lat="59.9901843" lon="17.7384084">
        <ele>94.3466</ele>
        <time>2013-04-18T19:35:25Z</time>
      </trkpt>
      <trkpt lat="59.9901536" lon="17.7384192">
        <ele>94.3466</ele>
        <time>2013-04-18T19:35:26Z</time>
      </trkpt>
      <trkpt lat="59.9901189" lon="17.7384396">
        <ele>94.3466</ele>
        <time>2013-04-18T19:35:27Z</time>
      </trkpt>
      <trkpt lat="59.9901002" lon="17.7384512">
        <ele>95.3077</ele>
        <time>2013-04-18T19:35:28Z</time>
      </trkpt>
      <trkpt lat="59.9900791" lon="17.7384913">
        <ele>97.7112</ele>
        <time>2013-04-18T19:35:29Z</time>
      </trkpt>
      <trkpt lat="59.9900426" lon="17.7385246">
        <ele>97.2305</ele>
        <time>2013-04-18T19:35:30Z</time>
      </trkpt>
      <trkpt lat="59.990028" lon="17.7385664">
        <ele>99.6338</ele>
        <time>2013-04-18T19:35:31Z</time>
      </trkpt>
      <trkpt lat="59.9899825" lon="17.738597">
        <ele>99.1531</ele>
        <time>2013-04-18T19:35:32Z</time>
      </trkpt>
      <trkpt lat="59.9899398" lon="17.7386048">
        <ele>98.1919</ele>
        <time>2013-04-18T19:35:33Z</time>
      </trkpt>
      <trkpt lat="59.9899034" lon="17.7386053">
        <ele>97.2305</ele>
        <time>2013-04-18T19:35:34Z</time>
      </trkpt>
      <trkpt lat="59.9898749" lon="17.7385871">
        <ele>96.2693</ele>
        <time>2013-04-18T19:35:35Z</time>
      </trkpt>
      <trkpt lat="59.9898407" lon="17.7385797">
        <ele>94.8271</ele>
        <time>2013-04-18T19:35:36Z</time>
      </trkpt>
      <trkpt lat="59.9898189" lon="17.7385927">
        <ele>95.7885</ele>
        <time>2013-04-18T19:35:37Z</time>
      </trkpt>
      <trkpt lat="59.9897925" lon="17.7385885">
        <ele>96.2693</ele>
        <time>2013-04-18T19:35:38Z</time>
      </trkpt>
      <trkpt lat="59.9897569" lon="17.7385866">
        <ele>94.3466</ele>
        <time>2013-04-18T19:35:39Z</time>
      </trkpt>
      <trkpt lat="59.9897365" lon="17.7385961">
        <ele>95.3077</ele>
        <time>2013-04-18T19:35:40Z</time>
      </trkpt>
      <trkpt lat="59.9897302" lon="17.7386059">
        <ele>97.2305</ele>
        <time>2013-04-18T19:35:41Z</time>
      </trkpt>
      <trkpt lat="59.9897205" lon="17.7386058">
        <ele>98.6725</ele>
        <time>2013-04-18T19:35:42Z</time>
      </trkpt>
      <trkpt lat="59.9897134" lon="17.738626">
        <ele>100.115</ele>
        <time>2013-04-18T19:35:43Z</time>
      </trkpt>
      <trkpt lat="59.989707" lon="17.7386441">
        <ele>101.076</ele>
        <time>2013-04-18T19:35:44Z</time>
      </trkpt>
      <trkpt lat="59.9897055" lon="17.7386341">
        <ele>102.518</ele>
        <time>2013-04-18T19:35:45Z</time>
      </trkpt>
      <trkpt lat="59.9897012" lon="17.7386075">
        <ele>102.518</ele>
        <time>2013-04-18T19:35:46Z</time>
      </trkpt>
      <trkpt lat="59.9896905" lon="17.7385871">
        <ele>102.037</ele>
        <time>2013-04-18T19:35:47Z</time>
      </trkpt>
      <trkpt lat="59.989662" lon="17.7385701">
        <ele>100.595</ele>
        <time>2013-04-18T19:35:48Z</time>
      </trkpt>
      <trkpt lat="59.9896476" lon="17.7385406">
        <ele>102.037</ele>
        <time>2013-04-18T19:35:49Z</time>
      </trkpt>
      <trkpt lat="59.9896326" lon="17.7385379">
        <ele>102.518</ele>
        <time>2013-04-18T19:35:50Z</time>
      </trkpt>
      <trkpt lat="59.9896071" lon="17.7385544">
        <ele>102.037</ele>
        <time>2013-04-18T19:35:51Z</time>
      </trkpt>
      <trkpt lat="59.9895865" lon="17.7385683">
        <ele>102.037</ele>
        <time>2013-04-18T19:35:52Z</time>
      </trkpt>
      <trkpt lat="59.9895535" lon="17.7385938">
        <ele>101.556</ele>
        <time>2013-04-18T19:35:53Z</time>
      </trkpt>
      <trkpt lat="59.9895258" lon="17.7386056">
        <ele>101.076</ele>
        <time>2013-04-18T19:35:54Z</time>
      </trkpt>
      <trkpt lat="59.9895056" lon="17.7385929">
        <ele>102.518</ele>
        <time>2013-04-18T19:35:55Z</time>
      </trkpt>
      <trkpt lat="59.9894733" lon="17.7385945">
        <ele>102.518</ele>
        <time>2013-04-18T19:35:56Z</time>
      </trkpt>
      <trkpt lat="59.989431" lon="17.7386266">
        <ele>100.595</ele>
        <time>2013-04-18T19:35:57Z</time>
      </trkpt>
      <trkpt lat="59.9894086" lon="17.7386491">
        <ele>101.076</ele>
        <time>2013-04-18T19:35:58Z</time>
      </trkpt>
      <trkpt lat="59.9893745" lon="17.738668">
        <ele>100.115</ele>
        <time>2013-04-18T19:35:59Z</time>
      </trkpt>
      <trkpt lat="59.9893341" lon="17.7386993">
        <ele>98.1919</ele>
        <time>2013-04-18T19:36:00Z</time>
      </trkpt>
      <trkpt lat="59.9893051" lon="17.738733">
        <ele>97.7112</ele>
        <time>2013-04-18T19:36:01Z</time>
      </trkpt>
      <trkpt lat="59.9892693" lon="17.7387606">
        <ele>95.3077</ele>
        <time>2013-04-18T19:36:02Z</time>
      </trkpt>
      <trkpt lat="59.9892409" lon="17.7387931">
        <ele>93.8658</ele>
        <time>2013-04-18T19:36:03Z</time>
      </trkpt>
      <trkpt lat="59.9892263" lon="17.7388285">
        <ele>93.3851</ele>
        <time>2013-04-18T19:36:04Z</time>
      </trkpt>
      <trkpt lat="59.9892061" lon="17.7388586">
        <ele>92.9045</ele>
        <time>2013-04-18T19:36:05Z</time>
      </trkpt>
      <trkpt lat="59.9891989" lon="17.7388644">
        <ele>93.8658</ele>
        <time>2013-04-18T19:36:06Z</time>
      </trkpt>
      <trkpt lat="59.9891704" lon="17.7388778">
        <ele>92.9045</ele>
        <time>2013-04-18T19:36:07Z</time>
      </trkpt>
      <trkpt lat="59.9891403" lon="17.7388936">
        <ele>92.424</ele>
        <time>2013-04-18T19:36:08Z</time>
      </trkpt>
      <trkpt lat="59.9891031" lon="17.7389183">
        <ele>91.9432</ele>
        <time>2013-04-18T19:36:09Z</time>
      </trkpt>
      <trkpt lat="59.9890796" lon="17.7389358">
        <ele>93.3851</ele>
        <time>2013-04-18T19:36:10Z</time>
      </trkpt>
      <trkpt lat="59.9890583" lon="17.7389694">
        <ele>94.3466</ele>
        <time>2013-04-18T19:36:11Z</time>
      </trkpt>
      <trkpt lat="59.989032" lon="17.739012">
        <ele>95.7885</ele>
        <time>2013-04-18T19:36:12Z</time>
      </trkpt>
      <trkpt lat="59.9890078" lon="17.7390311">
        <ele>95.3077</ele>
        <time>2013-04-18T19:36:13Z</time>
      </trkpt>
      <trkpt lat="59.9889787" lon="17.7390549">
        <ele>94.8271</ele>
        <time>2013-04-18T19:36:14Z</time>
      </trkpt>
      <trkpt lat="59.9889358" lon="17.7390607">
        <ele>92.9045</ele>
        <time>2013-04-18T19:36:15Z</time>
      </trkpt>
      <trkpt lat="59.9888979" lon="17.7390596">
        <ele>90.0206</ele>
        <time>2013-04-18T19:36:16Z</time>
      </trkpt>
      <trkpt lat="59.9888584" lon="17.739072">
        <ele>86.1753</ele>
        <time>2013-04-18T19:36:17Z</time>
      </trkpt>
      <trkpt lat="59.9888219" lon="17.7390687">
        <ele>83.2914</ele>
        <time>2013-04-18T19:36:18Z</time>
      </trkpt>
      <trkpt lat="59.9887994" lon="17.7390711">
        <ele>82.8108</ele>
        <time>2013-04-18T19:36:19Z</time>
      </trkpt>
      <trkpt lat="59.988762" lon="17.739087">
        <ele>80.8882</ele>
        <time>2013-04-18T19:36:20Z</time>
      </trkpt>
      <trkpt lat="59.9887174" lon="17.7391015">
        <ele>78.4847</ele>
        <time>2013-04-18T19:36:21Z</time>
      </trkpt>
      <trkpt lat="59.9886653" lon="17.7391347">
        <ele>75.6008</ele>
        <time>2013-04-18T19:36:22Z</time>
      </trkpt>
      <trkpt lat="59.9886229" lon="17.7391589">
        <ele>74.1588</ele>
        <time>2013-04-18T19:36:23Z</time>
      </trkpt>
      <trkpt lat="59.98857" lon="17.7391887">
        <ele>71.2749</ele>
        <time>2013-04-18T19:36:24Z</time>
      </trkpt>
      <trkpt lat="59.9885463" lon="17.7392248">
        <ele>71.2749</ele>
        <time>2013-04-18T19:36:25Z</time>
      </trkpt>
      <trkpt lat="59.9885307" lon="17.7392456">
        <ele>71.2749</ele>
        <time>2013-04-18T19:36:26Z</time>
      </trkpt>
      <trkpt lat="59.9885054" lon="17.7392622">
        <ele>69.8329</ele>
        <time>2013-04-18T19:36:27Z</time>
      </trkpt>
      <trkpt lat="59.9884633" lon="17.7392932">
        <ele>66.4683</ele>
        <time>2013-04-18T19:36:28Z</time>
      </trkpt>
      <trkpt lat="59.988417" lon="17.7393341">
        <ele>63.1036</ele>
        <time>2013-04-18T19:36:29Z</time>
      </trkpt>
      <trkpt lat="59.9883878" lon="17.7393533">
        <ele>61.6617</ele>
        <time>2013-04-18T19:36:30Z</time>
      </trkpt>
      <trkpt lat="59.9883688" lon="17.7393634">
        <ele>61.181</ele>
        <time>2013-04-18T19:36:31Z</time>
      </trkpt>
      <trkpt lat="59.9883507" lon="17.7393761">
        <ele>61.6617</ele>
        <time>2013-04-18T19:36:32Z</time>
      </trkpt>
      <trkpt lat="59.9883339" lon="17.7393881">
        <ele>61.181</ele>
        <time>2013-04-18T19:36:33Z</time>
      </trkpt>
      <trkpt lat="59.9883293" lon="17.7393894">
        <ele>62.1423</ele>
        <time>2013-04-18T19:36:34Z</time>
      </trkpt>
      <trkpt lat="59.9883248" lon="17.7393885">
        <ele>63.1036</ele>
        <time>2013-04-18T19:36:35Z</time>
      </trkpt>
      <trkpt lat="59.9883122" lon="17.7393959">
        <ele>63.1036</ele>
        <time>2013-04-18T19:36:36Z</time>
      </trkpt>
      <trkpt lat="59.9883" lon="17.7393947">
        <ele>63.5844</ele>
        <time>2013-04-18T19:36:37Z</time>
      </trkpt>
      <trkpt lat="59.9882805" lon="17.739402">
        <ele>63.5844</ele>
        <time>2013-04-18T19:36:38Z</time>
      </trkpt>
      <trkpt lat="59.9882494" lon="17.7394049">
        <ele>62.1423</ele>
        <time>2013-04-18T19:36:39Z</time>
      </trkpt>
      <trkpt lat="59.9882417" lon="17.7393969">
        <ele>63.1036</ele>
        <time>2013-04-18T19:36:40Z</time>
      </trkpt>
      <trkpt lat="59.9882379" lon="17.7393912">
        <ele>64.5457</ele>
        <time>2013-04-18T19:36:41Z</time>
      </trkpt>
      <trkpt lat="59.9882411" lon="17.7393725">
        <ele>65.9877</ele>
        <time>2013-04-18T19:36:42Z</time>
      </trkpt>
      <trkpt lat="59.9882429" lon="17.7393632">
        <ele>67.9103</ele>
        <time>2013-04-18T19:36:43Z</time>
      </trkpt>
      <trkpt lat="59.9882262" lon="17.73937">
        <ele>68.3909</ele>
        <time>2013-04-18T19:36:44Z</time>
      </trkpt>
      <trkpt lat="59.9882208" lon="17.7393626">
        <ele>68.8716</ele>
        <time>2013-04-18T19:36:45Z</time>
      </trkpt>
      <trkpt lat="59.9882184" lon="17.7393491">
        <ele>72.2362</ele>
        <time>2013-04-18T19:36:46Z</time>
      </trkpt>
      <trkpt lat="59.9882012" lon="17.7393507">
        <ele>73.1976</ele>
        <time>2013-04-18T19:36:47Z</time>
      </trkpt>
      <trkpt lat="59.9881872" lon="17.7393424">
        <ele>74.6395</ele>
        <time>2013-04-18T19:36:48Z</time>
      </trkpt>
      <trkpt lat="59.9881744" lon="17.7393341">
        <ele>76.0814</ele>
        <time>2013-04-18T19:36:49Z</time>
      </trkpt>
      <trkpt lat="59.9881539" lon="17.7393238">
        <ele>76.0814</ele>
        <time>2013-04-18T19:36:50Z</time>
      </trkpt>
      <trkpt lat="59.9881364" lon="17.7393099">
        <ele>76.5621</ele>
        <time>2013-04-18T19:36:51Z</time>
      </trkpt>
      <trkpt lat="59.9881332" lon="17.7392953">
        <ele>78.4847</ele>
        <time>2013-04-18T19:36:52Z</time>
      </trkpt>
      <trkpt lat="59.9881131" lon="17.7392819">
        <ele>78.9655</ele>
        <time>2013-04-18T19:36:53Z</time>
      </trkpt>
      <trkpt lat="59.9880914" lon="17.7392642">
        <ele>79.9266</ele>
        <time>2013-04-18T19:36:54Z</time>
      </trkpt>
      <trkpt lat="59.9880547" lon="17.7392569">
        <ele>79.446</ele>
        <time>2013-04-18T19:36:55Z</time>
      </trkpt>
      <trkpt lat="59.9880018" lon="17.7392668">
        <ele>76.0814</ele>
        <time>2013-04-18T19:36:56Z</time>
      </trkpt>
      <trkpt lat="59.9879482" lon="17.7392745">
        <ele>73.6782</ele>
        <time>2013-04-18T19:36:57Z</time>
      </trkpt>
      <trkpt lat="59.987908" lon="17.7392688">
        <ele>72.7169</ele>
        <time>2013-04-18T19:36:58Z</time>
      </trkpt>
      <trkpt lat="59.9878883" lon="17.7392663">
        <ele>72.2362</ele>
        <time>2013-04-18T19:36:59Z</time>
      </trkpt>
      <trkpt lat="59.9878333" lon="17.7392922">
        <ele>68.8716</ele>
        <time>2013-04-18T19:37:00Z</time>
      </trkpt>
      <trkpt lat="59.9877915" lon="17.7393099">
        <ele>66.949</ele>
        <time>2013-04-18T19:37:01Z</time>
      </trkpt>
      <trkpt lat="59.9877379" lon="17.7393273">
        <ele>63.5844</ele>
        <time>2013-04-18T19:37:02Z</time>
      </trkpt>
      <trkpt lat="59.9877275" lon="17.7393134">
        <ele>64.0651</ele>
        <time>2013-04-18T19:37:03Z</time>
      </trkpt>
      <trkpt lat="59.9877131" lon="17.7393184">
        <ele>64.0651</ele>
        <time>2013-04-18T19:37:04Z</time>
      </trkpt>
      <trkpt lat="59.9876795" lon="17.7393304">
        <ele>62.6229</ele>
        <time>2013-04-18T19:37:05Z</time>
      </trkpt>
      <trkpt lat="59.987663" lon="17.7393417">
        <ele>63.1036</ele>
        <time>2013-04-18T19:37:06Z</time>
      </trkpt>
      <trkpt lat="59.9876547" lon="17.7393537">
        <ele>63.5844</ele>
        <time>2013-04-18T19:37:07Z</time>
      </trkpt>
      <trkpt lat="59.9876463" lon="17.7393568">
        <ele>64.0651</ele>
        <time>2013-04-18T19:37:08Z</time>
      </trkpt>
      <trkpt lat="59.9876491" lon="17.7393412">
        <ele>66.4683</ele>
        <time>2013-04-18T19:37:09Z</time>
      </trkpt>
      <trkpt lat="59.9876469" lon="17.7393476">
        <ele>66.949</ele>
        <time>2013-04-18T19:37:10Z</time>
      </trkpt>
      <trkpt lat="59.9876599" lon="17.7393358">
        <ele>70.3135</ele>
        <time>2013-04-18T19:37:11Z</time>
      </trkpt>
      <trkpt lat="59.987649" lon="17.7393403">
        <ele>70.3135</ele>
        <time>2013-04-18T19:37:12Z</time>
      </trkpt>
      <trkpt lat="59.9876661" lon="17.7393337">
        <ele>72.2362</ele>
        <time>2013-04-18T19:37:13Z</time>
      </trkpt>
      <trkpt lat="59.9876686" lon="17.73933">
        <ele>72.7169</ele>
        <time>2013-04-18T19:37:14Z</time>
      </trkpt>
      <trkpt lat="59.987692" lon="17.7393029">
        <ele>76.5621</ele>
        <time>2013-04-18T19:37:15Z</time>
      </trkpt>
      <trkpt lat="59.9877406" lon="17.7392638">
        <ele>82.8108</ele>
        <time>2013-04-18T19:37:16Z</time>
      </trkpt>
      <trkpt lat="59.987764" lon="17.7392475">
        <ele>84.2527</ele>
        <time>2013-04-18T19:37:17Z</time>
      </trkpt>
      <trkpt lat="59.987776" lon="17.7392436">
        <ele>84.7334</ele>
        <time>2013-04-18T19:37:18Z</time>
      </trkpt>
      <trkpt lat="59.9877914" lon="17.7392383">
        <ele>85.6946</ele>
        <time>2013-04-18T19:37:19Z</time>
      </trkpt>
      <trkpt lat="59.9878152" lon="17.7392231">
        <ele>87.6172</ele>
        <time>2013-04-18T19:37:20Z</time>
      </trkpt>
      <trkpt lat="59.9878271" lon="17.7392207">
        <ele>88.098</ele>
        <time>2013-04-18T19:37:21Z</time>
      </trkpt>
      <trkpt lat="59.9878174" lon="17.7392356">
        <ele>87.1366</ele>
        <time>2013-04-18T19:37:22Z</time>
      </trkpt>
      <trkpt lat="59.9878218" lon="17.7392372">
        <ele>88.5787</ele>
        <time>2013-04-18T19:37:23Z</time>
      </trkpt>
      <trkpt lat="59.9878273" lon="17.7392352">
        <ele>89.5399</ele>
        <time>2013-04-18T19:37:24Z</time>
      </trkpt>
      <trkpt lat="59.9878272" lon="17.739242">
        <ele>89.5399</ele>
        <time>2013-04-18T19:37:25Z</time>
      </trkpt>
      <trkpt lat="59.9873687" lon="17.7394948">
        <ele>39.0707</ele>
        <time>2013-04-18T19:37:26Z</time>
      </trkpt>
      <trkpt lat="59.9872821" lon="17.7395418">
        <ele>28.4962</ele>
        <time>2013-04-18T19:37:27Z</time>
      </trkpt>
      <trkpt lat="59.9872507" lon="17.7395491">
        <ele>24.1703</ele>
        <time>2013-04-18T19:37:28Z</time>
      </trkpt>
      <trkpt lat="59.9872293" lon="17.7395418">
        <ele>20.8057</ele>
        <time>2013-04-18T19:37:29Z</time>
      </trkpt>
      <trkpt lat="59.9871951" lon="17.7395418">
        <ele>17.4412</ele>
        <time>2013-04-18T19:37:30Z</time>
      </trkpt>
      <trkpt lat="59.9871753" lon="17.7395392">
        <ele>15.999</ele>
        <time>2013-04-18T19:37:31Z</time>
      </trkpt>
      <trkpt lat="59.9871624" lon="17.7395364">
        <ele>15.0377</ele>
        <time>2013-04-18T19:37:32Z</time>
      </trkpt>
      <trkpt lat="59.9871448" lon="17.7395468">
        <ele>13.5958</ele>
        <time>2013-04-18T19:37:33Z</time>
      </trkpt>
      <trkpt lat="59.9871336" lon="17.7395506">
        <ele>12.1538</ele>
        <time>2013-04-18T19:37:34Z</time>
      </trkpt>
      <trkpt lat="59.9871165" lon="17.739546">
        <ele>10.7118</ele>
        <time>2013-04-18T19:37:35Z</time>
      </trkpt>
      <trkpt lat="59.9870988" lon="17.739544">
        <ele>9.75061</ele>
        <time>2013-04-18T19:37:36Z</time>
      </trkpt>
      <trkpt lat="59.9870826" lon="17.7395469">
        <ele>7.82788</ele>
        <time>2013-04-18T19:37:37Z</time>
      </trkpt>
      <trkpt lat="59.9870668" lon="17.7395455">
        <ele>6.86646</ele>
        <time>2013-04-18T19:37:38Z</time>
      </trkpt>
      <trkpt lat="59.9870497" lon="17.7395439">
        <ele>5.90527</ele>
        <time>2013-04-18T19:37:39Z</time>
      </trkpt>
      <trkpt lat="59.9870355" lon="17.7395365">
        <ele>3.98267</ele>
        <time>2013-04-18T19:37:40Z</time>
      </trkpt>
      <trkpt lat="59.9870171" lon="17.73953">
        <ele>3.02124</ele>
        <time>2013-04-18T19:37:41Z</time>
      </trkpt>
      <trkpt lat="59.9870029" lon="17.7395143">
        <ele>1.57935</ele>
        <time>2013-04-18T19:37:42Z</time>
      </trkpt>
      <trkpt lat="59.9869897" lon="17.7395052">
        <ele>1.09863</ele>
        <time>2013-04-18T19:37:43Z</time>
      </trkpt>
      <trkpt lat="59.9869782" lon="17.7394963">
        <ele>0.137451</ele>
        <time>2013-04-18T19:37:44Z</time>
      </trkpt>
      <trkpt lat="59.9869627" lon="17.7394765">
        <ele>0</ele>
        <time>2013-04-18T19:37:45Z</time>
      </trkpt>
      <trkpt lat="59.9869485" lon="17.7394546">
        <ele>0</ele>
        <time>2013-04-18T19:37:46Z</time>
      </trkpt>
      <trkpt lat="59.9869317" lon="17.7394401">
        <ele>0</ele>
        <time>2013-04-18T19:37:47Z</time>
      </trkpt>
      <trkpt lat="59.9869107" lon="17.7394242">
        <ele>0</ele>
        <time>2013-04-18T19:37:48Z</time>
      </trkpt>
      <trkpt lat="59.986886" lon="17.7394199">
        <ele>0</ele>
        <time>2013-04-18T19:37:49Z</time>
      </trkpt>
      <trkpt lat="59.9868657" lon="17.7394052">
        <ele>0</ele>
        <time>2013-04-18T19:37:50Z</time>
      </trkpt>
      <trkpt lat="59.9868462" lon="17.7393968">
        <ele>0</ele>
        <time>2013-04-18T19:37:51Z</time>
      </trkpt>
      <trkpt lat="59.9868298" lon="17.7393876">
        <ele>0</ele>
        <time>2013-04-18T19:37:52Z</time>
      </trkpt>
      <trkpt lat="59.9868129" lon="17.7393705">
        <ele>0</ele>
        <time>2013-04-18T19:37:53Z</time>
      </trkpt>
      <trkpt lat="59.9867996" lon="17.7393553">
        <ele>0</ele>
        <time>2013-04-18T19:37:54Z</time>
      </trkpt>
      <trkpt lat="59.9867848" lon="17.7393528">
        <ele>0</ele>
        <time>2013-04-18T19:37:55Z</time>
      </trkpt>
      <trkpt lat="59.9867718" lon="17.7393564">
        <ele>0</ele>
        <time>2013-04-18T19:37:56Z</time>
      </trkpt>
      <trkpt lat="59.9867566" lon="17.7393572">
        <ele>0</ele>
        <time>2013-04-18T19:37:57Z</time>
      </trkpt>
      <trkpt lat="59.9867348" lon="17.7393518">
        <ele>0</ele>
        <time>2013-04-18T19:37:58Z</time>
      </trkpt>
      <trkpt lat="59.9867157" lon="17.7393455">
        <ele>0</ele>
        <time>2013-04-18T19:37:59Z</time>
      </trkpt>
      <trkpt lat="59.9866972" lon="17.7393388">
        <ele>0</ele>
        <time>2013-04-18T19:38:00Z</time>
      </trkpt>
      <trkpt lat="59.9866784" lon="17.7393367">
        <ele>0</ele>
        <time>2013-04-18T19:38:01Z</time>
      </trkpt>
      <trkpt lat="59.9866587" lon="17.7393288">
        <ele>0</ele>
        <time>2013-04-18T19:38:02Z</time>
      </trkpt>
      <trkpt lat="59.9866384" lon="17.7393207">
        <ele>0</ele>
        <time>2013-04-18T19:38:03Z</time>
      </trkpt>
      <trkpt lat="59.9866218" lon="17.7393077">
        <ele>0</ele>
        <time>2013-04-18T19:38:04Z</time>
      </trkpt>
      <trkpt lat="59.9866036" lon="17.739303">
        <ele>0</ele>
        <time>2013-04-18T19:38:05Z</time>
      </trkpt>
      <trkpt lat="59.9865845" lon="17.7392969">
        <ele>0</ele>
        <time>2013-04-18T19:38:06Z</time>
      </trkpt>
      <trkpt lat="59.9865638" lon="17.7392953">
        <ele>0</ele>
        <time>2013-04-18T19:38:07Z</time>
      </trkpt>
      <trkpt lat="59.9865467" lon="17.7392808">
        <ele>0</ele>
        <time>2013-04-18T19:38:08Z</time>
      </trkpt>
      <trkpt lat="59.9865275" lon="17.7392787">
        <ele>0</ele>
        <time>2013-04-18T19:38:09Z</time>
      </trkpt>
      <trkpt lat="59.9865089" lon="17.7392807">
        <ele>0</ele>
        <time>2013-04-18T19:38:10Z</time>
      </trkpt>
      <trkpt lat="59.9864886" lon="17.7392873">
        <ele>0</ele>
        <time>2013-04-18T19:38:11Z</time>
      </trkpt>
      <trkpt lat="59.9864674" lon="17.7392885">
        <ele>0</ele>
        <time>2013-04-18T19:38:12Z</time>
      </trkpt>
      <trkpt lat="59.9864452" lon="17.7392813">
        <ele>0</ele>
        <time>2013-04-18T19:38:13Z</time>
      </trkpt>
      <trkpt lat="59.9864224" lon="17.7392694">
        <ele>0</ele>
        <time>2013-04-18T19:38:14Z</time>
      </trkpt>
      <trkpt lat="59.986396" lon="17.7392641">
        <ele>0</ele>
        <time>2013-04-18T19:38:15Z</time>
      </trkpt>
      <trkpt lat="59.9863745" lon="17.7392572">
        <ele>0</ele>
        <time>2013-04-18T19:38:16Z</time>
      </trkpt>
      <trkpt lat="59.986356" lon="17.7392491">
        <ele>0</ele>
        <time>2013-04-18T19:38:17Z</time>
      </trkpt>
      <trkpt lat="59.986332" lon="17.7392428">
        <ele>0</ele>
        <time>2013-04-18T19:38:18Z</time>
      </trkpt>
      <trkpt lat="59.9863074" lon="17.7392398">
        <ele>0</ele>
        <time>2013-04-18T19:38:19Z</time>
      </trkpt>
      <trkpt lat="59.9862845" lon="17.7392373">
        <ele>0</ele>
        <time>2013-04-18T19:38:20Z</time>
      </trkpt>
      <trkpt lat="59.9862627" lon="17.7392327">
        <ele>0</ele>
        <time>2013-04-18T19:38:21Z</time>
      </trkpt>
      <trkpt lat="59.9862462" lon="17.7392189">
        <ele>0</ele>
        <time>2013-04-18T19:38:22Z</time>
      </trkpt>
      <trkpt lat="59.986232" lon="17.7392129">
        <ele>0</ele>
        <time>2013-04-18T19:38:23Z</time>
      </trkpt>
      <trkpt lat="59.9862184" lon="17.7392137">
        <ele>0</ele>
        <time>2013-04-18T19:38:24Z</time>
      </trkpt>
      <trkpt lat="59.9862046" lon="17.7391974">
        <ele>0</ele>
        <time>2013-04-18T19:38:25Z</time>
      </trkpt>
      <trkpt lat="59.9861892" lon="17.7391891">
        <ele>0</ele>
        <time>2013-04-18T19:38:26Z</time>
      </trkpt>
      <trkpt lat="59.9861716" lon="17.7391847">
        <ele>0</ele>
        <time>2013-04-18T19:38:27Z</time>
      </trkpt>
      <trkpt lat="59.9861498" lon="17.739198">
        <ele>0</ele>
        <time>2013-04-18T19:38:28Z</time>
      </trkpt>
      <trkpt lat="59.9861302" lon="17.7391947">
        <ele>0</ele>
        <time>2013-04-18T19:38:29Z</time>
      </trkpt>
      <trkpt lat="59.986113" lon="17.7391876">
        <ele>0</ele>
        <time>2013-04-18T19:38:30Z</time>
      </trkpt>
      <trkpt lat="59.9860996" lon="17.7391819">
        <ele>0</ele>
        <time>2013-04-18T19:38:31Z</time>
      </trkpt>
      <trkpt lat="59.9860857" lon="17.7391769">
        <ele>0</ele>
        <time>2013-04-18T19:38:32Z</time>
      </trkpt>
      <trkpt lat="59.9860732" lon="17.7391721">
        <ele>0</ele>
        <time>2013-04-18T19:38:33Z</time>
      </trkpt>
      <trkpt lat="59.9860611" lon="17.7391761">
        <ele>0</ele>
        <time>2013-04-18T19:38:34Z</time>
      </trkpt>
      <trkpt lat="59.9860463" lon="17.7391697">
        <ele>0</ele>
        <time>2013-04-18T19:38:35Z</time>
      </trkpt>
      <trkpt lat="59.9860318" lon="17.7391609">
        <ele>0</ele>
        <time>2013-04-18T19:38:36Z</time>
      </trkpt>
      <trkpt lat="59.9860176" lon="17.7391591">
        <ele>0</ele>
        <time>2013-04-18T19:38:37Z</time>
      </trkpt>
      <trkpt lat="59.9860027" lon="17.7391601">
        <ele>0</ele>
        <time>2013-04-18T19:38:38Z</time>
      </trkpt>
      <trkpt lat="59.9859889" lon="17.7391573">
        <ele>0</ele>
        <time>2013-04-18T19:38:39Z</time>
      </trkpt>
      <trkpt lat="59.9859758" lon="17.7391615">
        <ele>0</ele>
        <time>2013-04-18T19:38:40Z</time>
      </trkpt>
      <trkpt lat="59.9859633" lon="17.7391693">
        <ele>0</ele>
        <time>2013-04-18T19:38:41Z</time>
      </trkpt>
      <trkpt lat="59.9859467" lon="17.7391719">
        <ele>0</ele>
        <time>2013-04-18T19:38:42Z</time>
      </trkpt>
      <trkpt lat="59.9859285" lon="17.739165">
        <ele>0</ele>
        <time>2013-04-18T19:38:43Z</time>
      </trkpt>
      <trkpt lat="59.9859093" lon="17.739156">
        <ele>0</ele>
        <time>2013-04-18T19:38:44Z</time>
      </trkpt>
      <trkpt lat="59.9858908" lon="17.739141">
        <ele>0</ele>
        <time>2013-04-18T19:38:45Z</time>
      </trkpt>
      <trkpt lat="59.9858703" lon="17.7391321">
        <ele>0</ele>
        <time>2013-04-18T19:38:46Z</time>
      </trkpt>
      <trkpt lat="59.9858505" lon="17.7391197">
        <ele>0</ele>
        <time>2013-04-18T19:38:47Z</time>
      </trkpt>
      <trkpt lat="59.9858335" lon="17.7391181">
        <ele>0</ele>
        <time>2013-04-18T19:38:48Z</time>
      </trkpt>
      <trkpt lat="59.9858193" lon="17.7391301">
        <ele>0</ele>
        <time>2013-04-18T19:38:49Z</time>
      </trkpt>
      <trkpt lat="59.9858048" lon="17.7391325">
        <ele>0</ele>
        <time>2013-04-18T19:38:50Z</time>
      </trkpt>
      <trkpt lat="59.985792" lon="17.7391381">
        <ele>0</ele>
        <time>2013-04-18T19:38:51Z</time>
      </trkpt>
      <trkpt lat="59.9857791" lon="17.7391358">
        <ele>0</ele>
        <time>2013-04-18T19:38:52Z</time>
      </trkpt>
      <trkpt lat="59.9857656" lon="17.7391352">
        <ele>0</ele>
        <time>2013-04-18T19:38:53Z</time>
      </trkpt>
      <trkpt lat="59.9857489" lon="17.7391337">
        <ele>0</ele>
        <time>2013-04-18T19:38:54Z</time>
      </trkpt>
      <trkpt lat="59.9857301" lon="17.7391288">
        <ele>0</ele>
        <time>2013-04-18T19:38:55Z</time>
      </trkpt>
      <trkpt lat="59.9857085" lon="17.739113">
        <ele>0</ele>
        <time>2013-04-18T19:38:56Z</time>
      </trkpt>
      <trkpt lat="59.9856847" lon="17.7390975">
        <ele>0</ele>
        <time>2013-04-18T19:38:57Z</time>
      </trkpt>
      <trkpt lat="59.9856401" lon="17.739115">
        <ele>0</ele>
        <time>2013-04-18T19:38:58Z</time>
      </trkpt>
      <trkpt lat="59.985619" lon="17.7391184">
        <ele>0</ele>
        <time>2013-04-18T19:38:59Z</time>
      </trkpt>
      <trkpt lat="59.9855996" lon="17.7391156">
        <ele>0</ele>
        <time>2013-04-18T19:39:00Z</time>
      </trkpt>
      <trkpt lat="59.9855815" lon="17.7391165">
        <ele>0</ele>
        <time>2013-04-18T19:39:01Z</time>
      </trkpt>
      <trkpt lat="59.9855629" lon="17.739116">
        <ele>0</ele>
        <time>2013-04-18T19:39:02Z</time>
      </trkpt>
      <trkpt lat="59.9855431" lon="17.7391062">
        <ele>0</ele>
        <time>2013-04-18T19:39:03Z</time>
      </trkpt>
      <trkpt lat="59.9855209" lon="17.7391">
        <ele>0</ele>
        <time>2013-04-18T19:39:04Z</time>
      </trkpt>
      <trkpt lat="59.9854975" lon="17.7390953">
        <ele>0</ele>
        <time>2013-04-18T19:39:05Z</time>
      </trkpt>
      <trkpt lat="59.9854733" lon="17.7390873">
        <ele>0</ele>
        <time>2013-04-18T19:39:06Z</time>
      </trkpt>
      <trkpt lat="59.9854526" lon="17.7390927">
        <ele>0</ele>
        <time>2013-04-18T19:39:07Z</time>
      </trkpt>
      <trkpt lat="59.9854366" lon="17.7390969">
        <ele>0</ele>
        <time>2013-04-18T19:39:08Z</time>
      </trkpt>
      <trkpt lat="59.9854173" lon="17.7391076">
        <ele>0</ele>
        <time>2013-04-18T19:39:09Z</time>
      </trkpt>
      <trkpt lat="59.9853986" lon="17.7391155">
        <ele>0</ele>
        <time>2013-04-18T19:39:10Z</time>
      </trkpt>
      <trkpt lat="59.9853804" lon="17.7391222">
        <ele>0</ele>
        <time>2013-04-18T19:39:11Z</time>
      </trkpt>
      <trkpt lat="59.9853623" lon="17.7391062">
        <ele>0</ele>
        <time>2013-04-18T19:39:12Z</time>
      </trkpt>
      <trkpt lat="59.9853452" lon="17.7391077">
        <ele>0</ele>
        <time>2013-04-18T19:39:13Z</time>
      </trkpt>
      <trkpt lat="59.9853281" lon="17.7391206">
        <ele>0</ele>
        <time>2013-04-18T19:39:14Z</time>
      </trkpt>
      <trkpt lat="59.9853107" lon="17.7391291">
        <ele>0</ele>
        <time>2013-04-18T19:39:15Z</time>
      </trkpt>
      <trkpt lat="59.9852934" lon="17.7391394">
        <ele>0</ele>
        <time>2013-04-18T19:39:16Z</time>
      </trkpt>
      <trkpt lat="59.985277" lon="17.7391419">
        <ele>0</ele>
        <time>2013-04-18T19:39:17Z</time>
      </trkpt>
      <trkpt lat="59.9852609" lon="17.7391382">
        <ele>0</ele>
        <time>2013-04-18T19:39:18Z</time>
      </trkpt>
      <trkpt lat="59.9852434" lon="17.7391393">
        <ele>0</ele>
        <time>2013-04-18T19:39:19Z</time>
      </trkpt>
      <trkpt lat="59.9852261" lon="17.7391428">
        <ele>0</ele>
        <time>2013-04-18T19:39:20Z</time>
      </trkpt>
      <trkpt lat="59.98521" lon="17.739145">
        <ele>0</ele>
        <time>2013-04-18T19:39:21Z</time>
      </trkpt>
      <trkpt lat="59.9851909" lon="17.7391443">
        <ele>0</ele>
        <time>2013-04-18T19:39:22Z</time>
      </trkpt>
      <trkpt lat="59.9851717" lon="17.7391548">
        <ele>0</ele>
        <time>2013-04-18T19:39:23Z</time>
      </trkpt>
      <trkpt lat="59.9851535" lon="17.7391557">
        <ele>0</ele>
        <time>2013-04-18T19:39:24Z</time>
      </trkpt>
      <trkpt lat="59.9851345" lon="17.7391635">
        <ele>0</ele>
        <time>2013-04-18T19:39:25Z</time>
      </trkpt>
      <trkpt lat="59.9851159" lon="17.7391716">
        <ele>0</ele>
        <time>2013-04-18T19:39:26Z</time>
      </trkpt>
      <trkpt lat="59.9850947" lon="17.7391756">
        <ele>0</ele>
        <time>2013-04-18T19:39:27Z</time>
      </trkpt>
      <trkpt lat="59.9850727" lon="17.7391829">
        <ele>0</ele>
        <time>2013-04-18T19:39:28Z</time>
      </trkpt>
      <trkpt lat="59.9850543" lon="17.7391954">
        <ele>0</ele>
        <time>2013-04-18T19:39:29Z</time>
      </trkpt>
      <trkpt lat="59.9850346" lon="17.7391997">
        <ele>0</ele>
        <time>2013-04-18T19:39:30Z</time>
      </trkpt>
      <trkpt lat="59.985014" lon="17.7392011">
        <ele>0</ele>
        <time>2013-04-18T19:39:31Z</time>
      </trkpt>
      <trkpt lat="59.9849952" lon="17.7392096">
        <ele>0</ele>
        <time>2013-04-18T19:39:32Z</time>
      </trkpt>
      <trkpt lat="59.9849792" lon="17.739221">
        <ele>0</ele>
        <time>2013-04-18T19:39:33Z</time>
      </trkpt>
      <trkpt lat="59.9849629" lon="17.7392331">
        <ele>0</ele>
        <time>2013-04-18T19:39:34Z</time>
      </trkpt>
      <trkpt lat="59.9849434" lon="17.7392396">
        <ele>0</ele>
        <time>2013-04-18T19:39:35Z</time>
      </trkpt>
      <trkpt lat="59.9849243" lon="17.7392553">
        <ele>0</ele>
        <time>2013-04-18T19:39:36Z</time>
      </trkpt>
      <trkpt lat="59.9849049" lon="17.7392682">
        <ele>0</ele>
        <time>2013-04-18T19:39:37Z</time>
      </trkpt>
      <trkpt lat="59.984888" lon="17.7392745">
        <ele>0</ele>
        <time>2013-04-18T19:39:38Z</time>
      </trkpt>
      <trkpt lat="59.9848721" lon="17.7392792">
        <ele>0</ele>
        <time>2013-04-18T19:39:39Z</time>
      </trkpt>
      <trkpt lat="59.9848533" lon="17.7392958">
        <ele>0</ele>
        <time>2013-04-18T19:39:40Z</time>
      </trkpt>
      <trkpt lat="59.9848357" lon="17.739313">
        <ele>0</ele>
        <time>2013-04-18T19:39:41Z</time>
      </trkpt>
      <trkpt lat="59.9848174" lon="17.7393201">
        <ele>0</ele>
        <time>2013-04-18T19:39:42Z</time>
      </trkpt>
      <trkpt lat="59.9847946" lon="17.7393213">
        <ele>0</ele>
        <time>2013-04-18T19:39:43Z</time>
      </trkpt>
      <trkpt lat="59.9847724" lon="17.7393252">
        <ele>0</ele>
        <time>2013-04-18T19:39:44Z</time>
      </trkpt>
      <trkpt lat="59.9847529" lon="17.7393492">
        <ele>0</ele>
        <time>2013-04-18T19:39:45Z</time>
      </trkpt>
      <trkpt lat="59.9847366" lon="17.7393687">
        <ele>0</ele>
        <time>2013-04-18T19:39:46Z</time>
      </trkpt>
      <trkpt lat="59.9847179" lon="17.7393859">
        <ele>0</ele>
        <time>2013-04-18T19:39:47Z</time>
      </trkpt>
      <trkpt lat="59.9846973" lon="17.7393947">
        <ele>0</ele>
        <time>2013-04-18T19:39:48Z</time>
      </trkpt>
      <trkpt lat="59.9846741" lon="17.7394057">
        <ele>0</ele>
        <time>2013-04-18T19:39:49Z</time>
      </trkpt>
      <trkpt lat="59.9846508" lon="17.7394103">
        <ele>0</ele>
        <time>2013-04-18T19:39:50Z</time>
      </trkpt>
      <trkpt lat="59.9846315" lon="17.7394082">
        <ele>0</ele>
        <time>2013-04-18T19:39:51Z</time>
      </trkpt>
      <trkpt lat="59.9846103" lon="17.7394154">
        <ele>0</ele>
        <time>2013-04-18T19:39:52Z</time>
      </trkpt>
      <trkpt lat="59.9845895" lon="17.7394297">
        <ele>0</ele>
        <time>2013-04-18T19:39:53Z</time>
      </trkpt>
      <trkpt lat="59.9845683" lon="17.7394401">
        <ele>0</ele>
        <time>2013-04-18T19:39:54Z</time>
      </trkpt>
      <trkpt lat="59.9845493" lon="17.7394595">
        <ele>0</ele>
        <time>2013-04-18T19:39:55Z</time>
      </trkpt>
      <trkpt lat="59.9845288" lon="17.7394759">
        <ele>0</ele>
        <time>2013-04-18T19:39:56Z</time>
      </trkpt>
      <trkpt lat="59.9845066" lon="17.739485">
        <ele>0</ele>
        <time>2013-04-18T19:39:57Z</time>
      </trkpt>
      <trkpt lat="59.984489" lon="17.7395078">
        <ele>0</ele>
        <time>2013-04-18T19:39:58Z</time>
      </trkpt>
      <trkpt lat="59.9844716" lon="17.739518">
        <ele>0</ele>
        <time>2013-04-18T19:39:59Z</time>
      </trkpt>
      <trkpt lat="59.9844519" lon="17.7395131">
        <ele>0</ele>
        <time>2013-04-18T19:40:00Z</time>
      </trkpt>
      <trkpt lat="59.984434" lon="17.7395086">
        <ele>0</ele>
        <time>2013-04-18T19:40:01Z</time>
      </trkpt>
      <trkpt lat="59.984417" lon="17.7395121">
        <ele>0</ele>
        <time>2013-04-18T19:40:02Z</time>
      </trkpt>
      <trkpt lat="59.984399" lon="17.739519">
        <ele>0</ele>
        <time>2013-04-18T19:40:03Z</time>
      </trkpt>
      <trkpt lat="59.9843804" lon="17.7395221">
        <ele>0</ele>
        <time>2013-04-18T19:40:04Z</time>
      </trkpt>
      <trkpt lat="59.9843597" lon="17.739533">
        <ele>0</ele>
        <time>2013-04-18T19:40:05Z</time>
      </trkpt>
      <trkpt lat="59.9843353" lon="17.7395397">
        <ele>0</ele>
        <time>2013-04-18T19:40:06Z</time>
      </trkpt>
      <trkpt lat="59.9843134" lon="17.7395604">
        <ele>0</ele>
        <time>2013-04-18T19:40:07Z</time>
      </trkpt>
      <trkpt lat="59.9842962" lon="17.7395781">
        <ele>0</ele>
        <time>2013-04-18T19:40:08Z</time>
      </trkpt>
      <trkpt lat="59.9842781" lon="17.739588">
        <ele>0</ele>
        <time>2013-04-18T19:40:09Z</time>
      </trkpt>
      <trkpt lat="59.9842554" lon="17.7395849">
        <ele>0</ele>
        <time>2013-04-18T19:40:10Z</time>
      </trkpt>
      <trkpt lat="59.9842356" lon="17.7395844">
        <ele>0</ele>
        <time>2013-04-18T19:40:11Z</time>
      </trkpt>
      <trkpt lat="59.9842182" lon="17.7395807">
        <ele>0</ele>
        <time>2013-04-18T19:40:12Z</time>
      </trkpt>
      <trkpt lat="59.9842022" lon="17.7395759">
        <ele>0</ele>
        <time>2013-04-18T19:40:13Z</time>
      </trkpt>
      <trkpt lat="59.984188" lon="17.7395787">
        <ele>0</ele>
        <time>2013-04-18T19:40:14Z</time>
      </trkpt>
      <trkpt lat="59.9841725" lon="17.7395893">
        <ele>0</ele>
        <time>2013-04-18T19:40:15Z</time>
      </trkpt>
      <trkpt lat="59.9841545" lon="17.7395875">
        <ele>0</ele>
        <time>2013-04-18T19:40:16Z</time>
      </trkpt>
      <trkpt lat="59.9841367" lon="17.7395859">
        <ele>0</ele>
        <time>2013-04-18T19:40:17Z</time>
      </trkpt>
      <trkpt lat="59.9841167" lon="17.7395847">
        <ele>0</ele>
        <time>2013-04-18T19:40:18Z</time>
      </trkpt>
      <trkpt lat="59.9840996" lon="17.7395796">
        <ele>0</ele>
        <time>2013-04-18T19:40:19Z</time>
      </trkpt>
      <trkpt lat="59.984083" lon="17.7395776">
        <ele>0</ele>
        <time>2013-04-18T19:40:20Z</time>
      </trkpt>
      <trkpt lat="59.9840671" lon="17.7395735">
        <ele>0</ele>
        <time>2013-04-18T19:40:21Z</time>
      </trkpt>
      <trkpt lat="59.9840526" lon="17.7395785">
        <ele>0</ele>
        <time>2013-04-18T19:40:22Z</time>
      </trkpt>
      <trkpt lat="59.9840347" lon="17.7395883">
        <ele>0</ele>
        <time>2013-04-18T19:40:23Z</time>
      </trkpt>
      <trkpt lat="59.9840172" lon="17.7395966">
        <ele>0</ele>
        <time>2013-04-18T19:40:24Z</time>
      </trkpt>
      <trkpt lat="59.9839991" lon="17.7396082">
        <ele>0</ele>
        <time>2013-04-18T19:40:25Z</time>
      </trkpt>
      <trkpt lat="59.9839804" lon="17.7396228">
        <ele>0</ele>
        <time>2013-04-18T19:40:26Z</time>
      </trkpt>
      <trkpt lat="59.9839638" lon="17.7396408">
        <ele>0</ele>
        <time>2013-04-18T19:40:27Z</time>
      </trkpt>
      <trkpt lat="59.9839462" lon="17.739647">
        <ele>0</ele>
        <time>2013-04-18T19:40:28Z</time>
      </trkpt>
      <trkpt lat="59.9839188" lon="17.7396522">
        <ele>0</ele>
        <time>2013-04-18T19:40:29Z</time>
      </trkpt>
      <trkpt lat="59.9838955" lon="17.7396681">
        <ele>0</ele>
        <time>2013-04-18T19:40:30Z</time>
      </trkpt>
      <trkpt lat="59.9838753" lon="17.7396728">
        <ele>0</ele>
        <time>2013-04-18T19:40:31Z</time>
      </trkpt>
      <trkpt lat="59.9838525" lon="17.7396744">
        <ele>0</ele>
        <time>2013-04-18T19:40:32Z</time>
      </trkpt>
      <trkpt lat="59.9838265" lon="17.7396831">
        <ele>0</ele>
        <time>2013-04-18T19:40:33Z</time>
      </trkpt>
      <trkpt lat="59.9838044" lon="17.7397035">
        <ele>0</ele>
        <time>2013-04-18T19:40:34Z</time>
      </trkpt>
      <trkpt lat="59.9837821" lon="17.73972">
        <ele>0</ele>
        <time>2013-04-18T19:40:35Z</time>
      </trkpt>
      <trkpt lat="59.9837549" lon="17.7397273">
        <ele>0</ele>
        <time>2013-04-18T19:40:36Z</time>
      </trkpt>
      <trkpt lat="59.983728" lon="17.7397351">
        <ele>0</ele>
        <time>2013-04-18T19:40:37Z</time>
      </trkpt>
      <trkpt lat="59.9837023" lon="17.7397417">
        <ele>0</ele>
        <time>2013-04-18T19:40:38Z</time>
      </trkpt>
      <trkpt lat="59.9836788" lon="17.7397464">
        <ele>0</ele>
        <time>2013-04-18T19:40:39Z</time>
      </trkpt>
      <trkpt lat="59.9836591" lon="17.7397572">
        <ele>0</ele>
        <time>2013-04-18T19:40:40Z</time>
      </trkpt>
      <trkpt lat="59.983639" lon="17.7397605">
        <ele>0</ele>
        <time>2013-04-18T19:40:41Z</time>
      </trkpt>
      <trkpt lat="59.9836162" lon="17.7397584">
        <ele>0</ele>
        <time>2013-04-18T19:40:42Z</time>
      </trkpt>
      <trkpt lat="59.9835925" lon="17.7397666">
        <ele>0</ele>
        <time>2013-04-18T19:40:43Z</time>
      </trkpt>
      <trkpt lat="59.9835755" lon="17.7397775">
        <ele>0</ele>
        <time>2013-04-18T19:40:44Z</time>
      </trkpt>
      <trkpt lat="59.9835536" lon="17.7397918">
        <ele>0</ele>
        <time>2013-04-18T19:40:45Z</time>
      </trkpt>
      <trkpt lat="59.9835317" lon="17.7398068">
        <ele>0</ele>
        <time>2013-04-18T19:40:46Z</time>
      </trkpt>
      <trkpt lat="59.9835112" lon="17.7398338">
        <ele>0</ele>
        <time>2013-04-18T19:40:47Z</time>
      </trkpt>
      <trkpt lat="59.9834883" lon="17.7398592">
        <ele>0</ele>
        <time>2013-04-18T19:40:48Z</time>
      </trkpt>
      <trkpt lat="59.9834645" lon="17.7398827">
        <ele>0</ele>
        <time>2013-04-18T19:40:49Z</time>
      </trkpt>
      <trkpt lat="59.983441" lon="17.7399029">
        <ele>0</ele>
        <time>2013-04-18T19:40:50Z</time>
      </trkpt>
      <trkpt lat="59.9834163" lon="17.7399205">
        <ele>0</ele>
        <time>2013-04-18T19:40:51Z</time>
      </trkpt>
      <trkpt lat="59.9833935" lon="17.7399308">
        <ele>0</ele>
        <time>2013-04-18T19:40:52Z</time>
      </trkpt>
      <trkpt lat="59.9833739" lon="17.7399485">
        <ele>0</ele>
        <time>2013-04-18T19:40:53Z</time>
      </trkpt>
      <trkpt lat="59.9833532" lon="17.7399625">
        <ele>0</ele>
        <time>2013-04-18T19:40:54Z</time>
      </trkpt>
      <trkpt lat="59.9833329" lon="17.7399806">
        <ele>0</ele>
        <time>2013-04-18T19:40:55Z</time>
      </trkpt>
      <trkpt lat="59.983311" lon="17.7399933">
        <ele>0</ele>
        <time>2013-04-18T19:40:56Z</time>
      </trkpt>
      <trkpt lat="59.9832889" lon="17.7400034">
        <ele>0</ele>
        <time>2013-04-18T19:40:57Z</time>
      </trkpt>
      <trkpt lat="59.9832646" lon="17.7400034">
        <ele>0</ele>
        <time>2013-04-18T19:40:58Z</time>
      </trkpt>
      <trkpt lat="59.9832442" lon="17.7400102">
        <ele>0</ele>
        <time>2013-04-18T19:40:59Z</time>
      </trkpt>
      <trkpt lat="59.9832242" lon="17.7400298">
        <ele>0</ele>
        <time>2013-04-18T19:41:00Z</time>
      </trkpt>
      <trkpt lat="59.983201" lon="17.7400441">
        <ele>0</ele>
        <time>2013-04-18T19:41:01Z</time>
      </trkpt>
      <trkpt lat="59.9831776" lon="17.740052">
        <ele>0</ele>
        <time>2013-04-18T19:41:02Z</time>
      </trkpt>
      <trkpt lat="59.9831559" lon="17.740063">
        <ele>0</ele>
        <time>2013-04-18T19:41:03Z</time>
      </trkpt>
      <trkpt lat="59.9831335" lon="17.7400659">
        <ele>0</ele>
        <time>2013-04-18T19:41:04Z</time>
      </trkpt>
      <trkpt lat="59.9831077" lon="17.7400623">
        <ele>0</ele>
        <time>2013-04-18T19:41:05Z</time>
      </trkpt>
      <trkpt lat="59.9830825" lon="17.7400662">
        <ele>0</ele>
        <time>2013-04-18T19:41:06Z</time>
      </trkpt>
      <trkpt lat="59.983057" lon="17.7400724">
        <ele>0</ele>
        <time>2013-04-18T19:41:07Z</time>
      </trkpt>
      <trkpt lat="59.98303" lon="17.7400707">
        <ele>0</ele>
        <time>2013-04-18T19:41:08Z</time>
      </trkpt>
      <trkpt lat="59.983007" lon="17.7400655">
        <ele>0</ele>
        <time>2013-04-18T19:41:09Z</time>
      </trkpt>
      <trkpt lat="59.9829834" lon="17.7400697">
        <ele>0</ele>
        <time>2013-04-18T19:41:10Z</time>
      </trkpt>
      <trkpt lat="59.982958" lon="17.7400684">
        <ele>0</ele>
        <time>2013-04-18T19:41:11Z</time>
      </trkpt>
      <trkpt lat="59.9829337" lon="17.7400676">
        <ele>0</ele>
        <time>2013-04-18T19:41:12Z</time>
      </trkpt>
      <trkpt lat="59.9829097" lon="17.7400695">
        <ele>0</ele>
        <time>2013-04-18T19:41:13Z</time>
      </trkpt>
      <trkpt lat="59.9828854" lon="17.7400742">
        <ele>0</ele>
        <time>2013-04-18T19:41:14Z</time>
      </trkpt>
      <trkpt lat="59.9828627" lon="17.7400819">
        <ele>0</ele>
        <time>2013-04-18T19:41:15Z</time>
      </trkpt>
      <trkpt lat="59.9828409" lon="17.7400966">
        <ele>0</ele>
        <time>2013-04-18T19:41:16Z</time>
      </trkpt>
      <trkpt lat="59.9828186" lon="17.740112">
        <ele>0</ele>
        <time>2013-04-18T19:41:17Z</time>
      </trkpt>
      <trkpt lat="59.9827966" lon="17.7401246">
        <ele>0</ele>
        <time>2013-04-18T19:41:18Z</time>
      </trkpt>
      <trkpt lat="59.9827729" lon="17.7401247">
        <ele>0</ele>
        <time>2013-04-18T19:41:19Z</time>
      </trkpt>
      <trkpt lat="59.9827481" lon="17.7401318">
        <ele>0</ele>
        <time>2013-04-18T19:41:20Z</time>
      </trkpt>
      <trkpt lat="59.9827259" lon="17.7401404">
        <ele>0</ele>
        <time>2013-04-18T19:41:21Z</time>
      </trkpt>
      <trkpt lat="59.9827036" lon="17.7401577">
        <ele>0</ele>
        <time>2013-04-18T19:41:22Z</time>
      </trkpt>
      <trkpt lat="59.9826827" lon="17.740168">
        <ele>0</ele>
        <time>2013-04-18T19:41:23Z</time>
      </trkpt>
      <trkpt lat="59.9826643" lon="17.7401737">
        <ele>0</ele>
        <time>2013-04-18T19:41:24Z</time>
      </trkpt>
      <trkpt lat="59.9826434" lon="17.7401822">
        <ele>0</ele>
        <time>2013-04-18T19:41:25Z</time>
      </trkpt>
      <trkpt lat="59.9826139" lon="17.7401848">
        <ele>0</ele>
        <time>2013-04-18T19:41:26Z</time>
      </trkpt>
      <trkpt lat="59.9825811" lon="17.7401842">
        <ele>0</ele>
        <time>2013-04-18T19:41:27Z</time>
      </trkpt>
      <trkpt lat="59.9825538" lon="17.7401801">
        <ele>0</ele>
        <time>2013-04-18T19:41:28Z</time>
      </trkpt>
      <trkpt lat="59.9825306" lon="17.7401827">
        <ele>0</ele>
        <time>2013-04-18T19:41:29Z</time>
      </trkpt>
      <trkpt lat="59.9825104" lon="17.7401872">
        <ele>0</ele>
        <time>2013-04-18T19:41:30Z</time>
      </trkpt>
      <trkpt lat="59.982492" lon="17.7402125">
        <ele>0</ele>
        <time>2013-04-18T19:41:31Z</time>
      </trkpt>
      <trkpt lat="59.9824725" lon="17.7402304">
        <ele>0</ele>
        <time>2013-04-18T19:41:32Z</time>
      </trkpt>
      <trkpt lat="59.9824477" lon="17.7402588">
        <ele>0</ele>
        <time>2013-04-18T19:41:33Z</time>
      </trkpt>
      <trkpt lat="59.9824139" lon="17.740266">
        <ele>0</ele>
        <time>2013-04-18T19:41:34Z</time>
      </trkpt>
      <trkpt lat="59.9823854" lon="17.7402734">
        <ele>0</ele>
        <time>2013-04-18T19:41:35Z</time>
      </trkpt>
      <trkpt lat="59.9823622" lon="17.7402888">
        <ele>0</ele>
        <time>2013-04-18T19:41:36Z</time>
      </trkpt>
      <trkpt lat="59.9823395" lon="17.7402988">
        <ele>0</ele>
        <time>2013-04-18T19:41:37Z</time>
      </trkpt>
      <trkpt lat="59.9823171" lon="17.7403133">
        <ele>0</ele>
        <time>2013-04-18T19:41:38Z</time>
      </trkpt>
      <trkpt lat="59.9822959" lon="17.7403269">
        <ele>0</ele>
        <time>2013-04-18T19:41:39Z</time>
      </trkpt>
      <trkpt lat="59.982274" lon="17.7403489">
        <ele>0</ele>
        <time>2013-04-18T19:41:40Z</time>
      </trkpt>
      <trkpt lat="59.9822482" lon="17.7403696">
        <ele>0</ele>
        <time>2013-04-18T19:41:41Z</time>
      </trkpt>
      <trkpt lat="59.9822227" lon="17.7403887">
        <ele>0</ele>
        <time>2013-04-18T19:41:42Z</time>
      </trkpt>
      <trkpt lat="59.9822041" lon="17.7404038">
        <ele>0</ele>
        <time>2013-04-18T19:41:43Z</time>
      </trkpt>
      <trkpt lat="59.9821871" lon="17.7404312">
        <ele>0</ele>
        <time>2013-04-18T19:41:44Z</time>
      </trkpt>
      <trkpt lat="59.9821673" lon="17.7404454">
        <ele>0</ele>
        <time>2013-04-18T19:41:45Z</time>
      </trkpt>
      <trkpt lat="59.9821445" lon="17.7404551">
        <ele>0</ele>
        <time>2013-04-18T19:41:46Z</time>
      </trkpt>
      <trkpt lat="59.9821225" lon="17.7404604">
        <ele>0</ele>
        <time>2013-04-18T19:41:47Z</time>
      </trkpt>
      <trkpt lat="59.9821019" lon="17.7404573">
        <ele>0</ele>
        <time>2013-04-18T19:41:48Z</time>
      </trkpt>
      <trkpt lat="59.9820819" lon="17.7404535">
        <ele>0</ele>
        <time>2013-04-18T19:41:49Z</time>
      </trkpt>
      <trkpt lat="59.982059" lon="17.7404431">
        <ele>0</ele>
        <time>2013-04-18T19:41:50Z</time>
      </trkpt>
      <trkpt lat="59.9820377" lon="17.7404495">
        <ele>0</ele>
        <time>2013-04-18T19:41:51Z</time>
      </trkpt>
      <trkpt lat="59.9820193" lon="17.7404587">
        <ele>0</ele>
        <time>2013-04-18T19:41:52Z</time>
      </trkpt>
      <trkpt lat="59.9819996" lon="17.7404799">
        <ele>0</ele>
        <time>2013-04-18T19:41:53Z</time>
      </trkpt>
      <trkpt lat="59.9819795" lon="17.7404934">
        <ele>0</ele>
        <time>2013-04-18T19:41:54Z</time>
      </trkpt>
      <trkpt lat="59.9819545" lon="17.740483">
        <ele>0</ele>
        <time>2013-04-18T19:41:55Z</time>
      </trkpt>
      <trkpt lat="59.9819311" lon="17.7404678">
        <ele>0</ele>
        <time>2013-04-18T19:41:56Z</time>
      </trkpt>
      <trkpt lat="59.9819089" lon="17.7404525">
        <ele>0</ele>
        <time>2013-04-18T19:41:57Z</time>
      </trkpt>
      <trkpt lat="59.981885" lon="17.7404424">
        <ele>0</ele>
        <time>2013-04-18T19:41:58Z</time>
      </trkpt>
      <trkpt lat="59.9818616" lon="17.7404318">
        <ele>0</ele>
        <time>2013-04-18T19:41:59Z</time>
      </trkpt>
      <trkpt lat="59.9818398" lon="17.7404186">
        <ele>0</ele>
        <time>2013-04-18T19:42:00Z</time>
      </trkpt>
      <trkpt lat="59.9818163" lon="17.7404057">
        <ele>0</ele>
        <time>2013-04-18T19:42:01Z</time>
      </trkpt>
      <trkpt lat="59.9817965" lon="17.7403997">
        <ele>0</ele>
        <time>2013-04-18T19:42:02Z</time>
      </trkpt>
      <trkpt lat="59.9817753" lon="17.7403945">
        <ele>0</ele>
        <time>2013-04-18T19:42:03Z</time>
      </trkpt>
      <trkpt lat="59.9817529" lon="17.7403976">
        <ele>0</ele>
        <time>2013-04-18T19:42:04Z</time>
      </trkpt>
      <trkpt lat="59.9817301" lon="17.7404029">
        <ele>0</ele>
        <time>2013-04-18T19:42:05Z</time>
      </trkpt>
      <trkpt lat="59.9817091" lon="17.7404209">
        <ele>0</ele>
        <time>2013-04-18T19:42:06Z</time>
      </trkpt>
      <trkpt lat="59.9816851" lon="17.7404365">
        <ele>0</ele>
        <time>2013-04-18T19:42:07Z</time>
      </trkpt>
      <trkpt lat="59.9816618" lon="17.7404473">
        <ele>0</ele>
        <time>2013-04-18T19:42:08Z</time>
      </trkpt>
      <trkpt lat="59.9816412" lon="17.7404583">
        <ele>0</ele>
        <time>2013-04-18T19:42:09Z</time>
      </trkpt>
      <trkpt lat="59.981621" lon="17.7404717">
        <ele>0</ele>
        <time>2013-04-18T19:42:10Z</time>
      </trkpt>
      <trkpt lat="59.9816002" lon="17.7404908">
        <ele>0</ele>
        <time>2013-04-18T19:42:11Z</time>
      </trkpt>
      <trkpt lat="59.9815784" lon="17.7405043">
        <ele>0</ele>
        <time>2013-04-18T19:42:12Z</time>
      </trkpt>
      <trkpt lat="59.9815558" lon="17.740511">
        <ele>0</ele>
        <time>2013-04-18T19:42:13Z</time>
      </trkpt>
      <trkpt lat="59.9815344" lon="17.7405141">
        <ele>0</ele>
        <time>2013-04-18T19:42:14Z</time>
      </trkpt>
      <trkpt lat="59.9815125" lon="17.740516">
        <ele>0</ele>
        <time>2013-04-18T19:42:15Z</time>
      </trkpt>
      <trkpt lat="59.9814888" lon="17.7405208">
        <ele>0</ele>
        <time>2013-04-18T19:42:16Z</time>
      </trkpt>
      <trkpt lat="59.9814546" lon="17.7405251">
        <ele>0</ele>
        <time>2013-04-18T19:42:17Z</time>
      </trkpt>
      <trkpt lat="59.9814308" lon="17.7405406">
        <ele>0</ele>
        <time>2013-04-18T19:42:18Z</time>
      </trkpt>
      <trkpt lat="59.9814063" lon="17.740558">
        <ele>0</ele>
        <time>2013-04-18T19:42:19Z</time>
      </trkpt>
      <trkpt lat="59.9813855" lon="17.7405754">
        <ele>0</ele>
        <time>2013-04-18T19:42:20Z</time>
      </trkpt>
      <trkpt lat="59.9813654" lon="17.7405866">
        <ele>0</ele>
        <time>2013-04-18T19:42:21Z</time>
      </trkpt>
      <trkpt lat="59.9813415" lon="17.7405996">
        <ele>0</ele>
        <time>2013-04-18T19:42:22Z</time>
      </trkpt>
      <trkpt lat="59.9813174" lon="17.7406187">
        <ele>0</ele>
        <time>2013-04-18T19:42:23Z</time>
      </trkpt>
      <trkpt lat="59.9812956" lon="17.7406339">
        <ele>0</ele>
        <time>2013-04-18T19:42:24Z</time>
      </trkpt>
      <trkpt lat="59.9812733" lon="17.7406493">
        <ele>0</ele>
        <time>2013-04-18T19:42:25Z</time>
      </trkpt>
      <trkpt lat="59.9812506" lon="17.7406732">
        <ele>0</ele>
        <time>2013-04-18T19:42:26Z</time>
      </trkpt>
      <trkpt lat="59.9812312" lon="17.7406991">
        <ele>0</ele>
        <time>2013-04-18T19:42:27Z</time>
      </trkpt>
      <trkpt lat="59.9812019" lon="17.7407083">
        <ele>0</ele>
        <time>2013-04-18T19:42:28Z</time>
      </trkpt>
      <trkpt lat="59.9811712" lon="17.7407089">
        <ele>0</ele>
        <time>2013-04-18T19:42:29Z</time>
      </trkpt>
      <trkpt lat="59.9811463" lon="17.7407244">
        <ele>0</ele>
        <time>2013-04-18T19:42:30Z</time>
      </trkpt>
      <trkpt lat="59.9811267" lon="17.7407527">
        <ele>0</ele>
        <time>2013-04-18T19:42:31Z</time>
      </trkpt>
      <trkpt lat="59.9811054" lon="17.740783">
        <ele>0</ele>
        <time>2013-04-18T19:42:32Z</time>
      </trkpt>
      <trkpt lat="59.9810832" lon="17.7408129">
        <ele>0</ele>
        <time>2013-04-18T19:42:33Z</time>
      </trkpt>
      <trkpt lat="59.9810589" lon="17.7408342">
        <ele>0</ele>
        <time>2013-04-18T19:42:34Z</time>
      </trkpt>
      <trkpt lat="59.9810329" lon="17.7408508">
        <ele>0</ele>
        <time>2013-04-18T19:42:35Z</time>
      </trkpt>
      <trkpt lat="59.9810076" lon="17.7408651">
        <ele>0</ele>
        <time>2013-04-18T19:42:36Z</time>
      </trkpt>
      <trkpt lat="59.9809801" lon="17.7408777">
        <ele>0</ele>
        <time>2013-04-18T19:42:37Z</time>
      </trkpt>
      <trkpt lat="59.9809481" lon="17.74089">
        <ele>0</ele>
        <time>2013-04-18T19:42:38Z</time>
      </trkpt>
      <trkpt lat="59.9809163" lon="17.740905">
        <ele>0</ele>
        <time>2013-04-18T19:42:39Z</time>
      </trkpt>
      <trkpt lat="59.9808853" lon="17.7409119">
        <ele>0</ele>
        <time>2013-04-18T19:42:40Z</time>
      </trkpt>
      <trkpt lat="59.9808513" lon="17.7409214">
        <ele>0</ele>
        <time>2013-04-18T19:42:41Z</time>
      </trkpt>
      <trkpt lat="59.9808153" lon="17.7409367">
        <ele>0</ele>
        <time>2013-04-18T19:42:42Z</time>
      </trkpt>
      <trkpt lat="59.9807755" lon="17.7409368">
        <ele>0</ele>
        <time>2013-04-18T19:42:43Z</time>
      </trkpt>
      <trkpt lat="59.9807285" lon="17.7409353">
        <ele>0</ele>
        <time>2013-04-18T19:42:44Z</time>
      </trkpt>
      <trkpt lat="59.9806916" lon="17.7409384">
        <ele>0</ele>
        <time>2013-04-18T19:42:45Z</time>
      </trkpt>
      <trkpt lat="59.9806159" lon="17.74089">
        <ele>0</ele>
        <time>2013-04-18T19:42:46Z</time>
      </trkpt>
      <trkpt lat="59.9805814" lon="17.7408814">
        <ele>0</ele>
        <time>2013-04-18T19:42:47Z</time>
      </trkpt>
      <trkpt lat="59.9805424" lon="17.7408641">
        <ele>0</ele>
        <time>2013-04-18T19:42:48Z</time>
      </trkpt>
      <trkpt lat="59.980512" lon="17.7408586">
        <ele>0</ele>
        <time>2013-04-18T19:42:49Z</time>
      </trkpt>
      <trkpt lat="59.9804828" lon="17.7408611">
        <ele>0</ele>
        <time>2013-04-18T19:42:50Z</time>
      </trkpt>
      <trkpt lat="59.9804507" lon="17.7408558">
        <ele>0</ele>
        <time>2013-04-18T19:42:51Z</time>
      </trkpt>
      <trkpt lat="59.9804202" lon="17.7408507">
        <ele>0</ele>
        <time>2013-04-18T19:42:52Z</time>
      </trkpt>
      <trkpt lat="59.9803889" lon="17.740844">
        <ele>0</ele>
        <time>2013-04-18T19:42:53Z</time>
      </trkpt>
      <trkpt lat="59.9803575" lon="17.7408374">
        <ele>0</ele>
        <time>2013-04-18T19:42:54Z</time>
      </trkpt>
      <trkpt lat="59.98033" lon="17.7408347">
        <ele>0</ele>
        <time>2013-04-18T19:42:55Z</time>
      </trkpt>
      <trkpt lat="59.9802983" lon="17.7408214">
        <ele>0</ele>
        <time>2013-04-18T19:42:56Z</time>
      </trkpt>
      <trkpt lat="59.9802649" lon="17.7408011">
        <ele>0</ele>
        <time>2013-04-18T19:42:57Z</time>
      </trkpt>
      <trkpt lat="59.9802136" lon="17.7407996">
        <ele>0</ele>
        <time>2013-04-18T19:42:58Z</time>
      </trkpt>
      <trkpt lat="59.9801875" lon="17.7407906">
        <ele>0</ele>
        <time>2013-04-18T19:42:59Z</time>
      </trkpt>
      <trkpt lat="59.980096" lon="17.7407949">
        <ele>0</ele>
        <time>2013-04-18T19:43:00Z</time>
      </trkpt>
      <trkpt lat="59.9800735" lon="17.7407952">
        <ele>0</ele>
        <time>2013-04-18T19:43:01Z</time>
      </trkpt>
      <trkpt lat="59.9799959" lon="17.7407276">
        <ele>0</ele>
        <time>2013-04-18T19:43:02Z</time>
      </trkpt>
      <trkpt lat="59.9799721" lon="17.740718">
        <ele>0</ele>
        <time>2013-04-18T19:43:03Z</time>
      </trkpt>
      <trkpt lat="59.9798892" lon="17.7407193">
        <ele>0</ele>
        <time>2013-04-18T19:43:04Z</time>
      </trkpt>
      <trkpt lat="59.9798623" lon="17.7407123">
        <ele>0</ele>
        <time>2013-04-18T19:43:05Z</time>
      </trkpt>
      <trkpt lat="59.9797811" lon="17.7407161">
        <ele>0</ele>
        <time>2013-04-18T19:43:06Z</time>
      </trkpt>
      <trkpt lat="59.9797575" lon="17.7407113">
        <ele>0</ele>
        <time>2013-04-18T19:43:07Z</time>
      </trkpt>
      <trkpt lat="59.9797324" lon="17.740704">
        <ele>0</ele>
        <time>2013-04-18T19:43:08Z</time>
      </trkpt>
      <trkpt lat="59.9797088" lon="17.7407027">
        <ele>0</ele>
        <time>2013-04-18T19:43:09Z</time>
      </trkpt>
      <trkpt lat="59.9796806" lon="17.7406975">
        <ele>0</ele>
        <time>2013-04-18T19:43:10Z</time>
      </trkpt>
      <trkpt lat="59.9796509" lon="17.7406873">
        <ele>0</ele>
        <time>2013-04-18T19:43:11Z</time>
      </trkpt>
      <trkpt lat="59.979623" lon="17.7406704">
        <ele>0</ele>
        <time>2013-04-18T19:43:12Z</time>
      </trkpt>
      <trkpt lat="59.9795948" lon="17.7406523">
        <ele>0</ele>
        <time>2013-04-18T19:43:13Z</time>
      </trkpt>
      <trkpt lat="59.9795705" lon="17.7406394">
        <ele>0</ele>
        <time>2013-04-18T19:43:14Z</time>
      </trkpt>
      <trkpt lat="59.9795086" lon="17.7405903">
        <ele>0</ele>
        <time>2013-04-18T19:43:15Z</time>
      </trkpt>
      <trkpt lat="59.9794783" lon="17.7405717">
        <ele>0</ele>
        <time>2013-04-18T19:43:16Z</time>
      </trkpt>
      <trkpt lat="59.9794418" lon="17.7405455">
        <ele>0</ele>
        <time>2013-04-18T19:43:17Z</time>
      </trkpt>
      <trkpt lat="59.9794158" lon="17.7405312">
        <ele>0</ele>
        <time>2013-04-18T19:43:18Z</time>
      </trkpt>
      <trkpt lat="59.9793924" lon="17.740507">
        <ele>0</ele>
        <time>2013-04-18T19:43:19Z</time>
      </trkpt>
      <trkpt lat="59.9793681" lon="17.7404846">
        <ele>0</ele>
        <time>2013-04-18T19:43:20Z</time>
      </trkpt>
      <trkpt lat="59.9793464" lon="17.7404743">
        <ele>0</ele>
        <time>2013-04-18T19:43:21Z</time>
      </trkpt>
      <trkpt lat="59.9793267" lon="17.7404644">
        <ele>0</ele>
        <time>2013-04-18T19:43:22Z</time>
      </trkpt>
      <trkpt lat="59.9792693" lon="17.7404494">
        <ele>0</ele>
        <time>2013-04-18T19:43:23Z</time>
      </trkpt>
      <trkpt lat="59.9792364" lon="17.7404323">
        <ele>0</ele>
        <time>2013-04-18T19:43:24Z</time>
      </trkpt>
      <trkpt lat="59.9791758" lon="17.7404217">
        <ele>0</ele>
        <time>2013-04-18T19:43:25Z</time>
      </trkpt>
      <trkpt lat="59.9791482" lon="17.7404034">
        <ele>0</ele>
        <time>2013-04-18T19:43:26Z</time>
      </trkpt>
      <trkpt lat="59.9790892" lon="17.740351">
        <ele>0</ele>
        <time>2013-04-18T19:43:27Z</time>
      </trkpt>
      <trkpt lat="59.9790345" lon="17.7403266">
        <ele>0</ele>
        <time>2013-04-18T19:43:28Z</time>
      </trkpt>
      <trkpt lat="59.9789923" lon="17.7402938">
        <ele>0</ele>
        <time>2013-04-18T19:43:29Z</time>
      </trkpt>
      <trkpt lat="59.9789357" lon="17.7402653">
        <ele>0</ele>
        <time>2013-04-18T19:43:30Z</time>
      </trkpt>
      <trkpt lat="59.9788815" lon="17.7402387">
        <ele>0</ele>
        <time>2013-04-18T19:43:31Z</time>
      </trkpt>
      <trkpt lat="59.9788215" lon="17.7402006">
        <ele>0</ele>
        <time>2013-04-18T19:43:32Z</time>
      </trkpt>
      <trkpt lat="59.9787652" lon="17.7401666">
        <ele>0</ele>
        <time>2013-04-18T19:43:33Z</time>
      </trkpt>
      <trkpt lat="59.9787088" lon="17.7401339">
        <ele>0</ele>
        <time>2013-04-18T19:43:34Z</time>
      </trkpt>
      <trkpt lat="59.9786528" lon="17.7401012">
        <ele>0</ele>
        <time>2013-04-18T19:43:35Z</time>
      </trkpt>
      <trkpt lat="59.9785881" lon="17.7400543">
        <ele>0</ele>
        <time>2013-04-18T19:43:36Z</time>
      </trkpt>
      <trkpt lat="59.9785233" lon="17.7400122">
        <ele>0</ele>
        <time>2013-04-18T19:43:37Z</time>
      </trkpt>
      <trkpt lat="59.9784601" lon="17.739966">
        <ele>0</ele>
        <time>2013-04-18T19:43:38Z</time>
      </trkpt>
      <trkpt lat="59.9783959" lon="17.7399182">
        <ele>0</ele>
        <time>2013-04-18T19:43:39Z</time>
      </trkpt>
      <trkpt lat="59.978331" lon="17.7398758">
        <ele>0</ele>
        <time>2013-04-18T19:43:40Z</time>
      </trkpt>
      <trkpt lat="59.9782699" lon="17.739837">
        <ele>0</ele>
        <time>2013-04-18T19:43:41Z</time>
      </trkpt>
      <trkpt lat="59.9782047" lon="17.7397894">
        <ele>0</ele>
        <time>2013-04-18T19:43:42Z</time>
      </trkpt>
      <trkpt lat="59.9781416" lon="17.7397468">
        <ele>0</ele>
        <time>2013-04-18T19:43:43Z</time>
      </trkpt>
      <trkpt lat="59.9780804" lon="17.7397097">
        <ele>0</ele>
        <time>2013-04-18T19:43:44Z</time>
      </trkpt>
      <trkpt lat="59.9780247" lon="17.7396749">
        <ele>0</ele>
        <time>2013-04-18T19:43:45Z</time>
      </trkpt>
      <trkpt lat="59.9779668" lon="17.7396385">
        <ele>0</ele>
        <time>2013-04-18T19:43:46Z</time>
      </trkpt>
      <trkpt lat="59.9779061" lon="17.7396045">
        <ele>0</ele>
        <time>2013-04-18T19:43:47Z</time>
      </trkpt>
      <trkpt lat="59.9778493" lon="17.7395755">
        <ele>0</ele>
        <time>2013-04-18T19:43:48Z</time>
      </trkpt>
      <trkpt lat="59.977784" lon="17.7395351">
        <ele>0</ele>
        <time>2013-04-18T19:43:49Z</time>
      </trkpt>
      <trkpt lat="59.9777548" lon="17.739537">
        <ele>0</ele>
        <time>2013-04-18T19:43:50Z</time>
      </trkpt>
      <trkpt lat="59.977717" lon="17.7395318">
        <ele>0</ele>
        <time>2013-04-18T19:43:51Z</time>
      </trkpt>
      <trkpt lat="59.9776717" lon="17.739518">
        <ele>0</ele>
        <time>2013-04-18T19:43:52Z</time>
      </trkpt>
      <trkpt lat="59.9776342" lon="17.7395242">
        <ele>0</ele>
        <time>2013-04-18T19:43:53Z</time>
      </trkpt>
      <trkpt lat="59.9776001" lon="17.7395378">
        <ele>0</ele>
        <time>2013-04-18T19:43:54Z</time>
      </trkpt>
      <trkpt lat="59.9775608" lon="17.7395367">
        <ele>0</ele>
        <time>2013-04-18T19:43:55Z</time>
      </trkpt>
      <trkpt lat="59.9775183" lon="17.7395458">
        <ele>0</ele>
        <time>2013-04-18T19:43:56Z</time>
      </trkpt>
      <trkpt lat="59.9774738" lon="17.7395473">
        <ele>0</ele>
        <time>2013-04-18T19:43:57Z</time>
      </trkpt>
      <trkpt lat="59.9774327" lon="17.7395506">
        <ele>0</ele>
        <time>2013-04-18T19:43:58Z</time>
      </trkpt>
      <trkpt lat="59.977387" lon="17.7395475">
        <ele>2.06006</ele>
        <time>2013-04-18T19:43:59Z</time>
      </trkpt>
      <trkpt lat="59.977352" lon="17.7395393">
        <ele>3.02124</ele>
        <time>2013-04-18T19:44:00Z</time>
      </trkpt>
      <trkpt lat="59.9773076" lon="17.7395284">
        <ele>5.90527</ele>
        <time>2013-04-18T19:44:01Z</time>
      </trkpt>
      <trkpt lat="59.9772721" lon="17.7395337">
        <ele>7.34717</ele>
        <time>2013-04-18T19:44:02Z</time>
      </trkpt>
      <trkpt lat="59.9772101" lon="17.7395082">
        <ele>12.6344</ele>
        <time>2013-04-18T19:44:03Z</time>
      </trkpt>
      <trkpt lat="59.9771599" lon="17.7394906">
        <ele>15.999</ele>
        <time>2013-04-18T19:44:04Z</time>
      </trkpt>
      <trkpt lat="59.9771132" lon="17.7394709">
        <ele>19.3638</ele>
        <time>2013-04-18T19:44:05Z</time>
      </trkpt>
      <trkpt lat="59.9770712" lon="17.7394574">
        <ele>22.2476</ele>
        <time>2013-04-18T19:44:06Z</time>
      </trkpt>
      <trkpt lat="59.9770297" lon="17.7394439">
        <ele>25.6123</ele>
        <time>2013-04-18T19:44:07Z</time>
      </trkpt>
      <trkpt lat="59.9769941" lon="17.7394465">
        <ele>28.4962</ele>
        <time>2013-04-18T19:44:08Z</time>
      </trkpt>
      <trkpt lat="59.9769573" lon="17.7394387">
        <ele>29.9381</ele>
        <time>2013-04-18T19:44:09Z</time>
      </trkpt>
      <trkpt lat="59.9769227" lon="17.7394358">
        <ele>31.3801</ele>
        <time>2013-04-18T19:44:10Z</time>
      </trkpt>
      <trkpt lat="59.9768908" lon="17.7394396">
        <ele>32.3416</ele>
        <time>2013-04-18T19:44:11Z</time>
      </trkpt>
      <trkpt lat="59.9768588" lon="17.7394325">
        <ele>32.3416</ele>
        <time>2013-04-18T19:44:12Z</time>
      </trkpt>
      <trkpt lat="59.976833" lon="17.7394316">
        <ele>33.3029</ele>
        <time>2013-04-18T19:44:13Z</time>
      </trkpt>
      <trkpt lat="59.9768064" lon="17.7394305">
        <ele>33.3029</ele>
        <time>2013-04-18T19:44:14Z</time>
      </trkpt>
      <trkpt lat="59.9767773" lon="17.7394339">
        <ele>33.7834</ele>
        <time>2013-04-18T19:44:15Z</time>
      </trkpt>
      <trkpt lat="59.9767561" lon="17.7394433">
        <ele>33.7834</ele>
        <time>2013-04-18T19:44:16Z</time>
      </trkpt>
      <trkpt lat="59.9767321" lon="17.7394574">
        <ele>33.7834</ele>
        <time>2013-04-18T19:44:17Z</time>
      </trkpt>
      <trkpt lat="59.9767058" lon="17.7394678">
        <ele>33.7834</ele>
        <time>2013-04-18T19:44:18Z</time>
      </trkpt>
      <trkpt lat="59.9766776" lon="17.7394748">
        <ele>33.7834</ele>
        <time>2013-04-18T19:44:19Z</time>
      </trkpt>
      <trkpt lat="59.9766486" lon="17.7394822">
        <ele>33.7834</ele>
        <time>2013-04-18T19:44:20Z</time>
      </trkpt>
      <trkpt lat="59.9766195" lon="17.7394844">
        <ele>33.3029</ele>
        <time>2013-04-18T19:44:21Z</time>
      </trkpt>
      <trkpt lat="59.9765967" lon="17.7394964">
        <ele>33.3029</ele>
        <time>2013-04-18T19:44:22Z</time>
      </trkpt>
      <trkpt lat="59.9765769" lon="17.739509">
        <ele>33.3029</ele>
        <time>2013-04-18T19:44:23Z</time>
      </trkpt>
      <trkpt lat="59.9765527" lon="17.7395223">
        <ele>33.3029</ele>
        <time>2013-04-18T19:44:24Z</time>
      </trkpt>
      <trkpt lat="59.9765274" lon="17.7395398">
        <ele>33.3029</ele>
        <time>2013-04-18T19:44:25Z</time>
      </trkpt>
      <trkpt lat="59.9765061" lon="17.7395693">
        <ele>33.7834</ele>
        <time>2013-04-18T19:44:26Z</time>
      </trkpt>
      <trkpt lat="59.9764823" lon="17.7395974">
        <ele>33.7834</ele>
        <time>2013-04-18T19:44:27Z</time>
      </trkpt>
      <trkpt lat="59.9764548" lon="17.7396126">
        <ele>33.7834</ele>
        <time>2013-04-18T19:44:28Z</time>
      </trkpt>
      <trkpt lat="59.9764332" lon="17.7396336">
        <ele>34.2642</ele>
        <time>2013-04-18T19:44:29Z</time>
      </trkpt>
      <trkpt lat="59.976415" lon="17.7396682">
        <ele>33.7834</ele>
        <time>2013-04-18T19:44:30Z</time>
      </trkpt>
      <trkpt lat="59.9763926" lon="17.7396989">
        <ele>33.7834</ele>
        <time>2013-04-18T19:44:31Z</time>
      </trkpt>
      <trkpt lat="59.97637" lon="17.7397149">
        <ele>33.7834</ele>
        <time>2013-04-18T19:44:32Z</time>
      </trkpt>
      <trkpt lat="59.9763445" lon="17.7397299">
        <ele>34.2642</ele>
        <time>2013-04-18T19:44:33Z</time>
      </trkpt>
      <trkpt lat="59.9763138" lon="17.7397355">
        <ele>34.2642</ele>
        <time>2013-04-18T19:44:34Z</time>
      </trkpt>
      <trkpt lat="59.9762869" lon="17.7397328">
        <ele>34.2642</ele>
        <time>2013-04-18T19:44:35Z</time>
      </trkpt>
      <trkpt lat="59.9762632" lon="17.7397312">
        <ele>34.7449</ele>
        <time>2013-04-18T19:44:36Z</time>
      </trkpt>
      <trkpt lat="59.9762396" lon="17.7397273">
        <ele>35.2255</ele>
        <time>2013-04-18T19:44:37Z</time>
      </trkpt>
      <trkpt lat="59.9762191" lon="17.7397242">
        <ele>35.7061</ele>
        <time>2013-04-18T19:44:38Z</time>
      </trkpt>
      <trkpt lat="59.9761971" lon="17.739712">
        <ele>35.7061</ele>
        <time>2013-04-18T19:44:39Z</time>
      </trkpt>
      <trkpt lat="59.976172" lon="17.7396951">
        <ele>35.7061</ele>
        <time>2013-04-18T19:44:40Z</time>
      </trkpt>
      <trkpt lat="59.9761486" lon="17.7396815">
        <ele>35.7061</ele>
        <time>2013-04-18T19:44:41Z</time>
      </trkpt>
      <trkpt lat="59.9761264" lon="17.739662">
        <ele>35.7061</ele>
        <time>2013-04-18T19:44:42Z</time>
      </trkpt>
      <trkpt lat="59.9761036" lon="17.7396409">
        <ele>35.7061</ele>
        <time>2013-04-18T19:44:43Z</time>
      </trkpt>
      <trkpt lat="59.9760827" lon="17.7396175">
        <ele>35.7061</ele>
        <time>2013-04-18T19:44:44Z</time>
      </trkpt>
      <trkpt lat="59.976062" lon="17.739591">
        <ele>35.7061</ele>
        <time>2013-04-18T19:44:45Z</time>
      </trkpt>
      <trkpt lat="59.9760419" lon="17.7395589">
        <ele>35.7061</ele>
        <time>2013-04-18T19:44:46Z</time>
      </trkpt>
      <trkpt lat="59.9760228" lon="17.7395212">
        <ele>35.7061</ele>
        <time>2013-04-18T19:44:47Z</time>
      </trkpt>
      <trkpt lat="59.9760016" lon="17.7394849">
        <ele>36.1868</ele>
        <time>2013-04-18T19:44:48Z</time>
      </trkpt>
      <trkpt lat="59.9759793" lon="17.7394476">
        <ele>36.1868</ele>
        <time>2013-04-18T19:44:49Z</time>
      </trkpt>
      <trkpt lat="59.9759612" lon="17.7394083">
        <ele>35.7061</ele>
        <time>2013-04-18T19:44:50Z</time>
      </trkpt>
      <trkpt lat="59.9759433" lon="17.739376">
        <ele>36.1868</ele>
        <time>2013-04-18T19:44:51Z</time>
      </trkpt>
      <trkpt lat="59.9759279" lon="17.7393524">
        <ele>36.1868</ele>
        <time>2013-04-18T19:44:52Z</time>
      </trkpt>
      <trkpt lat="59.9759115" lon="17.7393211">
        <ele>36.1868</ele>
        <time>2013-04-18T19:44:53Z</time>
      </trkpt>
      <trkpt lat="59.9758952" lon="17.739284">
        <ele>36.6675</ele>
        <time>2013-04-18T19:44:54Z</time>
      </trkpt>
      <trkpt lat="59.9758784" lon="17.7392497">
        <ele>36.6675</ele>
        <time>2013-04-18T19:44:55Z</time>
      </trkpt>
      <trkpt lat="59.9758648" lon="17.7392221">
        <ele>37.1481</ele>
        <time>2013-04-18T19:44:56Z</time>
      </trkpt>
      <trkpt lat="59.9758534" lon="17.7391896">
        <ele>37.1481</ele>
        <time>2013-04-18T19:44:57Z</time>
      </trkpt>
      <trkpt lat="59.9758404" lon="17.739156">
        <ele>37.1481</ele>
        <time>2013-04-18T19:44:58Z</time>
      </trkpt>
      <trkpt lat="59.9758228" lon="17.7391238">
        <ele>36.6675</ele>
        <time>2013-04-18T19:44:59Z</time>
      </trkpt>
      <trkpt lat="59.9758031" lon="17.7390849">
        <ele>36.6675</ele>
        <time>2013-04-18T19:45:00Z</time>
      </trkpt>
      <trkpt lat="59.975785" lon="17.7390461">
        <ele>36.6675</ele>
        <time>2013-04-18T19:45:01Z</time>
      </trkpt>
      <trkpt lat="59.9757657" lon="17.7390099">
        <ele>36.6675</ele>
        <time>2013-04-18T19:45:02Z</time>
      </trkpt>
      <trkpt lat="59.9757423" lon="17.7389782">
        <ele>36.6675</ele>
        <time>2013-04-18T19:45:03Z</time>
      </trkpt>
      <trkpt lat="59.9757192" lon="17.7389469">
        <ele>37.1481</ele>
        <time>2013-04-18T19:45:04Z</time>
      </trkpt>
      <trkpt lat="59.9756995" lon="17.7389145">
        <ele>37.1481</ele>
        <time>2013-04-18T19:45:05Z</time>
      </trkpt>
      <trkpt lat="59.9756787" lon="17.7388813">
        <ele>37.1481</ele>
        <time>2013-04-18T19:45:06Z</time>
      </trkpt>
      <trkpt lat="59.9756572" lon="17.7388509">
        <ele>37.1481</ele>
        <time>2013-04-18T19:45:07Z</time>
      </trkpt>
      <trkpt lat="59.9756348" lon="17.7388147">
        <ele>37.1481</ele>
        <time>2013-04-18T19:45:08Z</time>
      </trkpt>
      <trkpt lat="59.9756119" lon="17.7387758">
        <ele>37.1481</ele>
        <time>2013-04-18T19:45:09Z</time>
      </trkpt>
      <trkpt lat="59.9755917" lon="17.7387457">
        <ele>37.1481</ele>
        <time>2013-04-18T19:45:10Z</time>
      </trkpt>
      <trkpt lat="59.9755729" lon="17.7387109">
        <ele>37.1481</ele>
        <time>2013-04-18T19:45:11Z</time>
      </trkpt>
      <trkpt lat="59.9755555" lon="17.738674">
        <ele>37.1481</ele>
        <time>2013-04-18T19:45:12Z</time>
      </trkpt>
      <trkpt lat="59.9755384" lon="17.7386413">
        <ele>36.6675</ele>
        <time>2013-04-18T19:45:13Z</time>
      </trkpt>
      <trkpt lat="59.9755219" lon="17.7386036">
        <ele>36.1868</ele>
        <time>2013-04-18T19:45:14Z</time>
      </trkpt>
      <trkpt lat="59.975502" lon="17.7385706">
        <ele>35.7061</ele>
        <time>2013-04-18T19:45:15Z</time>
      </trkpt>
      <trkpt lat="59.9754802" lon="17.7385443">
        <ele>35.7061</ele>
        <time>2013-04-18T19:45:16Z</time>
      </trkpt>
      <trkpt lat="59.9754624" lon="17.7385131">
        <ele>35.7061</ele>
        <time>2013-04-18T19:45:17Z</time>
      </trkpt>
      <trkpt lat="59.9754468" lon="17.7384793">
        <ele>35.2255</ele>
        <time>2013-04-18T19:45:18Z</time>
      </trkpt>
      <trkpt lat="59.9754298" lon="17.7384486">
        <ele>35.2255</ele>
        <time>2013-04-18T19:45:19Z</time>
      </trkpt>
      <trkpt lat="59.9754115" lon="17.7384115">
        <ele>34.7449</ele>
        <time>2013-04-18T19:45:20Z</time>
      </trkpt>
      <trkpt lat="59.9753938" lon="17.7383771">
        <ele>34.7449</ele>
        <time>2013-04-18T19:45:21Z</time>
      </trkpt>
      <trkpt lat="59.9753742" lon="17.7383407">
        <ele>34.2642</ele>
        <time>2013-04-18T19:45:22Z</time>
      </trkpt>
      <trkpt lat="59.9753545" lon="17.7383059">
        <ele>34.2642</ele>
        <time>2013-04-18T19:45:23Z</time>
      </trkpt>
      <trkpt lat="59.9753353" lon="17.738281">
        <ele>33.7834</ele>
        <time>2013-04-18T19:45:24Z</time>
      </trkpt>
      <trkpt lat="59.9753162" lon="17.7382516">
        <ele>33.7834</ele>
        <time>2013-04-18T19:45:25Z</time>
      </trkpt>
      <trkpt lat="59.9752966" lon="17.738222">
        <ele>33.3029</ele>
        <time>2013-04-18T19:45:26Z</time>
      </trkpt>
      <trkpt lat="59.9752758" lon="17.7381935">
        <ele>33.7834</ele>
        <time>2013-04-18T19:45:27Z</time>
      </trkpt>
      <trkpt lat="59.9752545" lon="17.738165">
        <ele>33.7834</ele>
        <time>2013-04-18T19:45:28Z</time>
      </trkpt>
      <trkpt lat="59.9752323" lon="17.7381371">
        <ele>33.7834</ele>
        <time>2013-04-18T19:45:29Z</time>
      </trkpt>
      <trkpt lat="59.9752121" lon="17.7381078">
        <ele>33.7834</ele>
        <time>2013-04-18T19:45:30Z</time>
      </trkpt>
      <trkpt lat="59.975195" lon="17.7380721">
        <ele>33.7834</ele>
        <time>2013-04-18T19:45:31Z</time>
      </trkpt>
      <trkpt lat="59.9751809" lon="17.7380356">
        <ele>33.7834</ele>
        <time>2013-04-18T19:45:32Z</time>
      </trkpt>
      <trkpt lat="59.9751642" lon="17.7380003">
        <ele>33.3029</ele>
        <time>2013-04-18T19:45:33Z</time>
      </trkpt>
      <trkpt lat="59.9751456" lon="17.737964">
        <ele>33.3029</ele>
        <time>2013-04-18T19:45:34Z</time>
      </trkpt>
      <trkpt lat="59.9751292" lon="17.7379294">
        <ele>33.3029</ele>
        <time>2013-04-18T19:45:35Z</time>
      </trkpt>
      <trkpt lat="59.9751115" lon="17.7378956">
        <ele>33.3029</ele>
        <time>2013-04-18T19:45:36Z</time>
      </trkpt>
      <trkpt lat="59.9750903" lon="17.7378646">
        <ele>32.8223</ele>
        <time>2013-04-18T19:45:37Z</time>
      </trkpt>
      <trkpt lat="59.9750705" lon="17.7378366">
        <ele>33.3029</ele>
        <time>2013-04-18T19:45:38Z</time>
      </trkpt>
      <trkpt lat="59.975051" lon="17.7378143">
        <ele>32.8223</ele>
        <time>2013-04-18T19:45:39Z</time>
      </trkpt>
      <trkpt lat="59.9750311" lon="17.7377895">
        <ele>32.8223</ele>
        <time>2013-04-18T19:45:40Z</time>
      </trkpt>
      <trkpt lat="59.9750126" lon="17.7377629">
        <ele>32.3416</ele>
        <time>2013-04-18T19:45:41Z</time>
      </trkpt>
      <trkpt lat="59.974993" lon="17.7377261">
        <ele>31.8607</ele>
        <time>2013-04-18T19:45:42Z</time>
      </trkpt>
      <trkpt lat="59.9749785" lon="17.7376867">
        <ele>31.3801</ele>
        <time>2013-04-18T19:45:43Z</time>
      </trkpt>
      <trkpt lat="59.974961" lon="17.7376495">
        <ele>30.8995</ele>
        <time>2013-04-18T19:45:44Z</time>
      </trkpt>
      <trkpt lat="59.9749441" lon="17.7376148">
        <ele>30.4188</ele>
        <time>2013-04-18T19:45:45Z</time>
      </trkpt>
      <trkpt lat="59.9749272" lon="17.7375813">
        <ele>29.9381</ele>
        <time>2013-04-18T19:45:46Z</time>
      </trkpt>
      <trkpt lat="59.9749106" lon="17.7375449">
        <ele>29.9381</ele>
        <time>2013-04-18T19:45:47Z</time>
      </trkpt>
      <trkpt lat="59.9748947" lon="17.7375081">
        <ele>29.9381</ele>
        <time>2013-04-18T19:45:48Z</time>
      </trkpt>
      <trkpt lat="59.9748785" lon="17.7374759">
        <ele>29.9381</ele>
        <time>2013-04-18T19:45:49Z</time>
      </trkpt>
      <trkpt lat="59.97486" lon="17.7374434">
        <ele>29.9381</ele>
        <time>2013-04-18T19:45:50Z</time>
      </trkpt>
      <trkpt lat="59.9748439" lon="17.737405">
        <ele>29.4575</ele>
        <time>2013-04-18T19:45:51Z</time>
      </trkpt>
      <trkpt lat="59.9748251" lon="17.7373684">
        <ele>29.4575</ele>
        <time>2013-04-18T19:45:52Z</time>
      </trkpt>
      <trkpt lat="59.9748071" lon="17.7373355">
        <ele>29.9381</ele>
        <time>2013-04-18T19:45:53Z</time>
      </trkpt>
      <trkpt lat="59.9747934" lon="17.7372994">
        <ele>29.4575</ele>
        <time>2013-04-18T19:45:54Z</time>
      </trkpt>
      <trkpt lat="59.9747758" lon="17.737261">
        <ele>29.4575</ele>
        <time>2013-04-18T19:45:55Z</time>
      </trkpt>
      <trkpt lat="59.9747633" lon="17.7372294">
        <ele>29.4575</ele>
        <time>2013-04-18T19:45:56Z</time>
      </trkpt>
      <trkpt lat="59.9747557" lon="17.7371979">
        <ele>28.9769</ele>
        <time>2013-04-18T19:45:57Z</time>
      </trkpt>
      <trkpt lat="59.9747442" lon="17.7371586">
        <ele>28.4962</ele>
        <time>2013-04-18T19:45:58Z</time>
      </trkpt>
      <trkpt lat="59.9747318" lon="17.7371177">
        <ele>28.4962</ele>
        <time>2013-04-18T19:45:59Z</time>
      </trkpt>
      <trkpt lat="59.9747217" lon="17.7370724">
        <ele>28.0155</ele>
        <time>2013-04-18T19:46:00Z</time>
      </trkpt>
      <trkpt lat="59.9747139" lon="17.7370296">
        <ele>27.5349</ele>
        <time>2013-04-18T19:46:01Z</time>
      </trkpt>
      <trkpt lat="59.9747011" lon="17.7369906">
        <ele>27.5349</ele>
        <time>2013-04-18T19:46:02Z</time>
      </trkpt>
      <trkpt lat="59.9746903" lon="17.7369524">
        <ele>27.5349</ele>
        <time>2013-04-18T19:46:03Z</time>
      </trkpt>
      <trkpt lat="59.9746822" lon="17.7369067">
        <ele>27.0543</ele>
        <time>2013-04-18T19:46:04Z</time>
      </trkpt>
      <trkpt lat="59.9746696" lon="17.7368611">
        <ele>27.0543</ele>
        <time>2013-04-18T19:46:05Z</time>
      </trkpt>
      <trkpt lat="59.9746572" lon="17.7368268">
        <ele>27.0543</ele>
        <time>2013-04-18T19:46:06Z</time>
      </trkpt>
      <trkpt lat="59.9746453" lon="17.7367955">
        <ele>27.0543</ele>
        <time>2013-04-18T19:46:07Z</time>
      </trkpt>
      <trkpt lat="59.9746331" lon="17.7367565">
        <ele>27.0543</ele>
        <time>2013-04-18T19:46:08Z</time>
      </trkpt>
      <trkpt lat="59.97462" lon="17.7367133">
        <ele>27.0543</ele>
        <time>2013-04-18T19:46:09Z</time>
      </trkpt>
      <trkpt lat="59.9746092" lon="17.7366725">
        <ele>27.0543</ele>
        <time>2013-04-18T19:46:10Z</time>
      </trkpt>
      <trkpt lat="59.9745976" lon="17.7366295">
        <ele>27.0543</ele>
        <time>2013-04-18T19:46:11Z</time>
      </trkpt>
      <trkpt lat="59.9745863" lon="17.736589">
        <ele>27.5349</ele>
        <time>2013-04-18T19:46:12Z</time>
      </trkpt>
      <trkpt lat="59.9745768" lon="17.7365518">
        <ele>27.5349</ele>
        <time>2013-04-18T19:46:13Z</time>
      </trkpt>
      <trkpt lat="59.9745682" lon="17.7365095">
        <ele>27.5349</ele>
        <time>2013-04-18T19:46:14Z</time>
      </trkpt>
      <trkpt lat="59.9745594" lon="17.7364628">
        <ele>27.5349</ele>
        <time>2013-04-18T19:46:15Z</time>
      </trkpt>
      <trkpt lat="59.9745475" lon="17.7364182">
        <ele>27.5349</ele>
        <time>2013-04-18T19:46:16Z</time>
      </trkpt>
      <trkpt lat="59.974537" lon="17.7363778">
        <ele>27.5349</ele>
        <time>2013-04-18T19:46:17Z</time>
      </trkpt>
      <trkpt lat="59.9745286" lon="17.7363414">
        <ele>27.5349</ele>
        <time>2013-04-18T19:46:18Z</time>
      </trkpt>
      <trkpt lat="59.9745204" lon="17.736297">
        <ele>27.5349</ele>
        <time>2013-04-18T19:46:19Z</time>
      </trkpt>
      <trkpt lat="59.9745127" lon="17.7362533">
        <ele>27.0543</ele>
        <time>2013-04-18T19:46:20Z</time>
      </trkpt>
      <trkpt lat="59.9745024" lon="17.7362115">
        <ele>27.0543</ele>
        <time>2013-04-18T19:46:21Z</time>
      </trkpt>
      <trkpt lat="59.9744927" lon="17.736168">
        <ele>27.5349</ele>
        <time>2013-04-18T19:46:22Z</time>
      </trkpt>
      <trkpt lat="59.9744838" lon="17.7361245">
        <ele>27.5349</ele>
        <time>2013-04-18T19:46:23Z</time>
      </trkpt>
      <trkpt lat="59.9744765" lon="17.7360784">
        <ele>27.5349</ele>
        <time>2013-04-18T19:46:24Z</time>
      </trkpt>
      <trkpt lat="59.9744691" lon="17.7360292">
        <ele>27.5349</ele>
        <time>2013-04-18T19:46:25Z</time>
      </trkpt>
      <trkpt lat="59.9744682" lon="17.7359791">
        <ele>27.0543</ele>
        <time>2013-04-18T19:46:26Z</time>
      </trkpt>
      <trkpt lat="59.9744644" lon="17.7359282">
        <ele>27.0543</ele>
        <time>2013-04-18T19:46:27Z</time>
      </trkpt>
      <trkpt lat="59.9744556" lon="17.7358805">
        <ele>27.0543</ele>
        <time>2013-04-18T19:46:28Z</time>
      </trkpt>
      <trkpt lat="59.9744447" lon="17.7358355">
        <ele>26.5736</ele>
        <time>2013-04-18T19:46:29Z</time>
      </trkpt>
      <trkpt lat="59.9744339" lon="17.735791">
        <ele>26.5736</ele>
        <time>2013-04-18T19:46:30Z</time>
      </trkpt>
      <trkpt lat="59.9744252" lon="17.7357441">
        <ele>26.5736</ele>
        <time>2013-04-18T19:46:31Z</time>
      </trkpt>
      <trkpt lat="59.9744195" lon="17.7357013">
        <ele>26.5736</ele>
        <time>2013-04-18T19:46:32Z</time>
      </trkpt>
      <trkpt lat="59.9744127" lon="17.7356588">
        <ele>26.5736</ele>
        <time>2013-04-18T19:46:33Z</time>
      </trkpt>
      <trkpt lat="59.9744048" lon="17.7356154">
        <ele>26.5736</ele>
        <time>2013-04-18T19:46:34Z</time>
      </trkpt>
      <trkpt lat="59.9743968" lon="17.7355744">
        <ele>26.0929</ele>
        <time>2013-04-18T19:46:35Z</time>
      </trkpt>
      <trkpt lat="59.9743895" lon="17.7355303">
        <ele>26.5736</ele>
        <time>2013-04-18T19:46:36Z</time>
      </trkpt>
      <trkpt lat="59.9743836" lon="17.7354835">
        <ele>26.5736</ele>
        <time>2013-04-18T19:46:37Z</time>
      </trkpt>
      <trkpt lat="59.9743784" lon="17.735445">
        <ele>26.0929</ele>
        <time>2013-04-18T19:46:38Z</time>
      </trkpt>
      <trkpt lat="59.9743709" lon="17.7354023">
        <ele>26.0929</ele>
        <time>2013-04-18T19:46:39Z</time>
      </trkpt>
      <trkpt lat="59.9743647" lon="17.7353518">
        <ele>25.6123</ele>
        <time>2013-04-18T19:46:40Z</time>
      </trkpt>
      <trkpt lat="59.9743588" lon="17.7352948">
        <ele>25.1317</ele>
        <time>2013-04-18T19:46:41Z</time>
      </trkpt>
      <trkpt lat="59.9743528" lon="17.7352424">
        <ele>25.1317</ele>
        <time>2013-04-18T19:46:42Z</time>
      </trkpt>
      <trkpt lat="59.9743473" lon="17.7351986">
        <ele>25.1317</ele>
        <time>2013-04-18T19:46:43Z</time>
      </trkpt>
      <trkpt lat="59.9743423" lon="17.7351593">
        <ele>25.1317</ele>
        <time>2013-04-18T19:46:44Z</time>
      </trkpt>
      <trkpt lat="59.9743387" lon="17.7351055">
        <ele>25.1317</ele>
        <time>2013-04-18T19:46:45Z</time>
      </trkpt>
      <trkpt lat="59.9743368" lon="17.7350523">
        <ele>24.1703</ele>
        <time>2013-04-18T19:46:46Z</time>
      </trkpt>
      <trkpt lat="59.9743319" lon="17.7350073">
        <ele>24.1703</ele>
        <time>2013-04-18T19:46:47Z</time>
      </trkpt>
      <trkpt lat="59.9743295" lon="17.7349519">
        <ele>23.6896</ele>
        <time>2013-04-18T19:46:48Z</time>
      </trkpt>
      <trkpt lat="59.9743267" lon="17.7348959">
        <ele>23.6896</ele>
        <time>2013-04-18T19:46:49Z</time>
      </trkpt>
      <trkpt lat="59.9743242" lon="17.7348533">
        <ele>23.6896</ele>
        <time>2013-04-18T19:46:50Z</time>
      </trkpt>
      <trkpt lat="59.9743216" lon="17.7348104">
        <ele>23.209</ele>
        <time>2013-04-18T19:46:51Z</time>
      </trkpt>
      <trkpt lat="59.9743207" lon="17.7347595">
        <ele>23.209</ele>
        <time>2013-04-18T19:46:52Z</time>
      </trkpt>
      <trkpt lat="59.974323" lon="17.7347098">
        <ele>22.7283</ele>
        <time>2013-04-18T19:46:53Z</time>
      </trkpt>
      <trkpt lat="59.9743232" lon="17.7346663">
        <ele>22.7283</ele>
        <time>2013-04-18T19:46:54Z</time>
      </trkpt>
      <trkpt lat="59.9743247" lon="17.7346192">
        <ele>22.7283</ele>
        <time>2013-04-18T19:46:55Z</time>
      </trkpt>
      <trkpt lat="59.9743241" lon="17.7345739">
        <ele>23.209</ele>
        <time>2013-04-18T19:46:56Z</time>
      </trkpt>
      <trkpt lat="59.9743225" lon="17.7345305">
        <ele>23.6896</ele>
        <time>2013-04-18T19:46:57Z</time>
      </trkpt>
      <trkpt lat="59.9743247" lon="17.7344724">
        <ele>23.6896</ele>
        <time>2013-04-18T19:46:58Z</time>
      </trkpt>
      <trkpt lat="59.9743222" lon="17.7344223">
        <ele>24.1703</ele>
        <time>2013-04-18T19:46:59Z</time>
      </trkpt>
      <trkpt lat="59.9743202" lon="17.7343714">
        <ele>24.1703</ele>
        <time>2013-04-18T19:47:00Z</time>
      </trkpt>
      <trkpt lat="59.9743199" lon="17.7343141">
        <ele>23.6896</ele>
        <time>2013-04-18T19:47:01Z</time>
      </trkpt>
      <trkpt lat="59.9743173" lon="17.7342662">
        <ele>23.6896</ele>
        <time>2013-04-18T19:47:02Z</time>
      </trkpt>
      <trkpt lat="59.974318" lon="17.7342239">
        <ele>24.1703</ele>
        <time>2013-04-18T19:47:03Z</time>
      </trkpt>
      <trkpt lat="59.9743192" lon="17.7341752">
        <ele>24.1703</ele>
        <time>2013-04-18T19:47:04Z</time>
      </trkpt>
      <trkpt lat="59.9743194" lon="17.7341286">
        <ele>24.651</ele>
        <time>2013-04-18T19:47:05Z</time>
      </trkpt>
      <trkpt lat="59.9743232" lon="17.7340759">
        <ele>24.1703</ele>
        <time>2013-04-18T19:47:06Z</time>
      </trkpt>
      <trkpt lat="59.9743243" lon="17.7340267">
        <ele>24.651</ele>
        <time>2013-04-18T19:47:07Z</time>
      </trkpt>
      <trkpt lat="59.9743263" lon="17.7339766">
        <ele>24.1703</ele>
        <time>2013-04-18T19:47:08Z</time>
      </trkpt>
      <trkpt lat="59.9743294" lon="17.7339291">
        <ele>24.651</ele>
        <time>2013-04-18T19:47:09Z</time>
      </trkpt>
      <trkpt lat="59.9743325" lon="17.7338878">
        <ele>24.651</ele>
        <time>2013-04-18T19:47:10Z</time>
      </trkpt>
      <trkpt lat="59.9743346" lon="17.733839">
        <ele>24.651</ele>
        <time>2013-04-18T19:47:11Z</time>
      </trkpt>
      <trkpt lat="59.9743367" lon="17.7337852">
        <ele>24.651</ele>
        <time>2013-04-18T19:47:12Z</time>
      </trkpt>
      <trkpt lat="59.9743391" lon="17.7337395">
        <ele>24.1703</ele>
        <time>2013-04-18T19:47:13Z</time>
      </trkpt>
      <trkpt lat="59.9743414" lon="17.7336951">
        <ele>24.651</ele>
        <time>2013-04-18T19:47:14Z</time>
      </trkpt>
      <trkpt lat="59.9743432" lon="17.7336442">
        <ele>24.651</ele>
        <time>2013-04-18T19:47:15Z</time>
      </trkpt>
      <trkpt lat="59.9743416" lon="17.7336022">
        <ele>25.1317</ele>
        <time>2013-04-18T19:47:16Z</time>
      </trkpt>
      <trkpt lat="59.9743429" lon="17.7335574">
        <ele>25.1317</ele>
        <time>2013-04-18T19:47:17Z</time>
      </trkpt>
      <trkpt lat="59.9743428" lon="17.7335066">
        <ele>25.6123</ele>
        <time>2013-04-18T19:47:18Z</time>
      </trkpt>
      <trkpt lat="59.9743409" lon="17.7334533">
        <ele>25.1317</ele>
        <time>2013-04-18T19:47:19Z</time>
      </trkpt>
      <trkpt lat="59.9743398" lon="17.7333941">
        <ele>25.1317</ele>
        <time>2013-04-18T19:47:20Z</time>
      </trkpt>
      <trkpt lat="59.974342" lon="17.7333442">
        <ele>25.1317</ele>
        <time>2013-04-18T19:47:21Z</time>
      </trkpt>
      <trkpt lat="59.9743451" lon="17.7333014">
        <ele>25.1317</ele>
        <time>2013-04-18T19:47:22Z</time>
      </trkpt>
      <trkpt lat="59.9743455" lon="17.7332618">
        <ele>25.6123</ele>
        <time>2013-04-18T19:47:23Z</time>
      </trkpt>
      <trkpt lat="59.974343" lon="17.7332221">
        <ele>26.0929</ele>
        <time>2013-04-18T19:47:24Z</time>
      </trkpt>
      <trkpt lat="59.9743424" lon="17.7331739">
        <ele>26.0929</ele>
        <time>2013-04-18T19:47:25Z</time>
      </trkpt>
      <trkpt lat="59.9743447" lon="17.7331237">
        <ele>26.0929</ele>
        <time>2013-04-18T19:47:26Z</time>
      </trkpt>
      <trkpt lat="59.9743476" lon="17.7330789">
        <ele>25.6123</ele>
        <time>2013-04-18T19:47:27Z</time>
      </trkpt>
      <trkpt lat="59.9743479" lon="17.7330361">
        <ele>25.6123</ele>
        <time>2013-04-18T19:47:28Z</time>
      </trkpt>
      <trkpt lat="59.9743477" lon="17.7329864">
        <ele>26.0929</ele>
        <time>2013-04-18T19:47:29Z</time>
      </trkpt>
      <trkpt lat="59.9743486" lon="17.7329258">
        <ele>26.0929</ele>
        <time>2013-04-18T19:47:30Z</time>
      </trkpt>
      <trkpt lat="59.9743474" lon="17.7328728">
        <ele>26.0929</ele>
        <time>2013-04-18T19:47:31Z</time>
      </trkpt>
      <trkpt lat="59.9743455" lon="17.7328277">
        <ele>26.5736</ele>
        <time>2013-04-18T19:47:32Z</time>
      </trkpt>
      <trkpt lat="59.9743456" lon="17.7327761">
        <ele>26.5736</ele>
        <time>2013-04-18T19:47:33Z</time>
      </trkpt>
      <trkpt lat="59.974346" lon="17.7327331">
        <ele>27.0543</ele>
        <time>2013-04-18T19:47:34Z</time>
      </trkpt>
      <trkpt lat="59.9743438" lon="17.7326876">
        <ele>27.5349</ele>
        <time>2013-04-18T19:47:35Z</time>
      </trkpt>
      <trkpt lat="59.9743435" lon="17.7326257">
        <ele>27.5349</ele>
        <time>2013-04-18T19:47:36Z</time>
      </trkpt>
      <trkpt lat="59.974343" lon="17.7325583">
        <ele>27.5349</ele>
        <time>2013-04-18T19:47:37Z</time>
      </trkpt>
      <trkpt lat="59.9743432" lon="17.7324975">
        <ele>27.5349</ele>
        <time>2013-04-18T19:47:38Z</time>
      </trkpt>
      <trkpt lat="59.9743423" lon="17.7324455">
        <ele>27.5349</ele>
        <time>2013-04-18T19:47:39Z</time>
      </trkpt>
      <trkpt lat="59.9743393" lon="17.7323948">
        <ele>27.5349</ele>
        <time>2013-04-18T19:47:40Z</time>
      </trkpt>
      <trkpt lat="59.9743371" lon="17.7323543">
        <ele>28.0155</ele>
        <time>2013-04-18T19:47:41Z</time>
      </trkpt>
      <trkpt lat="59.9743373" lon="17.7323123">
        <ele>28.0155</ele>
        <time>2013-04-18T19:47:42Z</time>
      </trkpt>
      <trkpt lat="59.9743361" lon="17.7322629">
        <ele>28.0155</ele>
        <time>2013-04-18T19:47:43Z</time>
      </trkpt>
      <trkpt lat="59.9743328" lon="17.7322114">
        <ele>28.0155</ele>
        <time>2013-04-18T19:47:44Z</time>
      </trkpt>
      <trkpt lat="59.9743318" lon="17.7321581">
        <ele>28.0155</ele>
        <time>2013-04-18T19:47:45Z</time>
      </trkpt>
      <trkpt lat="59.974335" lon="17.732099">
        <ele>28.0155</ele>
        <time>2013-04-18T19:47:46Z</time>
      </trkpt>
      <trkpt lat="59.9743351" lon="17.7320434">
        <ele>27.5349</ele>
        <time>2013-04-18T19:47:47Z</time>
      </trkpt>
      <trkpt lat="59.9743346" lon="17.7319975">
        <ele>27.5349</ele>
        <time>2013-04-18T19:47:48Z</time>
      </trkpt>
      <trkpt lat="59.9743382" lon="17.731953">
        <ele>27.0543</ele>
        <time>2013-04-18T19:47:49Z</time>
      </trkpt>
      <trkpt lat="59.9743377" lon="17.7319126">
        <ele>27.0543</ele>
        <time>2013-04-18T19:47:50Z</time>
      </trkpt>
      <trkpt lat="59.9743382" lon="17.731867">
        <ele>26.5736</ele>
        <time>2013-04-18T19:47:51Z</time>
      </trkpt>
      <trkpt lat="59.9743382" lon="17.7318119">
        <ele>26.0929</ele>
        <time>2013-04-18T19:47:52Z</time>
      </trkpt>
      <trkpt lat="59.9743347" lon="17.7317726">
        <ele>25.6123</ele>
        <time>2013-04-18T19:47:53Z</time>
      </trkpt>
      <trkpt lat="59.9743351" lon="17.731735">
        <ele>25.1317</ele>
        <time>2013-04-18T19:47:54Z</time>
      </trkpt>
      <trkpt lat="59.9743354" lon="17.7316977">
        <ele>25.1317</ele>
        <time>2013-04-18T19:47:55Z</time>
      </trkpt>
      <trkpt lat="59.9743372" lon="17.7316562">
        <ele>25.1317</ele>
        <time>2013-04-18T19:47:56Z</time>
      </trkpt>
      <trkpt lat="59.9743424" lon="17.7316014">
        <ele>24.1703</ele>
        <time>2013-04-18T19:47:57Z</time>
      </trkpt>
      <trkpt lat="59.9743439" lon="17.7315501">
        <ele>24.1703</ele>
        <time>2013-04-18T19:47:58Z</time>
      </trkpt>
      <trkpt lat="59.974346" lon="17.7315049">
        <ele>24.1703</ele>
        <time>2013-04-18T19:47:59Z</time>
      </trkpt>
      <trkpt lat="59.9743515" lon="17.7314452">
        <ele>23.209</ele>
        <time>2013-04-18T19:48:00Z</time>
      </trkpt>
      <trkpt lat="59.9743532" lon="17.7313907">
        <ele>23.209</ele>
        <time>2013-04-18T19:48:01Z</time>
      </trkpt>
      <trkpt lat="59.9743541" lon="17.7313458">
        <ele>23.209</ele>
        <time>2013-04-18T19:48:02Z</time>
      </trkpt>
      <trkpt lat="59.9743558" lon="17.7313011">
        <ele>22.7283</ele>
        <time>2013-04-18T19:48:03Z</time>
      </trkpt>
      <trkpt lat="59.9743552" lon="17.7312592">
        <ele>23.209</ele>
        <time>2013-04-18T19:48:04Z</time>
      </trkpt>
      <trkpt lat="59.9743561" lon="17.7312125">
        <ele>22.7283</ele>
        <time>2013-04-18T19:48:05Z</time>
      </trkpt>
      <trkpt lat="59.9743569" lon="17.7311543">
        <ele>22.2476</ele>
        <time>2013-04-18T19:48:06Z</time>
      </trkpt>
      <trkpt lat="59.9743548" lon="17.7311051">
        <ele>22.7283</ele>
        <time>2013-04-18T19:48:07Z</time>
      </trkpt>
      <trkpt lat="59.9743507" lon="17.7310599">
        <ele>22.7283</ele>
        <time>2013-04-18T19:48:08Z</time>
      </trkpt>
      <trkpt lat="59.9743506" lon="17.7310124">
        <ele>22.7283</ele>
        <time>2013-04-18T19:48:09Z</time>
      </trkpt>
      <trkpt lat="59.9743496" lon="17.7309682">
        <ele>22.7283</ele>
        <time>2013-04-18T19:48:10Z</time>
      </trkpt>
      <trkpt lat="59.9743492" lon="17.7309269">
        <ele>23.209</ele>
        <time>2013-04-18T19:48:11Z</time>
      </trkpt>
      <trkpt lat="59.9743501" lon="17.7308822">
        <ele>23.209</ele>
        <time>2013-04-18T19:48:12Z</time>
      </trkpt>
      <trkpt lat="59.9743512" lon="17.7308293">
        <ele>23.209</ele>
        <time>2013-04-18T19:48:13Z</time>
      </trkpt>
      <trkpt lat="59.9743535" lon="17.7307781">
        <ele>23.209</ele>
        <time>2013-04-18T19:48:14Z</time>
      </trkpt>
      <trkpt lat="59.9743554" lon="17.7307304">
        <ele>23.209</ele>
        <time>2013-04-18T19:48:15Z</time>
      </trkpt>
      <trkpt lat="59.9743569" lon="17.7306803">
        <ele>23.209</ele>
        <time>2013-04-18T19:48:16Z</time>
      </trkpt>
      <trkpt lat="59.97436" lon="17.7306288">
        <ele>23.209</ele>
        <time>2013-04-18T19:48:17Z</time>
      </trkpt>
      <trkpt lat="59.9743662" lon="17.7305627">
        <ele>23.209</ele>
        <time>2013-04-18T19:48:18Z</time>
      </trkpt>
      <trkpt lat="59.9743693" lon="17.7304908">
        <ele>22.7283</ele>
        <time>2013-04-18T19:48:19Z</time>
      </trkpt>
      <trkpt lat="59.9743719" lon="17.7304412">
        <ele>22.7283</ele>
        <time>2013-04-18T19:48:20Z</time>
      </trkpt>
      <trkpt lat="59.974376" lon="17.7303936">
        <ele>22.7283</ele>
        <time>2013-04-18T19:48:21Z</time>
      </trkpt>
      <trkpt lat="59.9743772" lon="17.7303425">
        <ele>22.2476</ele>
        <time>2013-04-18T19:48:22Z</time>
      </trkpt>
      <trkpt lat="59.9743791" lon="17.7302923">
        <ele>22.2476</ele>
        <time>2013-04-18T19:48:23Z</time>
      </trkpt>
      <trkpt lat="59.9743836" lon="17.7302446">
        <ele>21.767</ele>
        <time>2013-04-18T19:48:24Z</time>
      </trkpt>
      <trkpt lat="59.974386" lon="17.730205">
        <ele>22.2476</ele>
        <time>2013-04-18T19:48:25Z</time>
      </trkpt>
      <trkpt lat="59.9743872" lon="17.7301664">
        <ele>22.7283</ele>
        <time>2013-04-18T19:48:26Z</time>
      </trkpt>
      <trkpt lat="59.9743904" lon="17.7301233">
        <ele>22.2476</ele>
        <time>2013-04-18T19:48:27Z</time>
      </trkpt>
      <trkpt lat="59.9743943" lon="17.7300751">
        <ele>22.7283</ele>
        <time>2013-04-18T19:48:28Z</time>
      </trkpt>
      <trkpt lat="59.9743978" lon="17.7300248">
        <ele>22.7283</ele>
        <time>2013-04-18T19:48:29Z</time>
      </trkpt>
      <trkpt lat="59.9743998" lon="17.7299783">
        <ele>22.7283</ele>
        <time>2013-04-18T19:48:30Z</time>
      </trkpt>
      <trkpt lat="59.9744014" lon="17.7299334">
        <ele>22.7283</ele>
        <time>2013-04-18T19:48:31Z</time>
      </trkpt>
      <trkpt lat="59.9744054" lon="17.7298814">
        <ele>22.7283</ele>
        <time>2013-04-18T19:48:32Z</time>
      </trkpt>
      <trkpt lat="59.9744107" lon="17.7298224">
        <ele>22.7283</ele>
        <time>2013-04-18T19:48:33Z</time>
      </trkpt>
      <trkpt lat="59.9744174" lon="17.7297632">
        <ele>22.2476</ele>
        <time>2013-04-18T19:48:34Z</time>
      </trkpt>
      <trkpt lat="59.9744247" lon="17.729715">
        <ele>22.2476</ele>
        <time>2013-04-18T19:48:35Z</time>
      </trkpt>
      <trkpt lat="59.9744285" lon="17.7296773">
        <ele>22.2476</ele>
        <time>2013-04-18T19:48:36Z</time>
      </trkpt>
      <trkpt lat="59.9744328" lon="17.7296331">
        <ele>22.2476</ele>
        <time>2013-04-18T19:48:37Z</time>
      </trkpt>
      <trkpt lat="59.9744365" lon="17.7295896">
        <ele>22.2476</ele>
        <time>2013-04-18T19:48:38Z</time>
      </trkpt>
      <trkpt lat="59.9744367" lon="17.7295508">
        <ele>22.2476</ele>
        <time>2013-04-18T19:48:39Z</time>
      </trkpt>
      <trkpt lat="59.9744364" lon="17.7295172">
        <ele>22.7283</ele>
        <time>2013-04-18T19:48:40Z</time>
      </trkpt>
      <trkpt lat="59.9744424" lon="17.7294925">
        <ele>22.7283</ele>
        <time>2013-04-18T19:48:41Z</time>
      </trkpt>
      <trkpt lat="59.9744577" lon="17.7295026">
        <ele>22.7283</ele>
        <time>2013-04-18T19:48:42Z</time>
      </trkpt>
      <trkpt lat="59.974475" lon="17.7295349">
        <ele>22.7283</ele>
        <time>2013-04-18T19:48:43Z</time>
      </trkpt>
      <trkpt lat="59.9744863" lon="17.7295903">
        <ele>22.7283</ele>
        <time>2013-04-18T19:48:44Z</time>
      </trkpt>
      <trkpt lat="59.9744841" lon="17.7296473">
        <ele>22.7283</ele>
        <time>2013-04-18T19:48:45Z</time>
      </trkpt>
      <trkpt lat="59.974481" lon="17.7297095">
        <ele>23.209</ele>
        <time>2013-04-18T19:48:46Z</time>
      </trkpt>
      <trkpt lat="59.9744766" lon="17.7297644">
        <ele>23.209</ele>
        <time>2013-04-18T19:48:47Z</time>
      </trkpt>
      <trkpt lat="59.9744711" lon="17.7298126">
        <ele>23.209</ele>
        <time>2013-04-18T19:48:48Z</time>
      </trkpt>
      <trkpt lat="59.9744682" lon="17.7298616">
        <ele>23.209</ele>
        <time>2013-04-18T19:48:49Z</time>
      </trkpt>
      <trkpt lat="59.9744608" lon="17.7299106">
        <ele>23.209</ele>
        <time>2013-04-18T19:48:50Z</time>
      </trkpt>
      <trkpt lat="59.9744552" lon="17.7299593">
        <ele>23.209</ele>
        <time>2013-04-18T19:48:51Z</time>
      </trkpt>
      <trkpt lat="59.9744516" lon="17.7300113">
        <ele>23.209</ele>
        <time>2013-04-18T19:48:52Z</time>
      </trkpt>
      <trkpt lat="59.974446" lon="17.7300633">
        <ele>23.6896</ele>
        <time>2013-04-18T19:48:53Z</time>
      </trkpt>
      <trkpt lat="59.9744424" lon="17.730116">
        <ele>24.1703</ele>
        <time>2013-04-18T19:48:54Z</time>
      </trkpt>
      <trkpt lat="59.9744377" lon="17.7301622">
        <ele>23.6896</ele>
        <time>2013-04-18T19:48:55Z</time>
      </trkpt>
      <trkpt lat="59.9744309" lon="17.7302118">
        <ele>23.6896</ele>
        <time>2013-04-18T19:48:56Z</time>
      </trkpt>
      <trkpt lat="59.9744253" lon="17.7302625">
        <ele>24.1703</ele>
        <time>2013-04-18T19:48:57Z</time>
      </trkpt>
      <trkpt lat="59.9744225" lon="17.7303139">
        <ele>24.1703</ele>
        <time>2013-04-18T19:48:58Z</time>
      </trkpt>
      <trkpt lat="59.974416" lon="17.7303684">
        <ele>24.1703</ele>
        <time>2013-04-18T19:48:59Z</time>
      </trkpt>
      <trkpt lat="59.9744092" lon="17.7304223">
        <ele>24.1703</ele>
        <time>2013-04-18T19:49:00Z</time>
      </trkpt>
      <trkpt lat="59.9744056" lon="17.7304751">
        <ele>24.651</ele>
        <time>2013-04-18T19:49:01Z</time>
      </trkpt>
      <trkpt lat="59.9743987" lon="17.7305258">
        <ele>24.651</ele>
        <time>2013-04-18T19:49:02Z</time>
      </trkpt>
      <trkpt lat="59.9743931" lon="17.7305782">
        <ele>25.1317</ele>
        <time>2013-04-18T19:49:03Z</time>
      </trkpt>
      <trkpt lat="59.9743885" lon="17.7306291">
        <ele>25.1317</ele>
        <time>2013-04-18T19:49:04Z</time>
      </trkpt>
      <trkpt lat="59.9743833" lon="17.7306806">
        <ele>25.1317</ele>
        <time>2013-04-18T19:49:05Z</time>
      </trkpt>
      <trkpt lat="59.9743805" lon="17.7307337">
        <ele>24.651</ele>
        <time>2013-04-18T19:49:06Z</time>
      </trkpt>
      <trkpt lat="59.9743772" lon="17.7307917">
        <ele>25.1317</ele>
        <time>2013-04-18T19:49:07Z</time>
      </trkpt>
      <trkpt lat="59.9743738" lon="17.7308479">
        <ele>25.1317</ele>
        <time>2013-04-18T19:49:08Z</time>
      </trkpt>
      <trkpt lat="59.9743687" lon="17.7309029">
        <ele>25.6123</ele>
        <time>2013-04-18T19:49:09Z</time>
      </trkpt>
      <trkpt lat="59.974362" lon="17.7309512">
        <ele>25.6123</ele>
        <time>2013-04-18T19:49:10Z</time>
      </trkpt>
      <trkpt lat="59.9743585" lon="17.7309971">
        <ele>25.6123</ele>
        <time>2013-04-18T19:49:11Z</time>
      </trkpt>
      <trkpt lat="59.9743563" lon="17.7310466">
        <ele>26.0929</ele>
        <time>2013-04-18T19:49:12Z</time>
      </trkpt>
      <trkpt lat="59.9743522" lon="17.7310997">
        <ele>26.0929</ele>
        <time>2013-04-18T19:49:13Z</time>
      </trkpt>
      <trkpt lat="59.9743505" lon="17.7311551">
        <ele>26.0929</ele>
        <time>2013-04-18T19:49:14Z</time>
      </trkpt>
      <trkpt lat="59.9743465" lon="17.7312072">
        <ele>26.0929</ele>
        <time>2013-04-18T19:49:15Z</time>
      </trkpt>
      <trkpt lat="59.974339" lon="17.7312576">
        <ele>25.6123</ele>
        <time>2013-04-18T19:49:16Z</time>
      </trkpt>
      <trkpt lat="59.9743349" lon="17.7313086">
        <ele>25.6123</ele>
        <time>2013-04-18T19:49:17Z</time>
      </trkpt>
      <trkpt lat="59.9743326" lon="17.7313623">
        <ele>25.6123</ele>
        <time>2013-04-18T19:49:18Z</time>
      </trkpt>
      <trkpt lat="59.9743298" lon="17.7314192">
        <ele>26.0929</ele>
        <time>2013-04-18T19:49:19Z</time>
      </trkpt>
      <trkpt lat="59.9743262" lon="17.7314701">
        <ele>26.0929</ele>
        <time>2013-04-18T19:49:20Z</time>
      </trkpt>
      <trkpt lat="59.9743242" lon="17.7315187">
        <ele>26.0929</ele>
        <time>2013-04-18T19:49:21Z</time>
      </trkpt>
      <trkpt lat="59.974323" lon="17.7315691">
        <ele>25.6123</ele>
        <time>2013-04-18T19:49:22Z</time>
      </trkpt>
      <trkpt lat="59.9743222" lon="17.7316194">
        <ele>25.6123</ele>
        <time>2013-04-18T19:49:23Z</time>
      </trkpt>
      <trkpt lat="59.9743207" lon="17.7316686">
        <ele>25.6123</ele>
        <time>2013-04-18T19:49:24Z</time>
      </trkpt>
      <trkpt lat="59.9743191" lon="17.7317217">
        <ele>25.1317</ele>
        <time>2013-04-18T19:49:25Z</time>
      </trkpt>
      <trkpt lat="59.9743184" lon="17.7317739">
        <ele>25.1317</ele>
        <time>2013-04-18T19:49:26Z</time>
      </trkpt>
      <trkpt lat="59.9743158" lon="17.7318224">
        <ele>24.651</ele>
        <time>2013-04-18T19:49:27Z</time>
      </trkpt>
      <trkpt lat="59.9743134" lon="17.7318748">
        <ele>24.651</ele>
        <time>2013-04-18T19:49:28Z</time>
      </trkpt>
      <trkpt lat="59.9743152" lon="17.7319276">
        <ele>24.651</ele>
        <time>2013-04-18T19:49:29Z</time>
      </trkpt>
      <trkpt lat="59.9743159" lon="17.7319758">
        <ele>24.1703</ele>
        <time>2013-04-18T19:49:30Z</time>
      </trkpt>
      <trkpt lat="59.9743166" lon="17.7320301">
        <ele>24.1703</ele>
        <time>2013-04-18T19:49:31Z</time>
      </trkpt>
      <trkpt lat="59.9743171" lon="17.7320804">
        <ele>24.1703</ele>
        <time>2013-04-18T19:49:32Z</time>
      </trkpt>
      <trkpt lat="59.974319" lon="17.7321316">
        <ele>24.1703</ele>
        <time>2013-04-18T19:49:33Z</time>
      </trkpt>
      <trkpt lat="59.9743211" lon="17.7321855">
        <ele>24.1703</ele>
        <time>2013-04-18T19:49:34Z</time>
      </trkpt>
      <trkpt lat="59.9743225" lon="17.7322336">
        <ele>23.6896</ele>
        <time>2013-04-18T19:49:35Z</time>
      </trkpt>
      <trkpt lat="59.9743248" lon="17.7322853">
        <ele>23.6896</ele>
        <time>2013-04-18T19:49:36Z</time>
      </trkpt>
      <trkpt lat="59.9743271" lon="17.7323399">
        <ele>23.6896</ele>
        <time>2013-04-18T19:49:37Z</time>
      </trkpt>
      <trkpt lat="59.974331" lon="17.732389">
        <ele>23.6896</ele>
        <time>2013-04-18T19:49:38Z</time>
      </trkpt>
      <trkpt lat="59.974332" lon="17.7324371">
        <ele>23.6896</ele>
        <time>2013-04-18T19:49:39Z</time>
      </trkpt>
      <trkpt lat="59.9743324" lon="17.7324861">
        <ele>23.6896</ele>
        <time>2013-04-18T19:49:40Z</time>
      </trkpt>
      <trkpt lat="59.9743359" lon="17.7325352">
        <ele>23.6896</ele>
        <time>2013-04-18T19:49:41Z</time>
      </trkpt>
      <trkpt lat="59.9743366" lon="17.7325839">
        <ele>23.6896</ele>
        <time>2013-04-18T19:49:42Z</time>
      </trkpt>
      <trkpt lat="59.974337" lon="17.7326324">
        <ele>24.1703</ele>
        <time>2013-04-18T19:49:43Z</time>
      </trkpt>
      <trkpt lat="59.9743378" lon="17.7326787">
        <ele>23.6896</ele>
        <time>2013-04-18T19:49:44Z</time>
      </trkpt>
      <trkpt lat="59.9743388" lon="17.7327298">
        <ele>23.6896</ele>
        <time>2013-04-18T19:49:45Z</time>
      </trkpt>
      <trkpt lat="59.9743398" lon="17.7327788">
        <ele>23.6896</ele>
        <time>2013-04-18T19:49:46Z</time>
      </trkpt>
      <trkpt lat="59.974342" lon="17.7328316">
        <ele>23.6896</ele>
        <time>2013-04-18T19:49:47Z</time>
      </trkpt>
      <trkpt lat="59.9743419" lon="17.7328806">
        <ele>23.6896</ele>
        <time>2013-04-18T19:49:48Z</time>
      </trkpt>
      <trkpt lat="59.9743396" lon="17.7329247">
        <ele>23.6896</ele>
        <time>2013-04-18T19:49:49Z</time>
      </trkpt>
      <trkpt lat="59.974337" lon="17.7329693">
        <ele>23.6896</ele>
        <time>2013-04-18T19:49:50Z</time>
      </trkpt>
      <trkpt lat="59.9743349" lon="17.7330143">
        <ele>23.6896</ele>
        <time>2013-04-18T19:49:51Z</time>
      </trkpt>
      <trkpt lat="59.9743342" lon="17.7330574">
        <ele>23.6896</ele>
        <time>2013-04-18T19:49:52Z</time>
      </trkpt>
      <trkpt lat="59.9743325" lon="17.7331005">
        <ele>23.6896</ele>
        <time>2013-04-18T19:49:53Z</time>
      </trkpt>
      <trkpt lat="59.9743325" lon="17.7331501">
        <ele>23.6896</ele>
        <time>2013-04-18T19:49:54Z</time>
      </trkpt>
      <trkpt lat="59.9743336" lon="17.7332038">
        <ele>23.6896</ele>
        <time>2013-04-18T19:49:55Z</time>
      </trkpt>
      <trkpt lat="59.9743321" lon="17.7332572">
        <ele>23.6896</ele>
        <time>2013-04-18T19:49:56Z</time>
      </trkpt>
      <trkpt lat="59.974331" lon="17.7333055">
        <ele>23.6896</ele>
        <time>2013-04-18T19:49:57Z</time>
      </trkpt>
      <trkpt lat="59.9743309" lon="17.7333537">
        <ele>23.6896</ele>
        <time>2013-04-18T19:49:58Z</time>
      </trkpt>
      <trkpt lat="59.9743311" lon="17.7334076">
        <ele>24.1703</ele>
        <time>2013-04-18T19:49:59Z</time>
      </trkpt>
      <trkpt lat="59.9743295" lon="17.7334566">
        <ele>24.1703</ele>
        <time>2013-04-18T19:50:00Z</time>
      </trkpt>
      <trkpt lat="59.974328" lon="17.7335112">
        <ele>24.651</ele>
        <time>2013-04-18T19:50:01Z</time>
      </trkpt>
      <trkpt lat="59.9743253" lon="17.73357">
        <ele>24.651</ele>
        <time>2013-04-18T19:50:02Z</time>
      </trkpt>
      <trkpt lat="59.9743236" lon="17.733621">
        <ele>25.1317</ele>
        <time>2013-04-18T19:50:03Z</time>
      </trkpt>
      <trkpt lat="59.974321" lon="17.7336712">
        <ele>25.1317</ele>
        <time>2013-04-18T19:50:04Z</time>
      </trkpt>
      <trkpt lat="59.9743153" lon="17.733723">
        <ele>25.1317</ele>
        <time>2013-04-18T19:50:05Z</time>
      </trkpt>
      <trkpt lat="59.9743139" lon="17.7337767">
        <ele>25.6123</ele>
        <time>2013-04-18T19:50:06Z</time>
      </trkpt>
      <trkpt lat="59.9743106" lon="17.7338297">
        <ele>25.6123</ele>
        <time>2013-04-18T19:50:07Z</time>
      </trkpt>
      <trkpt lat="59.9743051" lon="17.7338793">
        <ele>25.6123</ele>
        <time>2013-04-18T19:50:08Z</time>
      </trkpt>
      <trkpt lat="59.974304" lon="17.7339328">
        <ele>25.6123</ele>
        <time>2013-04-18T19:50:09Z</time>
      </trkpt>
      <trkpt lat="59.9742987" lon="17.7339867">
        <ele>25.6123</ele>
        <time>2013-04-18T19:50:10Z</time>
      </trkpt>
      <trkpt lat="59.974293" lon="17.7340359">
        <ele>25.1317</ele>
        <time>2013-04-18T19:50:11Z</time>
      </trkpt>
      <trkpt lat="59.9742898" lon="17.7340837">
        <ele>25.1317</ele>
        <time>2013-04-18T19:50:12Z</time>
      </trkpt>
      <trkpt lat="59.9742859" lon="17.7341327">
        <ele>25.1317</ele>
        <time>2013-04-18T19:50:13Z</time>
      </trkpt>
      <trkpt lat="59.9742826" lon="17.7341759">
        <ele>24.651</ele>
        <time>2013-04-18T19:50:14Z</time>
      </trkpt>
      <trkpt lat="59.9742826" lon="17.7342237">
        <ele>24.651</ele>
        <time>2013-04-18T19:50:15Z</time>
      </trkpt>
      <trkpt lat="59.9742792" lon="17.7342699">
        <ele>24.651</ele>
        <time>2013-04-18T19:50:16Z</time>
      </trkpt>
      <trkpt lat="59.974276" lon="17.7343163">
        <ele>24.651</ele>
        <time>2013-04-18T19:50:17Z</time>
      </trkpt>
      <trkpt lat="59.9742746" lon="17.7343616">
        <ele>24.651</ele>
        <time>2013-04-18T19:50:18Z</time>
      </trkpt>
      <trkpt lat="59.9742714" lon="17.7344054">
        <ele>24.651</ele>
        <time>2013-04-18T19:50:19Z</time>
      </trkpt>
      <trkpt lat="59.9742683" lon="17.7344501">
        <ele>24.651</ele>
        <time>2013-04-18T19:50:20Z</time>
      </trkpt>
      <trkpt lat="59.9742665" lon="17.7344943">
        <ele>24.651</ele>
        <time>2013-04-18T19:50:21Z</time>
      </trkpt>
      <trkpt lat="59.9742651" lon="17.7345419">
        <ele>24.651</ele>
        <time>2013-04-18T19:50:22Z</time>
      </trkpt>
      <trkpt lat="59.9742655" lon="17.7345917">
        <ele>24.651</ele>
        <time>2013-04-18T19:50:23Z</time>
      </trkpt>
      <trkpt lat="59.9742626" lon="17.7346341">
        <ele>24.651</ele>
        <time>2013-04-18T19:50:24Z</time>
      </trkpt>
      <trkpt lat="59.9742613" lon="17.7346797">
        <ele>24.1703</ele>
        <time>2013-04-18T19:50:25Z</time>
      </trkpt>
      <trkpt lat="59.9742626" lon="17.7347253">
        <ele>24.1703</ele>
        <time>2013-04-18T19:50:26Z</time>
      </trkpt>
      <trkpt lat="59.9742632" lon="17.7347719">
        <ele>24.1703</ele>
        <time>2013-04-18T19:50:27Z</time>
      </trkpt>
      <trkpt lat="59.974265" lon="17.7348191">
        <ele>23.6896</ele>
        <time>2013-04-18T19:50:28Z</time>
      </trkpt>
      <trkpt lat="59.9742686" lon="17.7348583">
        <ele>23.6896</ele>
        <time>2013-04-18T19:50:29Z</time>
      </trkpt>
      <trkpt lat="59.9742696" lon="17.734904">
        <ele>23.6896</ele>
        <time>2013-04-18T19:50:30Z</time>
      </trkpt>
      <trkpt lat="59.9742698" lon="17.7349352">
        <ele>23.209</ele>
        <time>2013-04-18T19:50:31Z</time>
      </trkpt>
      <trkpt lat="59.9742724" lon="17.7349674">
        <ele>22.7283</ele>
        <time>2013-04-18T19:50:32Z</time>
      </trkpt>
      <trkpt lat="59.9742765" lon="17.735016">
        <ele>22.7283</ele>
        <time>2013-04-18T19:50:33Z</time>
      </trkpt>
      <trkpt lat="59.9742797" lon="17.7350627">
        <ele>22.7283</ele>
        <time>2013-04-18T19:50:34Z</time>
      </trkpt>
      <trkpt lat="59.9742827" lon="17.7351083">
        <ele>22.7283</ele>
        <time>2013-04-18T19:50:35Z</time>
      </trkpt>
      <trkpt lat="59.974288" lon="17.7351605">
        <ele>23.209</ele>
        <time>2013-04-18T19:50:36Z</time>
      </trkpt>
      <trkpt lat="59.9742942" lon="17.7352123">
        <ele>23.209</ele>
        <time>2013-04-18T19:50:37Z</time>
      </trkpt>
      <trkpt lat="59.974299" lon="17.7352584">
        <ele>23.6896</ele>
        <time>2013-04-18T19:50:38Z</time>
      </trkpt>
      <trkpt lat="59.9743055" lon="17.7353029">
        <ele>23.6896</ele>
        <time>2013-04-18T19:50:39Z</time>
      </trkpt>
      <trkpt lat="59.9743123" lon="17.7353471">
        <ele>24.1703</ele>
        <time>2013-04-18T19:50:40Z</time>
      </trkpt>
      <trkpt lat="59.9743169" lon="17.7353935">
        <ele>24.1703</ele>
        <time>2013-04-18T19:50:41Z</time>
      </trkpt>
      <trkpt lat="59.9743205" lon="17.7354361">
        <ele>24.651</ele>
        <time>2013-04-18T19:50:42Z</time>
      </trkpt>
      <trkpt lat="59.9743267" lon="17.7354782">
        <ele>24.651</ele>
        <time>2013-04-18T19:50:43Z</time>
      </trkpt>
      <trkpt lat="59.9743325" lon="17.7355256">
        <ele>24.651</ele>
        <time>2013-04-18T19:50:44Z</time>
      </trkpt>
      <trkpt lat="59.9743403" lon="17.7355749">
        <ele>25.1317</ele>
        <time>2013-04-18T19:50:45Z</time>
      </trkpt>
      <trkpt lat="59.9743517" lon="17.7356271">
        <ele>25.6123</ele>
        <time>2013-04-18T19:50:46Z</time>
      </trkpt>
      <trkpt lat="59.9743574" lon="17.7356768">
        <ele>25.6123</ele>
        <time>2013-04-18T19:50:47Z</time>
      </trkpt>
      <trkpt lat="59.9743641" lon="17.7357215">
        <ele>26.0929</ele>
        <time>2013-04-18T19:50:48Z</time>
      </trkpt>
      <trkpt lat="59.9743723" lon="17.7357664">
        <ele>26.5736</ele>
        <time>2013-04-18T19:50:49Z</time>
      </trkpt>
      <trkpt lat="59.9743816" lon="17.7358122">
        <ele>26.5736</ele>
        <time>2013-04-18T19:50:50Z</time>
      </trkpt>
      <trkpt lat="59.9743915" lon="17.7358573">
        <ele>26.5736</ele>
        <time>2013-04-18T19:50:51Z</time>
      </trkpt>
      <trkpt lat="59.9744007" lon="17.7359057">
        <ele>27.0543</ele>
        <time>2013-04-18T19:50:52Z</time>
      </trkpt>
      <trkpt lat="59.9744132" lon="17.7359545">
        <ele>27.5349</ele>
        <time>2013-04-18T19:50:53Z</time>
      </trkpt>
      <trkpt lat="59.9744256" lon="17.7359908">
        <ele>27.0543</ele>
        <time>2013-04-18T19:50:54Z</time>
      </trkpt>
      <trkpt lat="59.9744409" lon="17.7360332">
        <ele>27.5349</ele>
        <time>2013-04-18T19:50:55Z</time>
      </trkpt>
      <trkpt lat="59.9744559" lon="17.7360686">
        <ele>28.0155</ele>
        <time>2013-04-18T19:50:56Z</time>
      </trkpt>
      <trkpt lat="59.9744662" lon="17.736102">
        <ele>28.0155</ele>
        <time>2013-04-18T19:50:57Z</time>
      </trkpt>
      <trkpt lat="59.9744787" lon="17.7361417">
        <ele>28.9769</ele>
        <time>2013-04-18T19:50:58Z</time>
      </trkpt>
      <trkpt lat="59.9744869" lon="17.7361816">
        <ele>28.9769</ele>
        <time>2013-04-18T19:50:59Z</time>
      </trkpt>
      <trkpt lat="59.9744936" lon="17.7362182">
        <ele>28.9769</ele>
        <time>2013-04-18T19:51:00Z</time>
      </trkpt>
      <trkpt lat="59.9745039" lon="17.736257">
        <ele>29.9381</ele>
        <time>2013-04-18T19:51:01Z</time>
      </trkpt>
      <trkpt lat="59.9745118" lon="17.7362918">
        <ele>29.4575</ele>
        <time>2013-04-18T19:51:02Z</time>
      </trkpt>
      <trkpt lat="59.9745227" lon="17.7363306">
        <ele>29.9381</ele>
        <time>2013-04-18T19:51:03Z</time>
      </trkpt>
      <trkpt lat="59.9745359" lon="17.7363741">
        <ele>30.8995</ele>
        <time>2013-04-18T19:51:04Z</time>
      </trkpt>
      <trkpt lat="59.9745432" lon="17.7364064">
        <ele>30.8995</ele>
        <time>2013-04-18T19:51:05Z</time>
      </trkpt>
      <trkpt lat="59.9745511" lon="17.7364379">
        <ele>31.3801</ele>
        <time>2013-04-18T19:51:06Z</time>
      </trkpt>
      <trkpt lat="59.974564" lon="17.7364787">
        <ele>31.8607</ele>
        <time>2013-04-18T19:51:07Z</time>
      </trkpt>
      <trkpt lat="59.9745766" lon="17.736519">
        <ele>32.3416</ele>
        <time>2013-04-18T19:51:08Z</time>
      </trkpt>
      <trkpt lat="59.9745941" lon="17.7365651">
        <ele>33.3029</ele>
        <time>2013-04-18T19:51:09Z</time>
      </trkpt>
      <trkpt lat="59.9746102" lon="17.7366123">
        <ele>33.3029</ele>
        <time>2013-04-18T19:51:10Z</time>
      </trkpt>
      <trkpt lat="59.9746235" lon="17.7366534">
        <ele>34.2642</ele>
        <time>2013-04-18T19:51:11Z</time>
      </trkpt>
      <trkpt lat="59.9746398" lon="17.7366871">
        <ele>34.7449</ele>
        <time>2013-04-18T19:51:12Z</time>
      </trkpt>
      <trkpt lat="59.9746559" lon="17.7367218">
        <ele>34.7449</ele>
        <time>2013-04-18T19:51:13Z</time>
      </trkpt>
      <trkpt lat="59.9746729" lon="17.7367511">
        <ele>34.2642</ele>
        <time>2013-04-18T19:51:14Z</time>
      </trkpt>
      <trkpt lat="59.9746875" lon="17.7367824">
        <ele>34.2642</ele>
        <time>2013-04-18T19:51:15Z</time>
      </trkpt>
      <trkpt lat="59.9746993" lon="17.7368201">
        <ele>33.7834</ele>
        <time>2013-04-18T19:51:16Z</time>
      </trkpt>
      <trkpt lat="59.9747153" lon="17.7368641">
        <ele>33.3029</ele>
        <time>2013-04-18T19:51:17Z</time>
      </trkpt>
      <trkpt lat="59.9747314" lon="17.7369026">
        <ele>33.3029</ele>
        <time>2013-04-18T19:51:18Z</time>
      </trkpt>
      <trkpt lat="59.9747439" lon="17.736943">
        <ele>32.8223</ele>
        <time>2013-04-18T19:51:19Z</time>
      </trkpt>
      <trkpt lat="59.9747597" lon="17.7369778">
        <ele>32.8223</ele>
        <time>2013-04-18T19:51:20Z</time>
      </trkpt>
      <trkpt lat="59.9747733" lon="17.7370135">
        <ele>32.8223</ele>
        <time>2013-04-18T19:51:21Z</time>
      </trkpt>
      <trkpt lat="59.9747872" lon="17.737055">
        <ele>32.8223</ele>
        <time>2013-04-18T19:51:22Z</time>
      </trkpt>
      <trkpt lat="59.9748024" lon="17.7370938">
        <ele>32.8223</ele>
        <time>2013-04-18T19:51:23Z</time>
      </trkpt>
      <trkpt lat="59.9748161" lon="17.7371314">
        <ele>32.8223</ele>
        <time>2013-04-18T19:51:24Z</time>
      </trkpt>
      <trkpt lat="59.9748262" lon="17.7371683">
        <ele>32.3416</ele>
        <time>2013-04-18T19:51:25Z</time>
      </trkpt>
      <trkpt lat="59.9748366" lon="17.7372034">
        <ele>32.3416</ele>
        <time>2013-04-18T19:51:26Z</time>
      </trkpt>
      <trkpt lat="59.9748516" lon="17.7372412">
        <ele>32.3416</ele>
        <time>2013-04-18T19:51:27Z</time>
      </trkpt>
      <trkpt lat="59.9748609" lon="17.7372765">
        <ele>31.8607</ele>
        <time>2013-04-18T19:51:28Z</time>
      </trkpt>
      <trkpt lat="59.9748758" lon="17.73731">
        <ele>32.3416</ele>
        <time>2013-04-18T19:51:29Z</time>
      </trkpt>
      <trkpt lat="59.9748898" lon="17.7373448">
        <ele>32.3416</ele>
        <time>2013-04-18T19:51:30Z</time>
      </trkpt>
      <trkpt lat="59.9749021" lon="17.7373753">
        <ele>31.8607</ele>
        <time>2013-04-18T19:51:31Z</time>
      </trkpt>
      <trkpt lat="59.9749163" lon="17.7374069">
        <ele>31.8607</ele>
        <time>2013-04-18T19:51:32Z</time>
      </trkpt>
      <trkpt lat="59.9749303" lon="17.737444">
        <ele>31.8607</ele>
        <time>2013-04-18T19:51:33Z</time>
      </trkpt>
      <trkpt lat="59.9749449" lon="17.7374776">
        <ele>31.8607</ele>
        <time>2013-04-18T19:51:34Z</time>
      </trkpt>
      <trkpt lat="59.9749583" lon="17.7375152">
        <ele>32.3416</ele>
        <time>2013-04-18T19:51:35Z</time>
      </trkpt>
      <trkpt lat="59.9749718" lon="17.7375469">
        <ele>31.8607</ele>
        <time>2013-04-18T19:51:36Z</time>
      </trkpt>
      <trkpt lat="59.9749883" lon="17.7375759">
        <ele>31.8607</ele>
        <time>2013-04-18T19:51:37Z</time>
      </trkpt>
      <trkpt lat="59.9750053" lon="17.7376098">
        <ele>32.3416</ele>
        <time>2013-04-18T19:51:38Z</time>
      </trkpt>
      <trkpt lat="59.9750194" lon="17.7376428">
        <ele>32.3416</ele>
        <time>2013-04-18T19:51:39Z</time>
      </trkpt>
      <trkpt lat="59.9750354" lon="17.7376744">
        <ele>32.3416</ele>
        <time>2013-04-18T19:51:40Z</time>
      </trkpt>
      <trkpt lat="59.9750513" lon="17.737706">
        <ele>32.3416</ele>
        <time>2013-04-18T19:51:41Z</time>
      </trkpt>
      <trkpt lat="59.9750671" lon="17.7377366">
        <ele>32.3416</ele>
        <time>2013-04-18T19:51:42Z</time>
      </trkpt>
      <trkpt lat="59.9750855" lon="17.7377657">
        <ele>32.8223</ele>
        <time>2013-04-18T19:51:43Z</time>
      </trkpt>
      <trkpt lat="59.9751019" lon="17.7377972">
        <ele>32.8223</ele>
        <time>2013-04-18T19:51:44Z</time>
      </trkpt>
      <trkpt lat="59.9751161" lon="17.7378277">
        <ele>32.8223</ele>
        <time>2013-04-18T19:51:45Z</time>
      </trkpt>
      <trkpt lat="59.9751311" lon="17.7378576">
        <ele>32.8223</ele>
        <time>2013-04-18T19:51:46Z</time>
      </trkpt>
      <trkpt lat="59.9751477" lon="17.7378858">
        <ele>32.8223</ele>
        <time>2013-04-18T19:51:47Z</time>
      </trkpt>
      <trkpt lat="59.9751633" lon="17.7379122">
        <ele>32.8223</ele>
        <time>2013-04-18T19:51:48Z</time>
      </trkpt>
      <trkpt lat="59.9751806" lon="17.7379385">
        <ele>32.8223</ele>
        <time>2013-04-18T19:51:49Z</time>
      </trkpt>
      <trkpt lat="59.975199" lon="17.7379655">
        <ele>33.3029</ele>
        <time>2013-04-18T19:51:50Z</time>
      </trkpt>
      <trkpt lat="59.9752137" lon="17.7379917">
        <ele>33.7834</ele>
        <time>2013-04-18T19:51:51Z</time>
      </trkpt>
      <trkpt lat="59.9752285" lon="17.738019">
        <ele>33.7834</ele>
        <time>2013-04-18T19:51:52Z</time>
      </trkpt>
      <trkpt lat="59.9752442" lon="17.738052">
        <ele>34.2642</ele>
        <time>2013-04-18T19:51:53Z</time>
      </trkpt>
      <trkpt lat="59.9752581" lon="17.7380796">
        <ele>34.2642</ele>
        <time>2013-04-18T19:51:54Z</time>
      </trkpt>
      <trkpt lat="59.9752768" lon="17.7381091">
        <ele>34.7449</ele>
        <time>2013-04-18T19:51:55Z</time>
      </trkpt>
      <trkpt lat="59.9752908" lon="17.7381437">
        <ele>35.2255</ele>
        <time>2013-04-18T19:51:56Z</time>
      </trkpt>
      <trkpt lat="59.9753028" lon="17.7381718">
        <ele>35.7061</ele>
        <time>2013-04-18T19:51:57Z</time>
      </trkpt>
      <trkpt lat="59.9753179" lon="17.7382003">
        <ele>35.2255</ele>
        <time>2013-04-18T19:51:58Z</time>
      </trkpt>
      <trkpt lat="59.9753364" lon="17.7382318">
        <ele>35.7061</ele>
        <time>2013-04-18T19:51:59Z</time>
      </trkpt>
      <trkpt lat="59.9753502" lon="17.7382596">
        <ele>36.1868</ele>
        <time>2013-04-18T19:52:00Z</time>
      </trkpt>
      <trkpt lat="59.9753634" lon="17.7382867">
        <ele>35.7061</ele>
        <time>2013-04-18T19:52:01Z</time>
      </trkpt>
      <trkpt lat="59.9753806" lon="17.7383173">
        <ele>36.1868</ele>
        <time>2013-04-18T19:52:02Z</time>
      </trkpt>
      <trkpt lat="59.9753942" lon="17.7383441">
        <ele>36.1868</ele>
        <time>2013-04-18T19:52:03Z</time>
      </trkpt>
      <trkpt lat="59.975409" lon="17.7383689">
        <ele>36.6675</ele>
        <time>2013-04-18T19:52:04Z</time>
      </trkpt>
      <trkpt lat="59.9754255" lon="17.7383992">
        <ele>36.1868</ele>
        <time>2013-04-18T19:52:05Z</time>
      </trkpt>
      <trkpt lat="59.9754412" lon="17.7384298">
        <ele>36.1868</ele>
        <time>2013-04-18T19:52:06Z</time>
      </trkpt>
      <trkpt lat="59.9754607" lon="17.7384586">
        <ele>36.1868</ele>
        <time>2013-04-18T19:52:07Z</time>
      </trkpt>
      <trkpt lat="59.9754807" lon="17.7384901">
        <ele>36.1868</ele>
        <time>2013-04-18T19:52:08Z</time>
      </trkpt>
      <trkpt lat="59.9754978" lon="17.7385197">
        <ele>36.1868</ele>
        <time>2013-04-18T19:52:09Z</time>
      </trkpt>
      <trkpt lat="59.9755172" lon="17.7385488">
        <ele>36.6675</ele>
        <time>2013-04-18T19:52:10Z</time>
      </trkpt>
      <trkpt lat="59.975536" lon="17.7385821">
        <ele>36.6675</ele>
        <time>2013-04-18T19:52:11Z</time>
      </trkpt>
      <trkpt lat="59.9755525" lon="17.7386142">
        <ele>37.1481</ele>
        <time>2013-04-18T19:52:12Z</time>
      </trkpt>
      <trkpt lat="59.9755701" lon="17.7386458">
        <ele>37.1481</ele>
        <time>2013-04-18T19:52:13Z</time>
      </trkpt>
      <trkpt lat="59.9755902" lon="17.7386771">
        <ele>37.6287</ele>
        <time>2013-04-18T19:52:14Z</time>
      </trkpt>
      <trkpt lat="59.9756115" lon="17.7387032">
        <ele>38.1094</ele>
        <time>2013-04-18T19:52:15Z</time>
      </trkpt>
      <trkpt lat="59.9756307" lon="17.7387395">
        <ele>38.1094</ele>
        <time>2013-04-18T19:52:16Z</time>
      </trkpt>
      <trkpt lat="59.9756462" lon="17.7387784">
        <ele>38.1094</ele>
        <time>2013-04-18T19:52:17Z</time>
      </trkpt>
      <trkpt lat="59.9756597" lon="17.7388114">
        <ele>38.5901</ele>
        <time>2013-04-18T19:52:18Z</time>
      </trkpt>
      <trkpt lat="59.9756774" lon="17.738843">
        <ele>38.1094</ele>
        <time>2013-04-18T19:52:19Z</time>
      </trkpt>
      <trkpt lat="59.9756981" lon="17.7388725">
        <ele>38.5901</ele>
        <time>2013-04-18T19:52:20Z</time>
      </trkpt>
      <trkpt lat="59.975719" lon="17.7389058">
        <ele>38.5901</ele>
        <time>2013-04-18T19:52:21Z</time>
      </trkpt>
      <trkpt lat="59.975739" lon="17.7389377">
        <ele>38.5901</ele>
        <time>2013-04-18T19:52:22Z</time>
      </trkpt>
      <trkpt lat="59.9757615" lon="17.7389661">
        <ele>39.0707</ele>
        <time>2013-04-18T19:52:23Z</time>
      </trkpt>
      <trkpt lat="59.9757805" lon="17.7389974">
        <ele>39.0707</ele>
        <time>2013-04-18T19:52:24Z</time>
      </trkpt>
      <trkpt lat="59.9758031" lon="17.7390299">
        <ele>39.0707</ele>
        <time>2013-04-18T19:52:25Z</time>
      </trkpt>
      <trkpt lat="59.9758284" lon="17.7390631">
        <ele>39.0707</ele>
        <time>2013-04-18T19:52:26Z</time>
      </trkpt>
      <trkpt lat="59.9758511" lon="17.7390978">
        <ele>39.0707</ele>
        <time>2013-04-18T19:52:27Z</time>
      </trkpt>
      <trkpt lat="59.9758727" lon="17.7391293">
        <ele>39.0707</ele>
        <time>2013-04-18T19:52:28Z</time>
      </trkpt>
      <trkpt lat="59.9758964" lon="17.7391559">
        <ele>39.0707</ele>
        <time>2013-04-18T19:52:29Z</time>
      </trkpt>
      <trkpt lat="59.9759218" lon="17.7391809">
        <ele>39.0707</ele>
        <time>2013-04-18T19:52:30Z</time>
      </trkpt>
      <trkpt lat="59.9759415" lon="17.7392175">
        <ele>38.5901</ele>
        <time>2013-04-18T19:52:31Z</time>
      </trkpt>
      <trkpt lat="59.9759606" lon="17.7392544">
        <ele>38.5901</ele>
        <time>2013-04-18T19:52:32Z</time>
      </trkpt>
      <trkpt lat="59.9759819" lon="17.7392844">
        <ele>38.5901</ele>
        <time>2013-04-18T19:52:33Z</time>
      </trkpt>
      <trkpt lat="59.9760039" lon="17.739316">
        <ele>38.5901</ele>
        <time>2013-04-18T19:52:34Z</time>
      </trkpt>
      <trkpt lat="59.9760242" lon="17.7393476">
        <ele>38.5901</ele>
        <time>2013-04-18T19:52:35Z</time>
      </trkpt>
      <trkpt lat="59.9760451" lon="17.7393776">
        <ele>38.5901</ele>
        <time>2013-04-18T19:52:36Z</time>
      </trkpt>
      <trkpt lat="59.9760699" lon="17.7394106">
        <ele>38.1094</ele>
        <time>2013-04-18T19:52:37Z</time>
      </trkpt>
      <trkpt lat="59.9760937" lon="17.7394411">
        <ele>38.1094</ele>
        <time>2013-04-18T19:52:38Z</time>
      </trkpt>
      <trkpt lat="59.9761151" lon="17.7394686">
        <ele>37.6287</ele>
        <time>2013-04-18T19:52:39Z</time>
      </trkpt>
      <trkpt lat="59.9761384" lon="17.739496">
        <ele>37.1481</ele>
        <time>2013-04-18T19:52:40Z</time>
      </trkpt>
      <trkpt lat="59.9761647" lon="17.739524">
        <ele>37.1481</ele>
        <time>2013-04-18T19:52:41Z</time>
      </trkpt>
      <trkpt lat="59.9761845" lon="17.7395546">
        <ele>37.1481</ele>
        <time>2013-04-18T19:52:42Z</time>
      </trkpt>
      <trkpt lat="59.9762013" lon="17.7395822">
        <ele>37.1481</ele>
        <time>2013-04-18T19:52:43Z</time>
      </trkpt>
      <trkpt lat="59.9762168" lon="17.7396131">
        <ele>36.6675</ele>
        <time>2013-04-18T19:52:44Z</time>
      </trkpt>
      <trkpt lat="59.9762296" lon="17.7396429">
        <ele>36.6675</ele>
        <time>2013-04-18T19:52:45Z</time>
      </trkpt>
      <trkpt lat="59.9762438" lon="17.7396677">
        <ele>36.1868</ele>
        <time>2013-04-18T19:52:46Z</time>
      </trkpt>
      <trkpt lat="59.9762599" lon="17.7396963">
        <ele>35.7061</ele>
        <time>2013-04-18T19:52:47Z</time>
      </trkpt>
      <trkpt lat="59.9762787" lon="17.7397267">
        <ele>34.7449</ele>
        <time>2013-04-18T19:52:48Z</time>
      </trkpt>
      <trkpt lat="59.9763011" lon="17.7397505">
        <ele>35.2255</ele>
        <time>2013-04-18T19:52:49Z</time>
      </trkpt>
      <trkpt lat="59.9763196" lon="17.7397624">
        <ele>34.7449</ele>
        <time>2013-04-18T19:52:50Z</time>
      </trkpt>
      <trkpt lat="59.9763361" lon="17.7397668">
        <ele>34.2642</ele>
        <time>2013-04-18T19:52:51Z</time>
      </trkpt>
      <trkpt lat="59.9763539" lon="17.7397657">
        <ele>34.7449</ele>
        <time>2013-04-18T19:52:52Z</time>
      </trkpt>
      <trkpt lat="59.9763743" lon="17.7397642">
        <ele>34.7449</ele>
        <time>2013-04-18T19:52:53Z</time>
      </trkpt>
      <trkpt lat="59.9763968" lon="17.7397623">
        <ele>34.7449</ele>
        <time>2013-04-18T19:52:54Z</time>
      </trkpt>
      <trkpt lat="59.9764165" lon="17.7397459">
        <ele>34.7449</ele>
        <time>2013-04-18T19:52:55Z</time>
      </trkpt>
      <trkpt lat="59.9764356" lon="17.739725">
        <ele>34.7449</ele>
        <time>2013-04-18T19:52:56Z</time>
      </trkpt>
      <trkpt lat="59.9764536" lon="17.7397035">
        <ele>34.7449</ele>
        <time>2013-04-18T19:52:57Z</time>
      </trkpt>
      <trkpt lat="59.9764696" lon="17.7396712">
        <ele>34.2642</ele>
        <time>2013-04-18T19:52:58Z</time>
      </trkpt>
      <trkpt lat="59.976488" lon="17.7396397">
        <ele>34.2642</ele>
        <time>2013-04-18T19:52:59Z</time>
      </trkpt>
      <trkpt lat="59.9765087" lon="17.7396136">
        <ele>33.3029</ele>
        <time>2013-04-18T19:53:00Z</time>
      </trkpt>
      <trkpt lat="59.9765273" lon="17.7395921">
        <ele>33.3029</ele>
        <time>2013-04-18T19:53:01Z</time>
      </trkpt>
      <trkpt lat="59.9765453" lon="17.7395652">
        <ele>33.3029</ele>
        <time>2013-04-18T19:53:02Z</time>
      </trkpt>
      <trkpt lat="59.976566" lon="17.7395397">
        <ele>33.3029</ele>
        <time>2013-04-18T19:53:03Z</time>
      </trkpt>
      <trkpt lat="59.9765838" lon="17.7395185">
        <ele>32.8223</ele>
        <time>2013-04-18T19:53:04Z</time>
      </trkpt>
      <trkpt lat="59.9766019" lon="17.7395021">
        <ele>32.8223</ele>
        <time>2013-04-18T19:53:05Z</time>
      </trkpt>
      <trkpt lat="59.9766237" lon="17.7394894">
        <ele>32.3416</ele>
        <time>2013-04-18T19:53:06Z</time>
      </trkpt>
      <trkpt lat="59.9766433" lon="17.7394767">
        <ele>31.8607</ele>
        <time>2013-04-18T19:53:07Z</time>
      </trkpt>
      <trkpt lat="59.9766615" lon="17.7394617">
        <ele>31.8607</ele>
        <time>2013-04-18T19:53:08Z</time>
      </trkpt>
      <trkpt lat="59.9766786" lon="17.73945">
        <ele>31.3801</ele>
        <time>2013-04-18T19:53:09Z</time>
      </trkpt>
      <trkpt lat="59.9767024" lon="17.7394297">
        <ele>31.8607</ele>
        <time>2013-04-18T19:53:10Z</time>
      </trkpt>
      <trkpt lat="59.9767227" lon="17.7394191">
        <ele>31.8607</ele>
        <time>2013-04-18T19:53:11Z</time>
      </trkpt>
      <trkpt lat="59.9767408" lon="17.73941">
        <ele>31.8607</ele>
        <time>2013-04-18T19:53:12Z</time>
      </trkpt>
      <trkpt lat="59.97676" lon="17.7394004">
        <ele>31.3801</ele>
        <time>2013-04-18T19:53:13Z</time>
      </trkpt>
      <trkpt lat="59.9767775" lon="17.7393891">
        <ele>31.3801</ele>
        <time>2013-04-18T19:53:14Z</time>
      </trkpt>
      <trkpt lat="59.9767949" lon="17.7393802">
        <ele>31.3801</ele>
        <time>2013-04-18T19:53:15Z</time>
      </trkpt>
      <trkpt lat="59.9768136" lon="17.7393652">
        <ele>30.8995</ele>
        <time>2013-04-18T19:53:16Z</time>
      </trkpt>
      <trkpt lat="59.9768344" lon="17.7393494">
        <ele>30.8995</ele>
        <time>2013-04-18T19:53:17Z</time>
      </trkpt>
      <trkpt lat="59.9768551" lon="17.7393367">
        <ele>30.8995</ele>
        <time>2013-04-18T19:53:18Z</time>
      </trkpt>
      <trkpt lat="59.9768769" lon="17.7393227">
        <ele>30.8995</ele>
        <time>2013-04-18T19:53:19Z</time>
      </trkpt>
      <trkpt lat="59.9768999" lon="17.7393121">
        <ele>30.8995</ele>
        <time>2013-04-18T19:53:20Z</time>
      </trkpt>
      <trkpt lat="59.9769214" lon="17.7393059">
        <ele>31.3801</ele>
        <time>2013-04-18T19:53:21Z</time>
      </trkpt>
      <trkpt lat="59.9769455" lon="17.7393047">
        <ele>31.3801</ele>
        <time>2013-04-18T19:53:22Z</time>
      </trkpt>
      <trkpt lat="59.9769677" lon="17.7393015">
        <ele>31.3801</ele>
        <time>2013-04-18T19:53:23Z</time>
      </trkpt>
      <trkpt lat="59.9769822" lon="17.7392894">
        <ele>31.3801</ele>
        <time>2013-04-18T19:53:24Z</time>
      </trkpt>
      <trkpt lat="59.9769972" lon="17.7392776">
        <ele>30.8995</ele>
        <time>2013-04-18T19:53:25Z</time>
      </trkpt>
      <trkpt lat="59.9770149" lon="17.7392656">
        <ele>30.8995</ele>
        <time>2013-04-18T19:53:26Z</time>
      </trkpt>
      <trkpt lat="59.9770344" lon="17.7392533">
        <ele>30.8995</ele>
        <time>2013-04-18T19:53:27Z</time>
      </trkpt>
      <trkpt lat="59.9770573" lon="17.739246">
        <ele>30.8995</ele>
        <time>2013-04-18T19:53:28Z</time>
      </trkpt>
      <trkpt lat="59.9770815" lon="17.739244">
        <ele>30.8995</ele>
        <time>2013-04-18T19:53:29Z</time>
      </trkpt>
      <trkpt lat="59.9771055" lon="17.7392372">
        <ele>30.4188</ele>
        <time>2013-04-18T19:53:30Z</time>
      </trkpt>
      <trkpt lat="59.9771275" lon="17.7392311">
        <ele>29.9381</ele>
        <time>2013-04-18T19:53:31Z</time>
      </trkpt>
      <trkpt lat="59.9771482" lon="17.7392236">
        <ele>29.9381</ele>
        <time>2013-04-18T19:53:32Z</time>
      </trkpt>
      <trkpt lat="59.9771707" lon="17.7392083">
        <ele>29.9381</ele>
        <time>2013-04-18T19:53:33Z</time>
      </trkpt>
      <trkpt lat="59.977194" lon="17.7391973">
        <ele>29.9381</ele>
        <time>2013-04-18T19:53:34Z</time>
      </trkpt>
      <trkpt lat="59.9772163" lon="17.7391837">
        <ele>29.9381</ele>
        <time>2013-04-18T19:53:35Z</time>
      </trkpt>
      <trkpt lat="59.9772365" lon="17.7391652">
        <ele>30.4188</ele>
        <time>2013-04-18T19:53:36Z</time>
      </trkpt>
      <trkpt lat="59.9772562" lon="17.7391518">
        <ele>30.4188</ele>
        <time>2013-04-18T19:53:37Z</time>
      </trkpt>
      <trkpt lat="59.9772742" lon="17.7391409">
        <ele>29.9381</ele>
        <time>2013-04-18T19:53:38Z</time>
      </trkpt>
      <trkpt lat="59.977294" lon="17.7391324">
        <ele>30.4188</ele>
        <time>2013-04-18T19:53:39Z</time>
      </trkpt>
      <trkpt lat="59.9773137" lon="17.7391279">
        <ele>30.4188</ele>
        <time>2013-04-18T19:53:40Z</time>
      </trkpt>
      <trkpt lat="59.9773318" lon="17.7391248">
        <ele>30.4188</ele>
        <time>2013-04-18T19:53:41Z</time>
      </trkpt>
      <trkpt lat="59.9773513" lon="17.7391077">
        <ele>30.4188</ele>
        <time>2013-04-18T19:53:42Z</time>
      </trkpt>
      <trkpt lat="59.9773728" lon="17.7390979">
        <ele>30.4188</ele>
        <time>2013-04-18T19:53:43Z</time>
      </trkpt>
      <trkpt lat="59.9773925" lon="17.7390834">
        <ele>30.8995</ele>
        <time>2013-04-18T19:53:44Z</time>
      </trkpt>
      <trkpt lat="59.9774111" lon="17.7390649">
        <ele>30.8995</ele>
        <time>2013-04-18T19:53:45Z</time>
      </trkpt>
      <trkpt lat="59.9774313" lon="17.7390399">
        <ele>31.3801</ele>
        <time>2013-04-18T19:53:46Z</time>
      </trkpt>
      <trkpt lat="59.9774478" lon="17.7390143">
        <ele>31.3801</ele>
        <time>2013-04-18T19:53:47Z</time>
      </trkpt>
      <trkpt lat="59.9774652" lon="17.7389943">
        <ele>31.3801</ele>
        <time>2013-04-18T19:53:48Z</time>
      </trkpt>
      <trkpt lat="59.9774849" lon="17.738983">
        <ele>31.3801</ele>
        <time>2013-04-18T19:53:49Z</time>
      </trkpt>
      <trkpt lat="59.9775052" lon="17.7389742">
        <ele>31.3801</ele>
        <time>2013-04-18T19:53:50Z</time>
      </trkpt>
      <trkpt lat="59.9775256" lon="17.7389678">
        <ele>31.3801</ele>
        <time>2013-04-18T19:53:51Z</time>
      </trkpt>
      <trkpt lat="59.9775473" lon="17.7389644">
        <ele>31.8607</ele>
        <time>2013-04-18T19:53:52Z</time>
      </trkpt>
      <trkpt lat="59.9775714" lon="17.7389622">
        <ele>32.3416</ele>
        <time>2013-04-18T19:53:53Z</time>
      </trkpt>
      <trkpt lat="59.9775979" lon="17.7389584">
        <ele>32.8223</ele>
        <time>2013-04-18T19:53:54Z</time>
      </trkpt>
      <trkpt lat="59.9776203" lon="17.738955">
        <ele>32.8223</ele>
        <time>2013-04-18T19:53:55Z</time>
      </trkpt>
      <trkpt lat="59.9776426" lon="17.7389504">
        <ele>33.3029</ele>
        <time>2013-04-18T19:53:56Z</time>
      </trkpt>
      <trkpt lat="59.9776649" lon="17.7389465">
        <ele>33.7834</ele>
        <time>2013-04-18T19:53:57Z</time>
      </trkpt>
      <trkpt lat="59.9776904" lon="17.7389416">
        <ele>34.7449</ele>
        <time>2013-04-18T19:53:58Z</time>
      </trkpt>
      <trkpt lat="59.9777123" lon="17.7389389">
        <ele>35.2255</ele>
        <time>2013-04-18T19:53:59Z</time>
      </trkpt>
      <trkpt lat="59.9777344" lon="17.7389425">
        <ele>35.7061</ele>
        <time>2013-04-18T19:54:00Z</time>
      </trkpt>
      <trkpt lat="59.9777549" lon="17.7389409">
        <ele>35.7061</ele>
        <time>2013-04-18T19:54:01Z</time>
      </trkpt>
      <trkpt lat="59.9777787" lon="17.7389404">
        <ele>36.1868</ele>
        <time>2013-04-18T19:54:02Z</time>
      </trkpt>
      <trkpt lat="59.9778038" lon="17.7389444">
        <ele>36.6675</ele>
        <time>2013-04-18T19:54:03Z</time>
      </trkpt>
      <trkpt lat="59.97783" lon="17.7389464">
        <ele>37.1481</ele>
        <time>2013-04-18T19:54:04Z</time>
      </trkpt>
      <trkpt lat="59.9778563" lon="17.7389559">
        <ele>37.1481</ele>
        <time>2013-04-18T19:54:05Z</time>
      </trkpt>
      <trkpt lat="59.9778788" lon="17.7389678">
        <ele>37.6287</ele>
        <time>2013-04-18T19:54:06Z</time>
      </trkpt>
      <trkpt lat="59.9779016" lon="17.7389778">
        <ele>38.1094</ele>
        <time>2013-04-18T19:54:07Z</time>
      </trkpt>
      <trkpt lat="59.9779226" lon="17.7389901">
        <ele>37.6287</ele>
        <time>2013-04-18T19:54:08Z</time>
      </trkpt>
      <trkpt lat="59.977943" lon="17.7390067">
        <ele>37.6287</ele>
        <time>2013-04-18T19:54:09Z</time>
      </trkpt>
      <trkpt lat="59.9779674" lon="17.7390205">
        <ele>38.5901</ele>
        <time>2013-04-18T19:54:10Z</time>
      </trkpt>
      <trkpt lat="59.9779918" lon="17.7390326">
        <ele>38.5901</ele>
        <time>2013-04-18T19:54:11Z</time>
      </trkpt>
      <trkpt lat="59.9780181" lon="17.7390462">
        <ele>38.1094</ele>
        <time>2013-04-18T19:54:12Z</time>
      </trkpt>
      <trkpt lat="59.9780435" lon="17.7390513">
        <ele>38.5901</ele>
        <time>2013-04-18T19:54:13Z</time>
      </trkpt>
      <trkpt lat="59.9780689" lon="17.7390611">
        <ele>38.5901</ele>
        <time>2013-04-18T19:54:14Z</time>
      </trkpt>
      <trkpt lat="59.9780918" lon="17.7390787">
        <ele>38.5901</ele>
        <time>2013-04-18T19:54:15Z</time>
      </trkpt>
      <trkpt lat="59.9781118" lon="17.7390943">
        <ele>39.0707</ele>
        <time>2013-04-18T19:54:16Z</time>
      </trkpt>
      <trkpt lat="59.9781357" lon="17.7391078">
        <ele>39.5513</ele>
        <time>2013-04-18T19:54:17Z</time>
      </trkpt>
      <trkpt lat="59.9781609" lon="17.7391212">
        <ele>39.5513</ele>
        <time>2013-04-18T19:54:18Z</time>
      </trkpt>
      <trkpt lat="59.9781824" lon="17.7391249">
        <ele>40.0321</ele>
        <time>2013-04-18T19:54:19Z</time>
      </trkpt>
      <trkpt lat="59.9782061" lon="17.7391316">
        <ele>40.9934</ele>
        <time>2013-04-18T19:54:20Z</time>
      </trkpt>
      <trkpt lat="59.9782327" lon="17.7391376">
        <ele>41.474</ele>
        <time>2013-04-18T19:54:21Z</time>
      </trkpt>
      <trkpt lat="59.978258" lon="17.7391445">
        <ele>41.9547</ele>
        <time>2013-04-18T19:54:22Z</time>
      </trkpt>
      <trkpt lat="59.978285" lon="17.739154">
        <ele>41.9547</ele>
        <time>2013-04-18T19:54:23Z</time>
      </trkpt>
      <trkpt lat="59.9783134" lon="17.7391611">
        <ele>42.4354</ele>
        <time>2013-04-18T19:54:24Z</time>
      </trkpt>
      <trkpt lat="59.9783408" lon="17.73917">
        <ele>43.3966</ele>
        <time>2013-04-18T19:54:25Z</time>
      </trkpt>
      <trkpt lat="59.9783676" lon="17.7391755">
        <ele>42.916</ele>
        <time>2013-04-18T19:54:26Z</time>
      </trkpt>
      <trkpt lat="59.9783966" lon="17.7391777">
        <ele>43.3966</ele>
        <time>2013-04-18T19:54:27Z</time>
      </trkpt>
      <trkpt lat="59.9784243" lon="17.7391785">
        <ele>43.3966</ele>
        <time>2013-04-18T19:54:28Z</time>
      </trkpt>
      <trkpt lat="59.9784484" lon="17.7391937">
        <ele>43.3966</ele>
        <time>2013-04-18T19:54:29Z</time>
      </trkpt>
      <trkpt lat="59.9784744" lon="17.7392119">
        <ele>43.3966</ele>
        <time>2013-04-18T19:54:30Z</time>
      </trkpt>
      <trkpt lat="59.9784966" lon="17.7392239">
        <ele>42.916</ele>
        <time>2013-04-18T19:54:31Z</time>
      </trkpt>
      <trkpt lat="59.9785199" lon="17.7392278">
        <ele>42.916</ele>
        <time>2013-04-18T19:54:32Z</time>
      </trkpt>
      <trkpt lat="59.9785439" lon="17.7392335">
        <ele>42.916</ele>
        <time>2013-04-18T19:54:33Z</time>
      </trkpt>
      <trkpt lat="59.9785684" lon="17.7392393">
        <ele>42.4354</ele>
        <time>2013-04-18T19:54:34Z</time>
      </trkpt>
      <trkpt lat="59.978593" lon="17.7392443">
        <ele>42.4354</ele>
        <time>2013-04-18T19:54:35Z</time>
      </trkpt>
      <trkpt lat="59.9786202" lon="17.7392507">
        <ele>42.4354</ele>
        <time>2013-04-18T19:54:36Z</time>
      </trkpt>
      <trkpt lat="59.9786443" lon="17.7392516">
        <ele>41.9547</ele>
        <time>2013-04-18T19:54:37Z</time>
      </trkpt>
      <trkpt lat="59.9786691" lon="17.7392554">
        <ele>41.9547</ele>
        <time>2013-04-18T19:54:38Z</time>
      </trkpt>
      <trkpt lat="59.9786958" lon="17.7392671">
        <ele>41.474</ele>
        <time>2013-04-18T19:54:39Z</time>
      </trkpt>
      <trkpt lat="59.9787217" lon="17.7392776">
        <ele>41.474</ele>
        <time>2013-04-18T19:54:40Z</time>
      </trkpt>
      <trkpt lat="59.978751" lon="17.7392864">
        <ele>41.474</ele>
        <time>2013-04-18T19:54:41Z</time>
      </trkpt>
      <trkpt lat="59.9787776" lon="17.7392936">
        <ele>40.9934</ele>
        <time>2013-04-18T19:54:42Z</time>
      </trkpt>
      <trkpt lat="59.9788025" lon="17.739292">
        <ele>40.5128</ele>
        <time>2013-04-18T19:54:43Z</time>
      </trkpt>
      <trkpt lat="59.9788299" lon="17.7392814">
        <ele>40.5128</ele>
        <time>2013-04-18T19:54:44Z</time>
      </trkpt>
      <trkpt lat="59.9788568" lon="17.7392762">
        <ele>40.0321</ele>
        <time>2013-04-18T19:54:45Z</time>
      </trkpt>
      <trkpt lat="59.9788861" lon="17.7392897">
        <ele>40.0321</ele>
        <time>2013-04-18T19:54:46Z</time>
      </trkpt>
      <trkpt lat="59.9789148" lon="17.7393098">
        <ele>40.0321</ele>
        <time>2013-04-18T19:54:47Z</time>
      </trkpt>
      <trkpt lat="59.9789379" lon="17.7393299">
        <ele>39.5513</ele>
        <time>2013-04-18T19:54:48Z</time>
      </trkpt>
    </trkseg>
  </trk>
</gpx>